<?xml version='1.0' encoding='UTF-8'?><gpx version="1.1" creator="JPX - https://github.com/jenetics/jpx" xmlns="http://www.topografix.com/GPX/1/1"><trk><trkseg><trkpt lat="43.782826408579375" lon="10.921114315896512"><ele>58.00000000000001</ele><time>2026-04-26T16:01:55.928Z</time></trkpt><trkpt lat="43.782793445088735" lon="10.921034874644974"><ele>58.0</ele><time>2026-04-26T16:02:00.678Z</time></trkpt><trkpt lat="43.78276309846504" lon="10.920949639108025"><ele>58.00000000000001</ele><time>2026-04-26T16:02:04.478Z</time></trkpt><trkpt lat="43.7827062970643" lon="10.920882400331745"><ele>58.00000000000001</ele><time>2026-04-26T16:02:09.228Z</time></trkpt><trkpt lat="43.78264137025219" lon="10.92081981960108"><ele>58.0</ele><time>2026-04-26T16:02:13.028Z</time></trkpt><trkpt lat="43.782597237554214" lon="10.920729136395005"><ele>58.00000000000001</ele><time>2026-04-26T16:02:17Z</time></trkpt><trkpt lat="43.78255172540327" lon="10.920635536787973"><ele>58.00000000000001</ele><time>2026-04-26T16:02:21Z</time></trkpt><trkpt lat="43.782523415646246" lon="10.920547538011418"><ele>57.28571428571429</ele><time>2026-04-26T16:02:24Z</time></trkpt><trkpt lat="43.78247781178157" lon="10.920461636090097"><ele>56.57142857142857</ele><time>2026-04-26T16:02:28Z</time></trkpt><trkpt lat="43.782427263122074" lon="10.920364647379941"><ele>55.85714285714286</ele><time>2026-04-26T16:02:32Z</time></trkpt><trkpt lat="43.78238748489973" lon="10.920293001368838"><ele>55.142857142857146</ele><time>2026-04-26T16:02:35Z</time></trkpt><trkpt lat="43.782349115779645" lon="10.920222314347107"><ele>54.42857142857143</ele><time>2026-04-26T16:02:38Z</time></trkpt><trkpt lat="43.782302582430084" lon="10.920132681407797"><ele>53.714285714285715</ele><time>2026-04-26T16:02:42Z</time></trkpt><trkpt lat="43.78226036833523" lon="10.920067014024786"><ele>53.0</ele><time>2026-04-26T16:02:45Z</time></trkpt><trkpt lat="43.78220620953034" lon="10.919979560253255"><ele>52.714285714285715</ele><time>2026-04-26T16:02:49Z</time></trkpt><trkpt lat="43.78216728140595" lon="10.919899319302274"><ele>52.42857142857142</ele><time>2026-04-26T16:02:52Z</time></trkpt><trkpt lat="43.78213307590767" lon="10.919825650456039"><ele>52.14285714285714</ele><time>2026-04-26T16:02:55Z</time></trkpt><trkpt lat="43.78210349908344" lon="10.919742822205052"><ele>51.85714285714286</ele><time>2026-04-26T16:02:58Z</time></trkpt><trkpt lat="43.78206438207793" lon="10.919669355700638"><ele>51.57142857142857</ele><time>2026-04-26T16:03:01Z</time></trkpt><trkpt lat="43.78203563578" lon="10.919584139496223"><ele>51.285714285714285</ele><time>2026-04-26T16:03:04Z</time></trkpt><trkpt lat="43.78199262878165" lon="10.919512105850515"><ele>51.0</ele><time>2026-04-26T16:03:07Z</time></trkpt><trkpt lat="43.781965283875586" lon="10.919420829928349"><ele>51.0</ele><time>2026-04-26T16:03:09.999Z</time></trkpt><trkpt lat="43.78192406464854" lon="10.919350854843216"><ele>51.0</ele><time>2026-04-26T16:03:12.999Z</time></trkpt><trkpt lat="43.78188981580246" lon="10.919268302975595"><ele>51.0</ele><time>2026-04-26T16:03:15.999Z</time></trkpt><trkpt lat="43.781859526852315" lon="10.919182951703329"><ele>51.0</ele><time>2026-04-26T16:03:18.999Z</time></trkpt><trkpt lat="43.78183310805994" lon="10.919092755065302"><ele>51.0</ele><time>2026-04-26T16:03:21.999Z</time></trkpt><trkpt lat="43.781799631344605" lon="10.919006157276769"><ele>51.0</ele><time>2026-04-26T16:03:24.999Z</time></trkpt><trkpt lat="43.78176851110168" lon="10.918913631834103"><ele>51.0</ele><time>2026-04-26T16:03:27.999Z</time></trkpt><trkpt lat="43.7817214345657" lon="10.9188295933982"><ele>50.57142857142857</ele><time>2026-04-26T16:03:30.999Z</time></trkpt><trkpt lat="43.781672064182445" lon="10.918747987281016"><ele>50.142857142857146</ele><time>2026-04-26T16:03:33.999Z</time></trkpt><trkpt lat="43.78163496048641" lon="10.918664296022682"><ele>49.71428571428571</ele><time>2026-04-26T16:03:36.999Z</time></trkpt><trkpt lat="43.781594418453096" lon="10.918588152677852"><ele>49.285714285714285</ele><time>2026-04-26T16:03:39.999Z</time></trkpt><trkpt lat="43.78154916408742" lon="10.918509527987679"><ele>48.857142857142854</ele><time>2026-04-26T16:03:42.999Z</time></trkpt><trkpt lat="43.78150576189257" lon="10.918427218394934"><ele>48.42857142857142</ele><time>2026-04-26T16:03:45.999Z</time></trkpt><trkpt lat="43.78148040685763" lon="10.91833176431443"><ele>48.0</ele><time>2026-04-26T16:03:48.999Z</time></trkpt><trkpt lat="43.78144374522588" lon="10.918251563334888"><ele>47.42857142857142</ele><time>2026-04-26T16:03:51.999Z</time></trkpt><trkpt lat="43.78140248979671" lon="10.918160837132586"><ele>46.857142857142854</ele><time>2026-04-26T16:03:54.999Z</time></trkpt><trkpt lat="43.78134515267593" lon="10.918085606552529"><ele>46.285714285714285</ele><time>2026-04-26T16:03:57.999Z</time></trkpt><trkpt lat="43.78129525852678" lon="10.91801060622759"><ele>45.71428571428571</ele><time>2026-04-26T16:04:00.998Z</time></trkpt><trkpt lat="43.78124947489112" lon="10.9179305157473"><ele>45.14285714285714</ele><time>2026-04-26T16:04:03.998Z</time></trkpt><trkpt lat="43.781194949100026" lon="10.91787390189882"><ele>44.57142857142857</ele><time>2026-04-26T16:04:06.998Z</time></trkpt><trkpt lat="43.78113981879168" lon="10.91780484135878"><ele>44.0</ele><time>2026-04-26T16:04:09.998Z</time></trkpt><trkpt lat="43.781086038534404" lon="10.917744050257388"><ele>44.0</ele><time>2026-04-26T16:04:12.998Z</time></trkpt><trkpt lat="43.78102779231783" lon="10.91767967539106"><ele>44.0</ele><time>2026-04-26T16:04:15.998Z</time></trkpt><trkpt lat="43.78096468326799" lon="10.917622853633924"><ele>44.0</ele><time>2026-04-26T16:04:18.999Z</time></trkpt><trkpt lat="43.78090018360625" lon="10.917578140946599"><ele>44.0</ele><time>2026-04-26T16:04:21.999Z</time></trkpt><trkpt lat="43.78084248233506" lon="10.917512751675659"><ele>44.0</ele><time>2026-04-26T16:04:24.999Z</time></trkpt><trkpt lat="43.78078594999979" lon="10.917441156620217"><ele>44.0</ele><time>2026-04-26T16:04:27.999Z</time></trkpt><trkpt lat="43.78071693026733" lon="10.917390274435844"><ele>43.83333333333333</ele><time>2026-04-26T16:04:30.999Z</time></trkpt><trkpt lat="43.78064671287811" lon="10.917353804929459"><ele>43.666666666666664</ele><time>2026-04-26T16:04:33.999Z</time></trkpt><trkpt lat="43.78058178482832" lon="10.91731288662068"><ele>43.5</ele><time>2026-04-26T16:04:36.999Z</time></trkpt><trkpt lat="43.78051137851162" lon="10.917283004142474"><ele>43.333333333333336</ele><time>2026-04-26T16:04:39.999Z</time></trkpt><trkpt lat="43.78043766340225" lon="10.917266768212803"><ele>43.16666666666667</ele><time>2026-04-26T16:04:42.999Z</time></trkpt><trkpt lat="43.78035965838305" lon="10.917244816980572"><ele>43.0</ele><time>2026-04-26T16:04:45.999Z</time></trkpt><trkpt lat="43.780276203872944" lon="10.917221913107165"><ele>43.0</ele><time>2026-04-26T16:04:48.999Z</time></trkpt><trkpt lat="43.7802010751058" lon="10.917194308322882"><ele>43.0</ele><time>2026-04-26T16:04:51.999Z</time></trkpt><trkpt lat="43.78012161973703" lon="10.917177628321582"><ele>43.0</ele><time>2026-04-26T16:04:54.999Z</time></trkpt><trkpt lat="43.78004418804687" lon="10.917157325667246"><ele>43.0</ele><time>2026-04-26T16:04:57.999Z</time></trkpt><trkpt lat="43.77995910244683" lon="10.917144325683049"><ele>43.0</ele><time>2026-04-26T16:05:00.999Z</time></trkpt><trkpt lat="43.77987714226816" lon="10.917138335525399"><ele>43.0</ele><time>2026-04-26T16:05:03.999Z</time></trkpt><trkpt lat="43.77979677831627" lon="10.917136737071406"><ele>42.5</ele><time>2026-04-26T16:05:06.999Z</time></trkpt><trkpt lat="43.77971806150252" lon="10.91713751803631"><ele>42.0</ele><time>2026-04-26T16:05:09.999Z</time></trkpt><trkpt lat="43.77963380237991" lon="10.917147590799019"><ele>41.5</ele><time>2026-04-26T16:05:12.999Z</time></trkpt><trkpt lat="43.779549986125446" lon="10.91717250931109"><ele>41.0</ele><time>2026-04-26T16:05:15.999Z</time></trkpt><trkpt lat="43.77947221071377" lon="10.917181666339195"><ele>40.5</ele><time>2026-04-26T16:05:18.999Z</time></trkpt><trkpt lat="43.77939103002997" lon="10.917195481241155"><ele>40.0</ele><time>2026-04-26T16:05:21.999Z</time></trkpt><trkpt lat="43.77931037227126" lon="10.917210554969609"><ele>40.0</ele><time>2026-04-26T16:05:24.999Z</time></trkpt><trkpt lat="43.77923139093818" lon="10.917219622151267"><ele>40.0</ele><time>2026-04-26T16:05:27.999Z</time></trkpt><trkpt lat="43.77915524409548" lon="10.917236355378192"><ele>40.0</ele><time>2026-04-26T16:05:30.999Z</time></trkpt><trkpt lat="43.779082106707506" lon="10.91725617292596"><ele>40.0</ele><time>2026-04-26T16:05:33.999Z</time></trkpt><trkpt lat="43.77901980580374" lon="10.917273182497306"><ele>40.0</ele><time>2026-04-26T16:05:35.999Z</time></trkpt><trkpt lat="43.778938881686024" lon="10.917291829464268"><ele>40.0</ele><time>2026-04-26T16:05:38.999Z</time></trkpt><trkpt lat="43.77886111052131" lon="10.917285006463391"><ele>40.0</ele><time>2026-04-26T16:05:41.999Z</time></trkpt><trkpt lat="43.77878075910382" lon="10.917299658132343"><ele>40.0</ele><time>2026-04-26T16:05:44.999Z</time></trkpt><trkpt lat="43.77869266850492" lon="10.917319917316465"><ele>40.0</ele><time>2026-04-26T16:05:47.999Z</time></trkpt><trkpt lat="43.77861080729374" lon="10.917348063248893"><ele>40.0</ele><time>2026-04-26T16:05:50.999Z</time></trkpt><trkpt lat="43.77853283451537" lon="10.917384675249934"><ele>40.0</ele><time>2026-04-26T16:05:53.999Z</time></trkpt><trkpt lat="43.778454371045235" lon="10.917409821923815"><ele>40.0</ele><time>2026-04-26T16:05:56.999Z</time></trkpt><trkpt lat="43.77837697319667" lon="10.917411788045465"><ele>39.833333333333336</ele><time>2026-04-26T16:05:59.998Z</time></trkpt><trkpt lat="43.77829572472285" lon="10.917413780348465"><ele>39.66666666666667</ele><time>2026-04-26T16:06:02.998Z</time></trkpt><trkpt lat="43.77821497796776" lon="10.917414331216643"><ele>39.5</ele><time>2026-04-26T16:06:05.998Z</time></trkpt><trkpt lat="43.77813488907889" lon="10.917431091635823"><ele>39.333333333333336</ele><time>2026-04-26T16:06:08.999Z</time></trkpt><trkpt lat="43.77805680000162" lon="10.917455679810843"><ele>39.166666666666664</ele><time>2026-04-26T16:06:11.999Z</time></trkpt><trkpt lat="43.77798563284949" lon="10.917497852536371"><ele>39.0</ele><time>2026-04-26T16:06:14.999Z</time></trkpt><trkpt lat="43.777914884151606" lon="10.917527422396564"><ele>39.0</ele><time>2026-04-26T16:06:17.999Z</time></trkpt><trkpt lat="43.777838502216674" lon="10.917552994481413"><ele>39.0</ele><time>2026-04-26T16:06:20.999Z</time></trkpt><trkpt lat="43.77775924460391" lon="10.917570181205278"><ele>39.0</ele><time>2026-04-26T16:06:24Z</time></trkpt><trkpt lat="43.77768069567447" lon="10.917592260855992"><ele>39.0</ele><time>2026-04-26T16:06:27Z</time></trkpt><trkpt lat="43.77760680905553" lon="10.917614274405752"><ele>39.0</ele><time>2026-04-26T16:06:30Z</time></trkpt><trkpt lat="43.77753120628913" lon="10.91763203821545"><ele>39.0</ele><time>2026-04-26T16:06:33Z</time></trkpt><trkpt lat="43.77745977980885" lon="10.917643710485578"><ele>39.166666666666664</ele><time>2026-04-26T16:06:36Z</time></trkpt><trkpt lat="43.7773921021309" lon="10.917654785412529"><ele>39.333333333333336</ele><time>2026-04-26T16:06:39Z</time></trkpt><trkpt lat="43.77731225206345" lon="10.917666079695707"><ele>39.5</ele><time>2026-04-26T16:06:42Z</time></trkpt><trkpt lat="43.777242333011216" lon="10.917689055280896"><ele>39.66666666666667</ele><time>2026-04-26T16:06:45Z</time></trkpt><trkpt lat="43.777163701719005" lon="10.91770734336993"><ele>39.833333333333336</ele><time>2026-04-26T16:06:48Z</time></trkpt><trkpt lat="43.77708112698954" lon="10.91771758340317"><ele>40.0</ele><time>2026-04-26T16:06:51Z</time></trkpt><trkpt lat="43.777003352437575" lon="10.917732772811721"><ele>40.0</ele><time>2026-04-26T16:06:54Z</time></trkpt><trkpt lat="43.776925695419806" lon="10.917750447101913"><ele>40.0</ele><time>2026-04-26T16:06:57Z</time></trkpt><trkpt lat="43.77684798093953" lon="10.917770634468441"><ele>40.0</ele><time>2026-04-26T16:07:00Z</time></trkpt><trkpt lat="43.77677536964237" lon="10.91778247399208"><ele>40.0</ele><time>2026-04-26T16:07:03Z</time></trkpt><trkpt lat="43.776690921125386" lon="10.91780423913296"><ele>40.0</ele><time>2026-04-26T16:07:06Z</time></trkpt><trkpt lat="43.77660924242164" lon="10.917812623769137"><ele>40.0</ele><time>2026-04-26T16:07:09Z</time></trkpt><trkpt lat="43.77653470801314" lon="10.91783276837979"><ele>39.833333333333336</ele><time>2026-04-26T16:07:11.999Z</time></trkpt><trkpt lat="43.776460219237926" lon="10.917842227463497"><ele>39.66666666666667</ele><time>2026-04-26T16:07:14.999Z</time></trkpt><trkpt lat="43.776386871119854" lon="10.917870972400573"><ele>39.5</ele><time>2026-04-26T16:07:17.999Z</time></trkpt><trkpt lat="43.776307905030286" lon="10.91789006382392"><ele>39.333333333333336</ele><time>2026-04-26T16:07:20.999Z</time></trkpt><trkpt lat="43.77622648111141" lon="10.917923285394274"><ele>39.166666666666664</ele><time>2026-04-26T16:07:23.999Z</time></trkpt><trkpt lat="43.776148782399524" lon="10.9179375835942"><ele>39.0</ele><time>2026-04-26T16:07:26.999Z</time></trkpt><trkpt lat="43.7760714564529" lon="10.91795889087805"><ele>38.833333333333336</ele><time>2026-04-26T16:07:29.999Z</time></trkpt><trkpt lat="43.775991456250615" lon="10.91797171334922"><ele>38.666666666666664</ele><time>2026-04-26T16:07:32.999Z</time></trkpt><trkpt lat="43.775913732838184" lon="10.91799691043471"><ele>38.5</ele><time>2026-04-26T16:07:35.999Z</time></trkpt><trkpt lat="43.77584163509575" lon="10.918007826324333"><ele>38.33333333333333</ele><time>2026-04-26T16:07:38.999Z</time></trkpt><trkpt lat="43.775759787608095" lon="10.918021971803652"><ele>38.166666666666664</ele><time>2026-04-26T16:07:41.999Z</time></trkpt><trkpt lat="43.775680685362644" lon="10.918041613484403"><ele>38.0</ele><time>2026-04-26T16:07:44.999Z</time></trkpt><trkpt lat="43.77560145241535" lon="10.918049991307168"><ele>38.0</ele><time>2026-04-26T16:07:47.999Z</time></trkpt><trkpt lat="43.775519204354794" lon="10.918065003677082"><ele>38.0</ele><time>2026-04-26T16:07:50.999Z</time></trkpt><trkpt lat="43.77544008589791" lon="10.918086168334296"><ele>38.0</ele><time>2026-04-26T16:07:53.999Z</time></trkpt><trkpt lat="43.775364082585156" lon="10.91810258729028"><ele>38.0</ele><time>2026-04-26T16:07:56.999Z</time></trkpt><trkpt lat="43.77528832804033" lon="10.918122024859946"><ele>38.0</ele><time>2026-04-26T16:07:59.999Z</time></trkpt><trkpt lat="43.775211087162894" lon="10.918150661083985"><ele>38.0</ele><time>2026-04-26T16:08:02.999Z</time></trkpt><trkpt lat="43.77512691020019" lon="10.918149783298883"><ele>37.666666666666664</ele><time>2026-04-26T16:08:05.999Z</time></trkpt><trkpt lat="43.775048595543595" lon="10.918182639780879"><ele>37.33333333333333</ele><time>2026-04-26T16:08:08.999Z</time></trkpt><trkpt lat="43.774973527263256" lon="10.918195938153456"><ele>37.0</ele><time>2026-04-26T16:08:11.999Z</time></trkpt><trkpt lat="43.77489335631112" lon="10.91820411246641"><ele>36.666666666666664</ele><time>2026-04-26T16:08:15Z</time></trkpt><trkpt lat="43.77481978754104" lon="10.91823752146336"><ele>36.333333333333336</ele><time>2026-04-26T16:08:18Z</time></trkpt><trkpt lat="43.77474401408999" lon="10.9182684065466"><ele>36.0</ele><time>2026-04-26T16:08:21Z</time></trkpt><trkpt lat="43.774659888297585" lon="10.918290599803495"><ele>36.0</ele><time>2026-04-26T16:08:24Z</time></trkpt><trkpt lat="43.77457774711997" lon="10.91831043296763"><ele>36.0</ele><time>2026-04-26T16:08:27Z</time></trkpt><trkpt lat="43.774489899255016" lon="10.918333007079674"><ele>36.0</ele><time>2026-04-26T16:08:30Z</time></trkpt><trkpt lat="43.774416112935846" lon="10.91835833421395"><ele>36.0</ele><time>2026-04-26T16:08:33Z</time></trkpt><trkpt lat="43.77433590012904" lon="10.918368100816034"><ele>36.0</ele><time>2026-04-26T16:08:36Z</time></trkpt><trkpt lat="43.7742642015248" lon="10.918410090672008"><ele>36.0</ele><time>2026-04-26T16:08:39Z</time></trkpt><trkpt lat="43.77418618453827" lon="10.918432818402538"><ele>36.166666666666664</ele><time>2026-04-26T16:08:42Z</time></trkpt><trkpt lat="43.7741052199439" lon="10.918456803360248"><ele>36.333333333333336</ele><time>2026-04-26T16:08:45Z</time></trkpt><trkpt lat="43.77403534338458" lon="10.918461916304096"><ele>36.5</ele><time>2026-04-26T16:08:48Z</time></trkpt><trkpt lat="43.77395445379031" lon="10.918475001977699"><ele>36.66666666666667</ele><time>2026-04-26T16:08:51Z</time></trkpt><trkpt lat="43.773891979134596" lon="10.918531786012775"><ele>36.833333333333336</ele><time>2026-04-26T16:08:54Z</time></trkpt><trkpt lat="43.77382633564504" lon="10.918587925012309"><ele>37.0</ele><time>2026-04-26T16:08:57Z</time></trkpt><trkpt lat="43.7737740379999" lon="10.9186594787482"><ele>37.0</ele><time>2026-04-26T16:09:00Z</time></trkpt><trkpt lat="43.77374921429296" lon="10.91877774392335"><ele>37.0</ele><time>2026-04-26T16:09:03Z</time></trkpt><trkpt lat="43.77375657580062" lon="10.91887749302979"><ele>37.0</ele><time>2026-04-26T16:09:06Z</time></trkpt><trkpt lat="43.773707299824494" lon="10.918959334460544"><ele>37.0</ele><time>2026-04-26T16:09:09Z</time></trkpt><trkpt lat="43.77366045970876" lon="10.919038081368102"><ele>37.0</ele><time>2026-04-26T16:09:12Z</time></trkpt><trkpt lat="43.773608832727234" lon="10.919100121609432"><ele>37.0</ele><time>2026-04-26T16:09:15Z</time></trkpt><trkpt lat="43.77354014977282" lon="10.91909213967357"><ele>37.0</ele><time>2026-04-26T16:09:18Z</time></trkpt><trkpt lat="43.773478075388034" lon="10.919012600764296"><ele>36.85714285714286</ele><time>2026-04-26T16:09:21Z</time></trkpt><trkpt lat="43.773420921899145" lon="10.918958366952891"><ele>36.714285714285715</ele><time>2026-04-26T16:09:24Z</time></trkpt><trkpt lat="43.77336052056936" lon="10.91889746913814"><ele>36.57142857142857</ele><time>2026-04-26T16:09:27Z</time></trkpt><trkpt lat="43.77330280574658" lon="10.918842173761607"><ele>36.42857142857143</ele><time>2026-04-26T16:09:30Z</time></trkpt><trkpt lat="43.77323905909879" lon="10.91880200991924"><ele>36.285714285714285</ele><time>2026-04-26T16:09:33Z</time></trkpt><trkpt lat="43.77319051341903" lon="10.91871884859167"><ele>36.142857142857146</ele><time>2026-04-26T16:09:36Z</time></trkpt><trkpt lat="43.773136733972855" lon="10.918652371908532"><ele>36.0</ele><time>2026-04-26T16:09:39Z</time></trkpt><trkpt lat="43.773063469501736" lon="10.918626082921424"><ele>36.00000000000001</ele><time>2026-04-26T16:09:42Z</time></trkpt><trkpt lat="43.772997238970156" lon="10.918599378366604"><ele>36.0</ele><time>2026-04-26T16:09:45Z</time></trkpt><trkpt lat="43.772928384792145" lon="10.91858181600983"><ele>36.0</ele><time>2026-04-26T16:09:48Z</time></trkpt><trkpt lat="43.77285668129518" lon="10.918558886010679"><ele>36.0</ele><time>2026-04-26T16:09:51Z</time></trkpt><trkpt lat="43.77278033870171" lon="10.91854152943676"><ele>36.0</ele><time>2026-04-26T16:09:54Z</time></trkpt><trkpt lat="43.77271804216595" lon="10.918507392975439"><ele>36.00000000000001</ele><time>2026-04-26T16:09:56Z</time></trkpt><trkpt lat="43.77263409224476" lon="10.91847130341997"><ele>36.0</ele><time>2026-04-26T16:09:59Z</time></trkpt><trkpt lat="43.772559592945576" lon="10.918462107695703"><ele>36.0</ele><time>2026-04-26T16:10:02Z</time></trkpt><trkpt lat="43.772480541073215" lon="10.91843168951393"><ele>36.0</ele><time>2026-04-26T16:10:05Z</time></trkpt><trkpt lat="43.7724105813269" lon="10.91844776813512"><ele>36.0</ele><time>2026-04-26T16:10:08Z</time></trkpt><trkpt lat="43.77233345228479" lon="10.918423916146834"><ele>36.0</ele><time>2026-04-26T16:10:11Z</time></trkpt><trkpt lat="43.77225775095679" lon="10.918403200296465"><ele>36.0</ele><time>2026-04-26T16:10:14Z</time></trkpt><trkpt lat="43.77217595941854" lon="10.918386688075664"><ele>36.0</ele><time>2026-04-26T16:10:16.999Z</time></trkpt><trkpt lat="43.772098742764584" lon="10.918364862732886"><ele>36.0</ele><time>2026-04-26T16:10:20Z</time></trkpt><trkpt lat="43.772015867103235" lon="10.918340067293206"><ele>36.0</ele><time>2026-04-26T16:10:23Z</time></trkpt><trkpt lat="43.771929619763156" lon="10.918336328469445"><ele>36.0</ele><time>2026-04-26T16:10:26Z</time></trkpt><trkpt lat="43.77185096158129" lon="10.918338965994991"><ele>36.0</ele><time>2026-04-26T16:10:29Z</time></trkpt><trkpt lat="43.77177083283736" lon="10.918337960680867"><ele>36.0</ele><time>2026-04-26T16:10:32Z</time></trkpt><trkpt lat="43.77169372115323" lon="10.918335339312913"><ele>36.0</ele><time>2026-04-26T16:10:35Z</time></trkpt><trkpt lat="43.771611443145446" lon="10.918330268962437"><ele>36.00000000000001</ele><time>2026-04-26T16:10:38Z</time></trkpt><trkpt lat="43.771538617217374" lon="10.918321536192613"><ele>36.0</ele><time>2026-04-26T16:10:41Z</time></trkpt><trkpt lat="43.771462470415116" lon="10.918313955178593"><ele>36.0</ele><time>2026-04-26T16:10:44Z</time></trkpt><trkpt lat="43.771419743020076" lon="10.918392520261044"><ele>36.0</ele><time>2026-04-26T16:10:47Z</time></trkpt><trkpt lat="43.77142028081719" lon="10.918483390393165"><ele>36.0</ele><time>2026-04-26T16:10:50Z</time></trkpt><trkpt lat="43.77140988907213" lon="10.91857295604063"><ele>36.00000000000001</ele><time>2026-04-26T16:10:53Z</time></trkpt><trkpt lat="43.771391855872174" lon="10.918664773050871"><ele>36.0</ele><time>2026-04-26T16:10:56Z</time></trkpt><trkpt lat="43.77135876950642" lon="10.918750924007364"><ele>37.166666666666664</ele><time>2026-04-26T16:11:00Z</time></trkpt><trkpt lat="43.77128787243482" lon="10.918792985664036"><ele>38.333333333333336</ele><time>2026-04-26T16:11:04Z</time></trkpt><trkpt lat="43.7712076380702" lon="10.918769119231833"><ele>39.5</ele><time>2026-04-26T16:11:08Z</time></trkpt><trkpt lat="43.771141389888484" lon="10.918738207485454"><ele>40.66666666666667</ele><time>2026-04-26T16:11:11Z</time></trkpt><trkpt lat="43.771072211804174" lon="10.918711323850422"><ele>41.833333333333336</ele><time>2026-04-26T16:11:15Z</time></trkpt><trkpt lat="43.77101115901387" lon="10.91877970869919"><ele>43.0</ele><time>2026-04-26T16:11:19Z</time></trkpt><trkpt lat="43.77105221725512" lon="10.918876358936727"><ele>43.00000000000001</ele><time>2026-04-26T16:11:22Z</time></trkpt><trkpt lat="43.77110698662174" lon="10.918944619357896"><ele>43.0</ele><time>2026-04-26T16:11:25Z</time></trkpt><trkpt lat="43.77116220171493" lon="10.919014047601395"><ele>43.0</ele><time>2026-04-26T16:11:28Z</time></trkpt><trkpt lat="43.771201902005274" lon="10.919096728791056"><ele>43.0</ele><time>2026-04-26T16:11:31Z</time></trkpt><trkpt lat="43.7712541065528" lon="10.91915578681004"><ele>43.0</ele><time>2026-04-26T16:11:34Z</time></trkpt><trkpt lat="43.7712948446934" lon="10.919227190069599"><ele>43.00000000000001</ele><time>2026-04-26T16:11:37Z</time></trkpt><trkpt lat="43.77133373172676" lon="10.919297568692206"><ele>43.0</ele><time>2026-04-26T16:11:40Z</time></trkpt><trkpt lat="43.77137458678785" lon="10.919368380463395"><ele>43.714285714285715</ele><time>2026-04-26T16:11:43Z</time></trkpt><trkpt lat="43.77142829590453" lon="10.919426905747452"><ele>44.42857142857143</ele><time>2026-04-26T16:11:46Z</time></trkpt><trkpt lat="43.77147257631545" lon="10.919497747733462"><ele>45.14285714285714</ele><time>2026-04-26T16:11:49Z</time></trkpt><trkpt lat="43.77152422162258" lon="10.919552170580694"><ele>45.85714285714286</ele><time>2026-04-26T16:11:52Z</time></trkpt><trkpt lat="43.77156900475469" lon="10.919618716032659"><ele>46.57142857142857</ele><time>2026-04-26T16:11:55Z</time></trkpt><trkpt lat="43.771615880029294" lon="10.919684019221336"><ele>47.285714285714285</ele><time>2026-04-26T16:11:58Z</time></trkpt><trkpt lat="43.77165242606854" lon="10.919760619730813"><ele>48.0</ele><time>2026-04-26T16:12:01Z</time></trkpt><trkpt lat="43.77169752775511" lon="10.91982292267603"><ele>47.99999999999999</ele><time>2026-04-26T16:12:04Z</time></trkpt><trkpt lat="43.77175072812435" lon="10.919879148070128"><ele>48.0</ele><time>2026-04-26T16:12:07Z</time></trkpt><trkpt lat="43.77179468016652" lon="10.919963809304637"><ele>48.0</ele><time>2026-04-26T16:12:10Z</time></trkpt><trkpt lat="43.77184707566095" lon="10.920039240104519"><ele>48.0</ele><time>2026-04-26T16:12:13Z</time></trkpt><trkpt lat="43.77189695021692" lon="10.920099687137203"><ele>48.0</ele><time>2026-04-26T16:12:16Z</time></trkpt><trkpt lat="43.77193504699128" lon="10.92017097171729"><ele>47.99999999999999</ele><time>2026-04-26T16:12:19Z</time></trkpt><trkpt lat="43.7719861883815" lon="10.920240074920036"><ele>48.0</ele><time>2026-04-26T16:12:22Z</time></trkpt><trkpt lat="43.77202447023687" lon="10.920327356875555"><ele>48.14285714285714</ele><time>2026-04-26T16:12:25.001Z</time></trkpt><trkpt lat="43.77207229432357" lon="10.920400270037398"><ele>48.285714285714285</ele><time>2026-04-26T16:12:28.001Z</time></trkpt><trkpt lat="43.77211186834487" lon="10.920485668819362"><ele>48.42857142857143</ele><time>2026-04-26T16:12:31.001Z</time></trkpt><trkpt lat="43.77214167030947" lon="10.920579830408837"><ele>48.57142857142857</ele><time>2026-04-26T16:12:34.001Z</time></trkpt><trkpt lat="43.772174798414596" lon="10.920664233676838"><ele>48.714285714285715</ele><time>2026-04-26T16:12:37.001Z</time></trkpt><trkpt lat="43.772204210953696" lon="10.920758881574976"><ele>48.857142857142854</ele><time>2026-04-26T16:12:40.001Z</time></trkpt><trkpt lat="43.772243040488526" lon="10.920855904746743"><ele>49.0</ele><time>2026-04-26T16:12:43Z</time></trkpt><trkpt lat="43.7722740411575" lon="10.920955079724688"><ele>49.857142857142854</ele><time>2026-04-26T16:12:46Z</time></trkpt><trkpt lat="43.772307025974335" lon="10.921045615517313"><ele>50.714285714285715</ele><time>2026-04-26T16:12:49Z</time></trkpt><trkpt lat="43.77234330307778" lon="10.921123882231628"><ele>51.57142857142857</ele><time>2026-04-26T16:12:52Z</time></trkpt><trkpt lat="43.77238148884432" lon="10.921205253295511"><ele>52.42857142857143</ele><time>2026-04-26T16:12:55Z</time></trkpt><trkpt lat="43.77242209040155" lon="10.921284681885671"><ele>53.285714285714285</ele><time>2026-04-26T16:12:58Z</time></trkpt><trkpt lat="43.77245585146685" lon="10.921372613922548"><ele>54.14285714285714</ele><time>2026-04-26T16:13:01Z</time></trkpt><trkpt lat="43.77248907746355" lon="10.921459604912172"><ele>55.0</ele><time>2026-04-26T16:13:04Z</time></trkpt><trkpt lat="43.77252385115808" lon="10.9215530976532"><ele>54.99999999999999</ele><time>2026-04-26T16:13:07Z</time></trkpt><trkpt lat="43.77255819193326" lon="10.921642860358826"><ele>55.0</ele><time>2026-04-26T16:13:10Z</time></trkpt><trkpt lat="43.772590667549494" lon="10.921732416925726"><ele>55.0</ele><time>2026-04-26T16:13:13Z</time></trkpt><trkpt lat="43.77262211525343" lon="10.92182153292842"><ele>55.0</ele><time>2026-04-26T16:13:16Z</time></trkpt><trkpt lat="43.772655418194475" lon="10.921903616051479"><ele>55.0</ele><time>2026-04-26T16:13:19Z</time></trkpt><trkpt lat="43.77269178841985" lon="10.921996655292892"><ele>54.99999999999999</ele><time>2026-04-26T16:13:22Z</time></trkpt><trkpt lat="43.77271937186006" lon="10.92207884042619"><ele>55.0</ele><time>2026-04-26T16:13:25Z</time></trkpt><trkpt lat="43.772740022422695" lon="10.922187447723212"><ele>54.666666666666664</ele><time>2026-04-26T16:13:28Z</time></trkpt><trkpt lat="43.772767161499104" lon="10.922284488906882"><ele>54.33333333333333</ele><time>2026-04-26T16:13:31Z</time></trkpt><trkpt lat="43.77278105827394" lon="10.92238624876231"><ele>54.0</ele><time>2026-04-26T16:13:34Z</time></trkpt><trkpt lat="43.77280004868611" lon="10.922492619933108"><ele>53.66666666666667</ele><time>2026-04-26T16:13:37Z</time></trkpt><trkpt lat="43.772826243688826" lon="10.92259307417684"><ele>53.333333333333336</ele><time>2026-04-26T16:13:40Z</time></trkpt><trkpt lat="43.77285323150417" lon="10.922697046706553"><ele>53.0</ele><time>2026-04-26T16:13:43Z</time></trkpt><trkpt lat="43.77289539939636" lon="10.922792139685566"><ele>54.00000000000001</ele><time>2026-04-26T16:13:46Z</time></trkpt><trkpt lat="43.772914386057565" lon="10.922898789303856"><ele>55.0</ele><time>2026-04-26T16:13:49Z</time></trkpt><trkpt lat="43.77294172882359" lon="10.922991570525292"><ele>56.0</ele><time>2026-04-26T16:13:52Z</time></trkpt><trkpt lat="43.772965657983704" lon="10.923084637638816"><ele>57.0</ele><time>2026-04-26T16:13:55Z</time></trkpt><trkpt lat="43.77298013535702" lon="10.923194341676886"><ele>58.00000000000001</ele><time>2026-04-26T16:13:58Z</time></trkpt><trkpt lat="43.77299474416585" lon="10.923302112526947"><ele>59.0</ele><time>2026-04-26T16:14:01Z</time></trkpt><trkpt lat="43.77300518555168" lon="10.923412181796126"><ele>59.57142857142857</ele><time>2026-04-26T16:14:04Z</time></trkpt><trkpt lat="43.77301698799963" lon="10.923509631606548"><ele>60.142857142857146</ele><time>2026-04-26T16:14:07Z</time></trkpt><trkpt lat="43.773047912528696" lon="10.923618677159135"><ele>60.714285714285715</ele><time>2026-04-26T16:14:11Z</time></trkpt><trkpt lat="43.773056099347365" lon="10.92371254752124"><ele>61.285714285714285</ele><time>2026-04-26T16:14:14Z</time></trkpt><trkpt lat="43.77306684786721" lon="10.92380028979093"><ele>61.85714285714286</ele><time>2026-04-26T16:14:17Z</time></trkpt><trkpt lat="43.77306149762986" lon="10.923891380018965"><ele>62.42857142857143</ele><time>2026-04-26T16:14:20Z</time></trkpt><trkpt lat="43.7730765045809" lon="10.92398036363535"><ele>63.0</ele><time>2026-04-26T16:14:23Z</time></trkpt><trkpt lat="43.773056974911185" lon="10.924076332098997"><ele>63.0</ele><time>2026-04-26T16:14:26Z</time></trkpt><trkpt lat="43.7730409958506" lon="10.924166702378745"><ele>63.0</ele><time>2026-04-26T16:14:29Z</time></trkpt><trkpt lat="43.77303365049631" lon="10.9242550796644"><ele>63.0</ele><time>2026-04-26T16:14:32.001Z</time></trkpt><trkpt lat="43.77302939879117" lon="10.924347424562685"><ele>63.0</ele><time>2026-04-26T16:14:35.001Z</time></trkpt><trkpt lat="43.772999386524035" lon="10.92442900608323"><ele>63.0</ele><time>2026-04-26T16:14:38.001Z</time></trkpt><trkpt lat="43.772966373956145" lon="10.924517564631158"><ele>63.0</ele><time>2026-04-26T16:14:41.001Z</time></trkpt><trkpt lat="43.772948346418936" lon="10.924611030086455"><ele>63.0</ele><time>2026-04-26T16:14:44.001Z</time></trkpt><trkpt lat="43.77293912355004" lon="10.924706554860485"><ele>63.14285714285714</ele><time>2026-04-26T16:14:47.001Z</time></trkpt><trkpt lat="43.77291433585863" lon="10.92479082380871"><ele>63.285714285714285</ele><time>2026-04-26T16:14:50.001Z</time></trkpt><trkpt lat="43.772894195614526" lon="10.92487424651076"><ele>63.42857142857143</ele><time>2026-04-26T16:14:53.001Z</time></trkpt><trkpt lat="43.77287995077903" lon="10.924978143701516"><ele>63.57142857142857</ele><time>2026-04-26T16:14:57Z</time></trkpt><trkpt lat="43.77285791462594" lon="10.925084451280634"><ele>63.71428571428571</ele><time>2026-04-26T16:15:01Z</time></trkpt><trkpt lat="43.77283269150183" lon="10.925190905259928"><ele>63.857142857142854</ele><time>2026-04-26T16:15:05Z</time></trkpt><trkpt lat="43.77282171709155" lon="10.925292625977653"><ele>64.0</ele><time>2026-04-26T16:15:09Z</time></trkpt><trkpt lat="43.77278985736816" lon="10.925383828061388"><ele>64.16666666666666</ele><time>2026-04-26T16:15:13Z</time></trkpt><trkpt lat="43.77277246326318" lon="10.92548551774295"><ele>64.33333333333333</ele><time>2026-04-26T16:15:17Z</time></trkpt><trkpt lat="43.77274026064686" lon="10.925578991202899"><ele>64.5</ele><time>2026-04-26T16:15:21Z</time></trkpt><trkpt lat="43.77271810227429" lon="10.925676742544802"><ele>64.66666666666667</ele><time>2026-04-26T16:15:25Z</time></trkpt><trkpt lat="43.77270177530977" lon="10.925762376615136"><ele>64.83333333333334</ele><time>2026-04-26T16:15:28Z</time></trkpt><trkpt lat="43.772689956235155" lon="10.92587605476439"><ele>65.0</ele><time>2026-04-26T16:15:32Z</time></trkpt><trkpt lat="43.77267501626884" lon="10.925994943477622"><ele>65.57142857142858</ele><time>2026-04-26T16:15:36Z</time></trkpt><trkpt lat="43.7726707778439" lon="10.926085936235502"><ele>66.14285714285714</ele><time>2026-04-26T16:15:39Z</time></trkpt><trkpt lat="43.77266044331829" lon="10.926202454902638"><ele>66.71428571428572</ele><time>2026-04-26T16:15:43Z</time></trkpt><trkpt lat="43.77265406953279" lon="10.926296637233147"><ele>67.28571428571429</ele><time>2026-04-26T16:15:46Z</time></trkpt><trkpt lat="43.772646572299145" lon="10.926410959817622"><ele>67.85714285714286</ele><time>2026-04-26T16:15:50Z</time></trkpt><trkpt lat="43.77263481005412" lon="10.92650093958118"><ele>68.42857142857143</ele><time>2026-04-26T16:15:53Z</time></trkpt><trkpt lat="43.77262360314903" lon="10.926597495516987"><ele>69.0</ele><time>2026-04-26T16:15:56Z</time></trkpt><trkpt lat="43.77261954858874" lon="10.926709214298592"><ele>68.5</ele><time>2026-04-26T16:15:59Z</time></trkpt><trkpt lat="43.77260549889247" lon="10.92681772188855"><ele>68.0</ele><time>2026-04-26T16:16:02Z</time></trkpt><trkpt lat="43.772617943124935" lon="10.926925406790273"><ele>67.5</ele><time>2026-04-26T16:16:05Z</time></trkpt><trkpt lat="43.77263695832861" lon="10.927036634255439"><ele>67.0</ele><time>2026-04-26T16:16:08Z</time></trkpt><trkpt lat="43.772641809548176" lon="10.927142260782725"><ele>66.5</ele><time>2026-04-26T16:16:11Z</time></trkpt><trkpt lat="43.77263797508335" lon="10.927253620329797"><ele>66.0</ele><time>2026-04-26T16:16:14Z</time></trkpt><trkpt lat="43.7726420001011" lon="10.92737652340381"><ele>66.0</ele><time>2026-04-26T16:16:17Z</time></trkpt><trkpt lat="43.77264374870047" lon="10.92748945600031"><ele>66.0</ele><time>2026-04-26T16:16:20Z</time></trkpt><trkpt lat="43.772637302844686" lon="10.927598844636876"><ele>66.0</ele><time>2026-04-26T16:16:23Z</time></trkpt><trkpt lat="43.77264305732576" lon="10.927703771921522"><ele>66.0</ele><time>2026-04-26T16:16:26Z</time></trkpt><trkpt lat="43.77264705493275" lon="10.927829892997012"><ele>66.0</ele><time>2026-04-26T16:16:30Z</time></trkpt><trkpt lat="43.77263930882199" lon="10.927939249509905"><ele>66.0</ele><time>2026-04-26T16:16:33Z</time></trkpt><trkpt lat="43.77264529135201" lon="10.928033723334806"><ele>66.42857142857143</ele><time>2026-04-26T16:16:36Z</time></trkpt><trkpt lat="43.772626756389045" lon="10.928128957212037"><ele>66.85714285714286</ele><time>2026-04-26T16:16:39.001Z</time></trkpt><trkpt lat="43.77261710740333" lon="10.928218888559599"><ele>67.28571428571429</ele><time>2026-04-26T16:16:42.001Z</time></trkpt><trkpt lat="43.772579390151414" lon="10.928300630749755"><ele>67.71428571428572</ele><time>2026-04-26T16:16:45.001Z</time></trkpt><trkpt lat="43.77253871954528" lon="10.928393302373367"><ele>68.14285714285715</ele><time>2026-04-26T16:16:48.001Z</time></trkpt><trkpt lat="43.772485985682" lon="10.928480836899215"><ele>68.57142857142857</ele><time>2026-04-26T16:16:51.001Z</time></trkpt><trkpt lat="43.772467500187815" lon="10.928581055185454"><ele>69.0</ele><time>2026-04-26T16:16:54.001Z</time></trkpt><trkpt lat="43.772417843514724" lon="10.928663273180131"><ele>69.83333333333333</ele><time>2026-04-26T16:16:57.001Z</time></trkpt><trkpt lat="43.772387723705755" lon="10.92875678098307"><ele>70.66666666666667</ele><time>2026-04-26T16:17:00Z</time></trkpt><trkpt lat="43.772346681202436" lon="10.928852327388226"><ele>71.5</ele><time>2026-04-26T16:17:03Z</time></trkpt><trkpt lat="43.77231008168519" lon="10.928952348425694"><ele>72.33333333333334</ele><time>2026-04-26T16:17:06Z</time></trkpt><trkpt lat="43.772249191601176" lon="10.929034459493936"><ele>73.16666666666667</ele><time>2026-04-26T16:17:09Z</time></trkpt><trkpt lat="43.772194990844824" lon="10.929125619980432"><ele>74.0</ele><time>2026-04-26T16:17:12Z</time></trkpt><trkpt lat="43.772124889432575" lon="10.929201404860102"><ele>74.5</ele><time>2026-04-26T16:17:15Z</time></trkpt><trkpt lat="43.772061461046974" lon="10.929276070244462"><ele>75.0</ele><time>2026-04-26T16:17:18Z</time></trkpt><trkpt lat="43.77199746114257" lon="10.929343883529972"><ele>75.5</ele><time>2026-04-26T16:17:21Z</time></trkpt><trkpt lat="43.77192844187226" lon="10.929387298303704"><ele>76.0</ele><time>2026-04-26T16:17:24Z</time></trkpt><trkpt lat="43.77186034695117" lon="10.929437603387978"><ele>76.5</ele><time>2026-04-26T16:17:27Z</time></trkpt><trkpt lat="43.771782954120845" lon="10.92947829357762"><ele>77.0</ele><time>2026-04-26T16:17:30Z</time></trkpt><trkpt lat="43.77170907464305" lon="10.92951360573125"><ele>77.5</ele><time>2026-04-26T16:17:33Z</time></trkpt><trkpt lat="43.77163701698605" lon="10.929566255952235"><ele>78.0</ele><time>2026-04-26T16:17:36Z</time></trkpt><trkpt lat="43.77155941737524" lon="10.929606744134896"><ele>78.5</ele><time>2026-04-26T16:17:39Z</time></trkpt><trkpt lat="43.77148558461432" lon="10.929628591544509"><ele>79.0</ele><time>2026-04-26T16:17:42Z</time></trkpt><trkpt lat="43.7714228873544" lon="10.929685261959223"><ele>79.5</ele><time>2026-04-26T16:17:45Z</time></trkpt><trkpt lat="43.771355234886634" lon="10.929719987187804"><ele>80.0</ele><time>2026-04-26T16:17:48Z</time></trkpt><trkpt lat="43.77128842418077" lon="10.929762793366933"><ele>80.0</ele><time>2026-04-26T16:17:51Z</time></trkpt><trkpt lat="43.771210788806485" lon="10.92979930438678"><ele>80.0</ele><time>2026-04-26T16:17:54Z</time></trkpt><trkpt lat="43.771141427046615" lon="10.929833590232533"><ele>80.0</ele><time>2026-04-26T16:17:57Z</time></trkpt><trkpt lat="43.77107416623292" lon="10.929881126429713"><ele>80.0</ele><time>2026-04-26T16:18:00Z</time></trkpt><trkpt lat="43.77100900772263" lon="10.929938101848354"><ele>80.0</ele><time>2026-04-26T16:18:03Z</time></trkpt><trkpt lat="43.77094724887903" lon="10.92998815998292"><ele>80.0</ele><time>2026-04-26T16:18:06Z</time></trkpt><trkpt lat="43.7708834388328" lon="10.930054279804356"><ele>80.71428571428571</ele><time>2026-04-26T16:18:09Z</time></trkpt><trkpt lat="43.7708281810218" lon="10.93012251204006"><ele>81.42857142857143</ele><time>2026-04-26T16:18:12Z</time></trkpt><trkpt lat="43.77078394208487" lon="10.930209039359156"><ele>82.14285714285714</ele><time>2026-04-26T16:18:15Z</time></trkpt><trkpt lat="43.77074056920218" lon="10.930295461573293"><ele>82.85714285714286</ele><time>2026-04-26T16:18:18Z</time></trkpt><trkpt lat="43.77070953237434" lon="10.930372206844565"><ele>83.57142857142857</ele><time>2026-04-26T16:18:21Z</time></trkpt><trkpt lat="43.77069503846016" lon="10.930483121813161"><ele>84.28571428571429</ele><time>2026-04-26T16:18:25Z</time></trkpt><trkpt lat="43.77068345205034" lon="10.930584679952524"><ele>85.0</ele><time>2026-04-26T16:18:29Z</time></trkpt><trkpt lat="43.770670613848786" lon="10.9306863566503"><ele>85.0</ele><time>2026-04-26T16:18:33Z</time></trkpt><trkpt lat="43.77066197045145" lon="10.930783589065518"><ele>85.0</ele><time>2026-04-26T16:18:37Z</time></trkpt><trkpt lat="43.770654991778336" lon="10.93088814254759"><ele>85.0</ele><time>2026-04-26T16:18:41Z</time></trkpt><trkpt lat="43.77064228510652" lon="10.930990251521266"><ele>85.0</ele><time>2026-04-26T16:18:45Z</time></trkpt><trkpt lat="43.7706405695521" lon="10.931098458998703"><ele>85.0</ele><time>2026-04-26T16:18:49Z</time></trkpt><trkpt lat="43.77063861861762" lon="10.931210061046519"><ele>85.0</ele><time>2026-04-26T16:18:53Z</time></trkpt><trkpt lat="43.77062455142839" lon="10.931316659137282"><ele>84.71428571428572</ele><time>2026-04-26T16:18:57Z</time></trkpt><trkpt lat="43.7706183222564" lon="10.931426557893197"><ele>84.42857142857142</ele><time>2026-04-26T16:19:01Z</time></trkpt><trkpt lat="43.77060502446258" lon="10.931533471397058"><ele>84.14285714285714</ele><time>2026-04-26T16:19:05Z</time></trkpt><trkpt lat="43.77060387981959" lon="10.931624060467412"><ele>83.85714285714286</ele><time>2026-04-26T16:19:08Z</time></trkpt><trkpt lat="43.7705929888654" lon="10.931733074208811"><ele>83.57142857142858</ele><time>2026-04-26T16:19:12Z</time></trkpt><trkpt lat="43.77056751089517" lon="10.931815550043073"><ele>83.28571428571428</ele><time>2026-04-26T16:19:15Z</time></trkpt><trkpt lat="43.770543808797065" lon="10.931905783616026"><ele>83.0</ele><time>2026-04-26T16:19:18Z</time></trkpt><trkpt lat="43.77052242116808" lon="10.931994320778541"><ele>83.0</ele><time>2026-04-26T16:19:21Z</time></trkpt><trkpt lat="43.77050689161114" lon="10.932086977626794"><ele>83.0</ele><time>2026-04-26T16:19:24Z</time></trkpt><trkpt lat="43.770482553248726" lon="10.932175147446847"><ele>83.0</ele><time>2026-04-26T16:19:27Z</time></trkpt><trkpt lat="43.77044179895395" lon="10.932254643941754"><ele>83.0</ele><time>2026-04-26T16:19:30Z</time></trkpt><trkpt lat="43.77041039337758" lon="10.93233893594447"><ele>83.0</ele><time>2026-04-26T16:19:33Z</time></trkpt><trkpt lat="43.77037389131511" lon="10.932420355131006"><ele>83.0</ele><time>2026-04-26T16:19:36Z</time></trkpt><trkpt lat="43.77033407988643" lon="10.932505792258935"><ele>83.0</ele><time>2026-04-26T16:19:39Z</time></trkpt><trkpt lat="43.770302936928616" lon="10.932597478412854"><ele>83.16666666666667</ele><time>2026-04-26T16:19:42Z</time></trkpt><trkpt lat="43.770260464482824" lon="10.932679201976077"><ele>83.33333333333334</ele><time>2026-04-26T16:19:45Z</time></trkpt><trkpt lat="43.77022196331176" lon="10.93276612995915"><ele>83.5</ele><time>2026-04-26T16:19:48Z</time></trkpt><trkpt lat="43.7701657828583" lon="10.932845764408405"><ele>83.66666666666667</ele><time>2026-04-26T16:19:51Z</time></trkpt><trkpt lat="43.770108671997356" lon="10.932919345665237"><ele>83.83333333333333</ele><time>2026-04-26T16:19:54Z</time></trkpt><trkpt lat="43.770053979443446" lon="10.933011712662156"><ele>84.0</ele><time>2026-04-26T16:19:57Z</time></trkpt><trkpt lat="43.770001769084786" lon="10.933103755747602"><ele>84.0</ele><time>2026-04-26T16:20:00Z</time></trkpt><trkpt lat="43.76995147549107" lon="10.933196327785037"><ele>84.0</ele><time>2026-04-26T16:20:03Z</time></trkpt><trkpt lat="43.769924430874276" lon="10.933276119164411"><ele>84.0</ele><time>2026-04-26T16:20:05Z</time></trkpt><trkpt lat="43.769885844667606" lon="10.933382036403302"><ele>84.0</ele><time>2026-04-26T16:20:08Z</time></trkpt><trkpt lat="43.76986331806738" lon="10.933496187988885"><ele>84.0</ele><time>2026-04-26T16:20:11Z</time></trkpt><trkpt lat="43.76987180784357" lon="10.933607845868055"><ele>84.0</ele><time>2026-04-26T16:20:14Z</time></trkpt><trkpt lat="43.76990232003875" lon="10.933703705265634"><ele>84.28571428571429</ele><time>2026-04-26T16:20:17Z</time></trkpt><trkpt lat="43.76996701833139" lon="10.933736341948666"><ele>84.57142857142857</ele><time>2026-04-26T16:20:20Z</time></trkpt><trkpt lat="43.77003138281312" lon="10.933757129929273"><ele>84.85714285714286</ele><time>2026-04-26T16:20:23Z</time></trkpt><trkpt lat="43.77010421773415" lon="10.933784767549179"><ele>85.14285714285714</ele><time>2026-04-26T16:20:26Z</time></trkpt><trkpt lat="43.770172848011114" lon="10.933809535388587"><ele>85.42857142857143</ele><time>2026-04-26T16:20:29Z</time></trkpt><trkpt lat="43.77024097230949" lon="10.933828242345282"><ele>85.71428571428572</ele><time>2026-04-26T16:20:32Z</time></trkpt><trkpt lat="43.77030200603739" lon="10.933861198874949"><ele>86.0</ele><time>2026-04-26T16:20:35Z</time></trkpt><trkpt lat="43.77037000477975" lon="10.93390577525027"><ele>84.0</ele><time>2026-04-26T16:20:38Z</time></trkpt><trkpt lat="43.7704420533649" lon="10.933935306247836"><ele>82.0</ele><time>2026-04-26T16:20:41Z</time></trkpt><trkpt lat="43.77051352553047" lon="10.93395420363839"><ele>80.0</ele><time>2026-04-26T16:20:44Z</time></trkpt><trkpt lat="43.7705831732529" lon="10.933989061946543"><ele>78.0</ele><time>2026-04-26T16:20:47Z</time></trkpt><trkpt lat="43.77065495358093" lon="10.93401809490809"><ele>76.0</ele><time>2026-04-26T16:20:50Z</time></trkpt><trkpt lat="43.7707308598806" lon="10.934057306309688"><ele>74.0</ele><time>2026-04-26T16:20:53Z</time></trkpt><trkpt lat="43.77080362864442" lon="10.934062636850799"><ele>74.0</ele><time>2026-04-26T16:20:56Z</time></trkpt><trkpt lat="43.770870516672105" lon="10.934087131352094"><ele>74.0</ele><time>2026-04-26T16:20:59Z</time></trkpt><trkpt lat="43.77094980580209" lon="10.934122086095567"><ele>74.0</ele><time>2026-04-26T16:21:02Z</time></trkpt><trkpt lat="43.77102086490372" lon="10.934140364365033"><ele>74.0</ele><time>2026-04-26T16:21:05Z</time></trkpt><trkpt lat="43.771095056684345" lon="10.934163093256078"><ele>74.0</ele><time>2026-04-26T16:21:08Z</time></trkpt><trkpt lat="43.77116250815084" lon="10.934183460939536"><ele>74.0</ele><time>2026-04-26T16:21:11Z</time></trkpt><trkpt lat="43.771232044891164" lon="10.934219249722181"><ele>74.0</ele><time>2026-04-26T16:21:14Z</time></trkpt><trkpt lat="43.77130967801497" lon="10.934241701133736"><ele>72.0</ele><time>2026-04-26T16:21:17Z</time></trkpt><trkpt lat="43.771380277647694" lon="10.934277108098591"><ele>70.0</ele><time>2026-04-26T16:21:20Z</time></trkpt><trkpt lat="43.771465098201354" lon="10.934307453306415"><ele>68.0</ele><time>2026-04-26T16:21:23Z</time></trkpt><trkpt lat="43.77154438498128" lon="10.93433360282439"><ele>66.0</ele><time>2026-04-26T16:21:26Z</time></trkpt><trkpt lat="43.771622196032226" lon="10.93436022737361"><ele>64.0</ele><time>2026-04-26T16:21:29Z</time></trkpt><trkpt lat="43.771700499827766" lon="10.934383864335315"><ele>62.0</ele><time>2026-04-26T16:21:32Z</time></trkpt><trkpt lat="43.77178020729672" lon="10.93440009683335"><ele>61.16666666666667</ele><time>2026-04-26T16:21:35Z</time></trkpt><trkpt lat="43.77186713233593" lon="10.93442933315511"><ele>60.333333333333336</ele><time>2026-04-26T16:21:38Z</time></trkpt><trkpt lat="43.77195843764637" lon="10.934456479827615"><ele>59.5</ele><time>2026-04-26T16:21:41Z</time></trkpt><trkpt lat="43.77204039311195" lon="10.934479799105564"><ele>58.66666666666667</ele><time>2026-04-26T16:21:44Z</time></trkpt><trkpt lat="43.77210149930997" lon="10.934506609556903"><ele>57.833333333333336</ele><time>2026-04-26T16:21:46Z</time></trkpt><trkpt lat="43.77216398835146" lon="10.934521955807819"><ele>57.0</ele><time>2026-04-26T16:21:48Z</time></trkpt><trkpt lat="43.77224441071201" lon="10.934546255421537"><ele>57.0</ele><time>2026-04-26T16:21:51Z</time></trkpt><trkpt lat="43.77231495463244" lon="10.934573835383938"><ele>57.0</ele><time>2026-04-26T16:21:54Z</time></trkpt><trkpt lat="43.77239471622331" lon="10.9345977569831"><ele>57.0</ele><time>2026-04-26T16:21:57Z</time></trkpt><trkpt lat="43.772484512554044" lon="10.934631050296613"><ele>57.0</ele><time>2026-04-26T16:22:00Z</time></trkpt><trkpt lat="43.77254568399634" lon="10.934659219273113"><ele>57.0</ele><time>2026-04-26T16:22:02Z</time></trkpt><trkpt lat="43.77263207016091" lon="10.934681996154842"><ele>57.0</ele><time>2026-04-26T16:22:05Z</time></trkpt><trkpt lat="43.77272374407723" lon="10.934700318142868"><ele>55.666666666666664</ele><time>2026-04-26T16:22:08Z</time></trkpt><trkpt lat="43.772800464060644" lon="10.93472868874969"><ele>54.33333333333333</ele><time>2026-04-26T16:22:11Z</time></trkpt><trkpt lat="43.77288530495971" lon="10.934752526070723"><ele>53.0</ele><time>2026-04-26T16:22:14Z</time></trkpt><trkpt lat="43.77295842804666" lon="10.934788414392841"><ele>51.666666666666664</ele><time>2026-04-26T16:22:17Z</time></trkpt><trkpt lat="43.77304178181961" lon="10.934808073409762"><ele>50.33333333333333</ele><time>2026-04-26T16:22:20Z</time></trkpt><trkpt lat="43.7731221067652" lon="10.934838990305499"><ele>49.0</ele><time>2026-04-26T16:22:23Z</time></trkpt><trkpt lat="43.77320628068623" lon="10.934881235028195"><ele>48.99999999999999</ele><time>2026-04-26T16:22:26Z</time></trkpt><trkpt lat="43.77328484190991" lon="10.934915501330241"><ele>49.0</ele><time>2026-04-26T16:22:29Z</time></trkpt><trkpt lat="43.773359986011236" lon="10.934953517870296"><ele>49.0</ele><time>2026-04-26T16:22:32Z</time></trkpt><trkpt lat="43.77343318889805" lon="10.93495793924561"><ele>49.0</ele><time>2026-04-26T16:22:35Z</time></trkpt><trkpt lat="43.773518477491045" lon="10.93496490450928"><ele>48.99999999999999</ele><time>2026-04-26T16:22:38Z</time></trkpt><trkpt lat="43.77360172115777" lon="10.935004196646705"><ele>49.0</ele><time>2026-04-26T16:22:41Z</time></trkpt><trkpt lat="43.77367556376304" lon="10.935029020194278"><ele>48.83333333333333</ele><time>2026-04-26T16:22:44Z</time></trkpt><trkpt lat="43.77374328963535" lon="10.935074003308822"><ele>48.666666666666664</ele><time>2026-04-26T16:22:47Z</time></trkpt><trkpt lat="43.773819543108516" lon="10.935108629856451"><ele>48.5</ele><time>2026-04-26T16:22:50Z</time></trkpt><trkpt lat="43.7738832248035" lon="10.93515614159121"><ele>48.33333333333333</ele><time>2026-04-26T16:22:53Z</time></trkpt><trkpt lat="43.77393959129961" lon="10.935235404439617"><ele>48.166666666666664</ele><time>2026-04-26T16:22:56.001Z</time></trkpt><trkpt lat="43.774000877732526" lon="10.935316336970626"><ele>48.0</ele><time>2026-04-26T16:22:59.001Z</time></trkpt><trkpt lat="43.77405763226612" lon="10.93539909857588"><ele>48.0</ele><time>2026-04-26T16:23:02.001Z</time></trkpt><trkpt lat="43.77412725228288" lon="10.935451768682181"><ele>48.0</ele><time>2026-04-26T16:23:05.001Z</time></trkpt><trkpt lat="43.77418189903491" lon="10.935534867084591"><ele>48.0</ele><time>2026-04-26T16:23:08Z</time></trkpt><trkpt lat="43.774243692225085" lon="10.935611212245997"><ele>48.0</ele><time>2026-04-26T16:23:11Z</time></trkpt><trkpt lat="43.7743064840723" lon="10.935684457674633"><ele>48.0</ele><time>2026-04-26T16:23:14Z</time></trkpt><trkpt lat="43.77437100420266" lon="10.935749796299811"><ele>48.0</ele><time>2026-04-26T16:23:17Z</time></trkpt><trkpt lat="43.774428248652676" lon="10.935820803215945"><ele>49.5</ele><time>2026-04-26T16:23:20Z</time></trkpt><trkpt lat="43.774487079296684" lon="10.935891295540934"><ele>51.0</ele><time>2026-04-26T16:23:23Z</time></trkpt><trkpt lat="43.774538556754365" lon="10.935970871766509"><ele>52.5</ele><time>2026-04-26T16:23:26Z</time></trkpt><trkpt lat="43.77458675524138" lon="10.9360479575656"><ele>54.0</ele><time>2026-04-26T16:23:29Z</time></trkpt><trkpt lat="43.774641289989525" lon="10.936119362075987"><ele>55.5</ele><time>2026-04-26T16:23:32Z</time></trkpt><trkpt lat="43.774700996737934" lon="10.9361820790857"><ele>57.0</ele><time>2026-04-26T16:23:35Z</time></trkpt><trkpt lat="43.77477262539519" lon="10.936138001852122"><ele>57.0</ele><time>2026-04-26T16:23:38Z</time></trkpt><trkpt lat="43.77481820191602" lon="10.936061325019875"><ele>56.99999999999999</ele><time>2026-04-26T16:23:41Z</time></trkpt><trkpt lat="43.774873955773366" lon="10.93594108123127"><ele>57.0</ele><time>2026-04-26T16:23:45Z</time></trkpt><trkpt lat="43.77491322844412" lon="10.935861065960763"><ele>57.0</ele><time>2026-04-26T16:23:48Z</time></trkpt><trkpt lat="43.77496046512758" lon="10.935795324872077"><ele>56.99999999999999</ele><time>2026-04-26T16:23:51Z</time></trkpt><trkpt lat="43.77501258820926" lon="10.935732486730142"><ele>57.0</ele><time>2026-04-26T16:23:54Z</time></trkpt><trkpt lat="43.77506977241233" lon="10.935681225011358"><ele>57.0</ele><time>2026-04-26T16:23:57Z</time></trkpt><trkpt lat="43.775126388121635" lon="10.93562526845293"><ele>56.71428571428571</ele><time>2026-04-26T16:24:00Z</time></trkpt><trkpt lat="43.77519277692503" lon="10.935601931252718"><ele>56.42857142857142</ele><time>2026-04-26T16:24:03Z</time></trkpt><trkpt lat="43.77526245478392" lon="10.935573394175533"><ele>56.14285714285714</ele><time>2026-04-26T16:24:06Z</time></trkpt><trkpt lat="43.77532417637664" lon="10.93553395519777"><ele>55.857142857142854</ele><time>2026-04-26T16:24:09Z</time></trkpt><trkpt lat="43.77538016877866" lon="10.935476110435411"><ele>55.57142857142857</ele><time>2026-04-26T16:24:12Z</time></trkpt><trkpt lat="43.77543958314381" lon="10.935445922663467"><ele>55.28571428571428</ele><time>2026-04-26T16:24:15Z</time></trkpt><trkpt lat="43.77550216558571" lon="10.935395184869702"><ele>55.0</ele><time>2026-04-26T16:24:18Z</time></trkpt><trkpt lat="43.77555994066808" lon="10.935346917152867"><ele>54.99999999999999</ele><time>2026-04-26T16:24:21Z</time></trkpt><trkpt lat="43.775613115141944" lon="10.935298333519373"><ele>55.0</ele><time>2026-04-26T16:24:24Z</time></trkpt><trkpt lat="43.775669931768164" lon="10.935245653011869"><ele>55.0</ele><time>2026-04-26T16:24:27Z</time></trkpt><trkpt lat="43.77571993292435" lon="10.935186436147404"><ele>55.0</ele><time>2026-04-26T16:24:30Z</time></trkpt><trkpt lat="43.77577983483089" lon="10.935147186599563"><ele>55.0</ele><time>2026-04-26T16:24:33Z</time></trkpt><trkpt lat="43.77584133749041" lon="10.935105261555671"><ele>54.99999999999999</ele><time>2026-04-26T16:24:37Z</time></trkpt><trkpt lat="43.775909720329324" lon="10.935148592386238"><ele>55.0</ele><time>2026-04-26T16:24:41Z</time></trkpt><trkpt lat="43.77596631458048" lon="10.935192685736428"><ele>54.99999999999999</ele><time>2026-04-26T16:24:47Z</time></trkpt><trkpt lat="43.7760180722852" lon="10.935242488367157"><ele>55.0</ele><time>2026-04-26T16:24:53Z</time></trkpt><trkpt lat="43.77607582187184" lon="10.935300865111907"><ele>55.0</ele><time>2026-04-26T16:24:59.999Z</time></trkpt><trkpt lat="43.77614085750855" lon="10.93532658582685"><ele>55.0</ele><time>2026-04-26T16:25:06Z</time></trkpt><trkpt lat="43.7762133229145" lon="10.935329457897202"><ele>55.0</ele><time>2026-04-26T16:25:12Z</time></trkpt><trkpt lat="43.77628144523215" lon="10.935291749557432"><ele>54.99999999999999</ele><time>2026-04-26T16:25:17Z</time></trkpt><trkpt lat="43.77634419324095" lon="10.935256985069095"><ele>55.0</ele><time>2026-04-26T16:25:25Z</time></trkpt><trkpt lat="43.77640529873313" lon="10.935214019869322"><ele>56.666666666666664</ele><time>2026-04-26T16:25:30Z</time></trkpt><trkpt lat="43.77647007120068" lon="10.935171817910001"><ele>58.33333333333333</ele><time>2026-04-26T16:25:35Z</time></trkpt><trkpt lat="43.77653530162224" lon="10.93511798880731"><ele>60.0</ele><time>2026-04-26T16:25:38Z</time></trkpt><trkpt lat="43.776607614668606" lon="10.93506827318093"><ele>61.66666666666667</ele><time>2026-04-26T16:25:43Z</time></trkpt><trkpt lat="43.77667464965486" lon="10.935033043794476"><ele>63.333333333333336</ele><time>2026-04-26T16:25:46Z</time></trkpt><trkpt lat="43.77676011872056" lon="10.935021921713426"><ele>65.0</ele><time>2026-04-26T16:25:49Z</time></trkpt><trkpt lat="43.776825602777656" lon="10.934982247218903"><ele>65.33333333333334</ele><time>2026-04-26T16:25:52Z</time></trkpt><trkpt lat="43.776887098755275" lon="10.93493159679465"><ele>65.66666666666667</ele><time>2026-04-26T16:25:55Z</time></trkpt><trkpt lat="43.77695372809979" lon="10.934872902783225"><ele>66.0</ele><time>2026-04-26T16:25:58Z</time></trkpt><trkpt lat="43.77699871633788" lon="10.934783108129842"><ele>66.33333333333333</ele><time>2026-04-26T16:26:01Z</time></trkpt><trkpt lat="43.77703600937317" lon="10.934695281007533"><ele>66.66666666666666</ele><time>2026-04-26T16:26:04Z</time></trkpt><trkpt lat="43.77707453839993" lon="10.93460075878167"><ele>67.0</ele><time>2026-04-26T16:26:07Z</time></trkpt><trkpt lat="43.77712412707895" lon="10.93452156304902"><ele>67.0</ele><time>2026-04-26T16:26:10Z</time></trkpt><trkpt lat="43.77716464181869" lon="10.934439001405906"><ele>67.0</ele><time>2026-04-26T16:26:13Z</time></trkpt><trkpt lat="43.77720797012151" lon="10.934363120408959"><ele>67.0</ele><time>2026-04-26T16:26:16Z</time></trkpt><trkpt lat="43.77724531115079" lon="10.934278759676173"><ele>67.0</ele><time>2026-04-26T16:26:19Z</time></trkpt><trkpt lat="43.77727526686424" lon="10.934191521025292"><ele>67.0</ele><time>2026-04-26T16:26:22Z</time></trkpt><trkpt lat="43.777312462052556" lon="10.934098183796229"><ele>67.0</ele><time>2026-04-26T16:26:25Z</time></trkpt><trkpt lat="43.77735207608268" lon="10.934006340527592"><ele>67.0</ele><time>2026-04-26T16:26:28Z</time></trkpt><trkpt lat="43.7773967945743" lon="10.933921536372535"><ele>65.83333333333333</ele><time>2026-04-26T16:26:31Z</time></trkpt><trkpt lat="43.77743151531845" lon="10.933820904954313"><ele>64.66666666666666</ele><time>2026-04-26T16:26:34Z</time></trkpt><trkpt lat="43.77743308818701" lon="10.93371295743897"><ele>63.5</ele><time>2026-04-26T16:26:37Z</time></trkpt><trkpt lat="43.77741253294043" lon="10.933606113858778"><ele>62.33333333333333</ele><time>2026-04-26T16:26:40Z</time></trkpt><trkpt lat="43.77737418423612" lon="10.933506930422466"><ele>61.166666666666664</ele><time>2026-04-26T16:26:43Z</time></trkpt><trkpt lat="43.777341871776194" lon="10.933409571877682"><ele>60.0</ele><time>2026-04-26T16:26:45.999Z</time></trkpt><trkpt lat="43.77731930131336" lon="10.933306205903357"><ele>59.5</ele><time>2026-04-26T16:26:48.999Z</time></trkpt><trkpt lat="43.77728709766343" lon="10.933201590237429"><ele>59.0</ele><time>2026-04-26T16:26:51.999Z</time></trkpt><trkpt lat="43.7772615087656" lon="10.933097614879506"><ele>58.5</ele><time>2026-04-26T16:26:54.999Z</time></trkpt><trkpt lat="43.777236104246754" lon="10.932981000713125"><ele>58.0</ele><time>2026-04-26T16:26:57.999Z</time></trkpt><trkpt lat="43.77720976101737" lon="10.932878517898796"><ele>57.5</ele><time>2026-04-26T16:27:00.999Z</time></trkpt><trkpt lat="43.77718315132403" lon="10.932769735570329"><ele>57.0</ele><time>2026-04-26T16:27:03.999Z</time></trkpt><trkpt lat="43.777143696419536" lon="10.932653049776384"><ele>56.666666666666664</ele><time>2026-04-26T16:27:07Z</time></trkpt><trkpt lat="43.77710502624334" lon="10.932548495215357"><ele>56.33333333333333</ele><time>2026-04-26T16:27:10Z</time></trkpt><trkpt lat="43.777075205323776" lon="10.9324368949399"><ele>56.0</ele><time>2026-04-26T16:27:13Z</time></trkpt><trkpt lat="43.777043987771" lon="10.932325902595798"><ele>55.666666666666664</ele><time>2026-04-26T16:27:16Z</time></trkpt><trkpt lat="43.77701433198043" lon="10.932219423090686"><ele>55.33333333333333</ele><time>2026-04-26T16:27:19Z</time></trkpt><trkpt lat="43.77698263446106" lon="10.932113582843929"><ele>55.0</ele><time>2026-04-26T16:27:22Z</time></trkpt><trkpt lat="43.7769493666944" lon="10.932017293854226"><ele>54.99999999999999</ele><time>2026-04-26T16:27:25Z</time></trkpt><trkpt lat="43.77691743748862" lon="10.931908522406784"><ele>55.0</ele><time>2026-04-26T16:27:28Z</time></trkpt><trkpt lat="43.77689247761239" lon="10.93179181285618"><ele>55.0</ele><time>2026-04-26T16:27:31Z</time></trkpt><trkpt lat="43.77685961775647" lon="10.931690404513981"><ele>55.0</ele><time>2026-04-26T16:27:34Z</time></trkpt><trkpt lat="43.77682824545815" lon="10.931588915942609"><ele>54.99999999999999</ele><time>2026-04-26T16:27:37Z</time></trkpt><trkpt lat="43.77679339408623" lon="10.931493535949894"><ele>55.0</ele><time>2026-04-26T16:27:40Z</time></trkpt><trkpt lat="43.77674829884482" lon="10.931387376803862"><ele>54.666666666666664</ele><time>2026-04-26T16:27:43Z</time></trkpt><trkpt lat="43.776736890532895" lon="10.931269319223444"><ele>54.33333333333333</ele><time>2026-04-26T16:27:46Z</time></trkpt><trkpt lat="43.77669975330023" lon="10.931170659517822"><ele>54.0</ele><time>2026-04-26T16:27:49Z</time></trkpt><trkpt lat="43.77666815831579" lon="10.93107149626236"><ele>53.66666666666667</ele><time>2026-04-26T16:27:52Z</time></trkpt><trkpt lat="43.77663856674934" lon="10.930964094612413"><ele>53.333333333333336</ele><time>2026-04-26T16:27:55Z</time></trkpt><trkpt lat="43.776616281087655" lon="10.930864233490112"><ele>53.0</ele><time>2026-04-26T16:27:58Z</time></trkpt><trkpt lat="43.77657670919757" lon="10.930770635477606"><ele>53.00000000000001</ele><time>2026-04-26T16:28:01Z</time></trkpt><trkpt lat="43.77656021612143" lon="10.930657931173831"><ele>53.0</ele><time>2026-04-26T16:28:04Z</time></trkpt><trkpt lat="43.776553874549805" lon="10.930545699727313"><ele>53.0</ele><time>2026-04-26T16:28:07Z</time></trkpt><trkpt lat="43.77655279502941" lon="10.930427112700482"><ele>53.0</ele><time>2026-04-26T16:28:10Z</time></trkpt><trkpt lat="43.77653621888428" lon="10.930312311789944"><ele>53.00000000000001</ele><time>2026-04-26T16:28:13Z</time></trkpt><trkpt lat="43.77651574417107" lon="10.930205305512855"><ele>53.0</ele><time>2026-04-26T16:28:16Z</time></trkpt><trkpt lat="43.776491123057326" lon="10.930098063436205"><ele>52.333333333333336</ele><time>2026-04-26T16:28:19Z</time></trkpt><trkpt lat="43.77646131300908" lon="10.92998443278776"><ele>51.66666666666667</ele><time>2026-04-26T16:28:22Z</time></trkpt><trkpt lat="43.77643772153211" lon="10.929876122835795"><ele>51.0</ele><time>2026-04-26T16:28:25Z</time></trkpt><trkpt lat="43.77642546353571" lon="10.929767788162666"><ele>50.33333333333333</ele><time>2026-04-26T16:28:27.999Z</time></trkpt><trkpt lat="43.776406721173565" lon="10.929655273077953"><ele>49.666666666666664</ele><time>2026-04-26T16:28:30.999Z</time></trkpt><trkpt lat="43.7763816559327" lon="10.929543183840735"><ele>49.0</ele><time>2026-04-26T16:28:33.999Z</time></trkpt><trkpt lat="43.776356963949794" lon="10.929438727149407"><ele>48.99999999999999</ele><time>2026-04-26T16:28:36.999Z</time></trkpt><trkpt lat="43.77635841833704" lon="10.929328963171153"><ele>49.0</ele><time>2026-04-26T16:28:39.999Z</time></trkpt><trkpt lat="43.776356999372645" lon="10.929226181304408"><ele>49.0</ele><time>2026-04-26T16:28:42.999Z</time></trkpt><trkpt lat="43.77635386676917" lon="10.929104337869795"><ele>49.0</ele><time>2026-04-26T16:28:45.999Z</time></trkpt><trkpt lat="43.776358346920524" lon="10.928986707412895"><ele>48.99999999999999</ele><time>2026-04-26T16:28:48.999Z</time></trkpt><trkpt lat="43.776355924745346" lon="10.928874177519218"><ele>49.0</ele><time>2026-04-26T16:28:51.999Z</time></trkpt><trkpt lat="43.77636645127772" lon="10.9287706176324"><ele>48.49999999999999</ele><time>2026-04-26T16:28:54.999Z</time></trkpt><trkpt lat="43.77636971740134" lon="10.928661348267172"><ele>48.0</ele><time>2026-04-26T16:28:57.999Z</time></trkpt><trkpt lat="43.77636637067832" lon="10.928545888346477"><ele>47.5</ele><time>2026-04-26T16:29:00.999Z</time></trkpt><trkpt lat="43.776361816203725" lon="10.928414674993281"><ele>47.0</ele><time>2026-04-26T16:29:03.999Z</time></trkpt><trkpt lat="43.776341237412254" lon="10.92829528212752"><ele>46.5</ele><time>2026-04-26T16:29:06.999Z</time></trkpt><trkpt lat="43.776323773814894" lon="10.928175651407466"><ele>46.0</ele><time>2026-04-26T16:29:09.999Z</time></trkpt><trkpt lat="43.776300289199355" lon="10.928091708284748"><ele>45.333333333333336</ele><time>2026-04-26T16:29:11.999Z</time></trkpt><trkpt lat="43.77625326959248" lon="10.927991355634745"><ele>44.66666666666667</ele><time>2026-04-26T16:29:15Z</time></trkpt><trkpt lat="43.77623933163724" lon="10.927872647698669"><ele>44.0</ele><time>2026-04-26T16:29:18Z</time></trkpt><trkpt lat="43.776201519810215" lon="10.927779343032824"><ele>43.333333333333336</ele><time>2026-04-26T16:29:21Z</time></trkpt><trkpt lat="43.776119407833704" lon="10.927748919129789"><ele>42.666666666666664</ele><time>2026-04-26T16:29:24Z</time></trkpt><trkpt lat="43.776065496655235" lon="10.927685017137236"><ele>42.0</ele><time>2026-04-26T16:29:27Z</time></trkpt><trkpt lat="43.77604596784582" lon="10.927562760696937"><ele>41.833333333333336</ele><time>2026-04-26T16:29:30Z</time></trkpt><trkpt lat="43.77604097712571" lon="10.927441272509343"><ele>41.666666666666664</ele><time>2026-04-26T16:29:33Z</time></trkpt><trkpt lat="43.77601659676814" lon="10.927333087058592"><ele>41.5</ele><time>2026-04-26T16:29:36Z</time></trkpt><trkpt lat="43.775998587579224" lon="10.92721259581067"><ele>41.33333333333333</ele><time>2026-04-26T16:29:39Z</time></trkpt><trkpt lat="43.775979519831225" lon="10.927092770402703"><ele>41.166666666666664</ele><time>2026-04-26T16:29:42Z</time></trkpt><trkpt lat="43.77596082963089" lon="10.926990457347857"><ele>41.0</ele><time>2026-04-26T16:29:45Z</time></trkpt><trkpt lat="43.77596967436963" lon="10.926888454924299"><ele>40.83333333333333</ele><time>2026-04-26T16:29:48Z</time></trkpt><trkpt lat="43.77603342108689" lon="10.926803503442894"><ele>40.666666666666664</ele><time>2026-04-26T16:29:51Z</time></trkpt><trkpt lat="43.776105654500896" lon="10.926789730438491"><ele>40.5</ele><time>2026-04-26T16:29:54Z</time></trkpt><trkpt lat="43.77617231315262" lon="10.926774281612868"><ele>40.333333333333336</ele><time>2026-04-26T16:29:57Z</time></trkpt><trkpt lat="43.77625113169119" lon="10.926784126669133"><ele>40.16666666666667</ele><time>2026-04-26T16:30:00Z</time></trkpt><trkpt lat="43.77632940921465" lon="10.926780645454027"><ele>40.0</ele><time>2026-04-26T16:30:03Z</time></trkpt><trkpt lat="43.77641291380504" lon="10.926803348881371"><ele>40.0</ele><time>2026-04-26T16:30:06Z</time></trkpt><trkpt lat="43.77649358806003" lon="10.926828463798488"><ele>40.0</ele><time>2026-04-26T16:30:09Z</time></trkpt><trkpt lat="43.77655457856507" lon="10.926851050026519"><ele>40.0</ele><time>2026-04-26T16:30:11Z</time></trkpt><trkpt lat="43.77663576625297" lon="10.926876175050223"><ele>40.0</ele><time>2026-04-26T16:30:14Z</time></trkpt><trkpt lat="43.776713659720606" lon="10.926901765723404"><ele>40.0</ele><time>2026-04-26T16:30:17Z</time></trkpt><trkpt lat="43.776803439355675" lon="10.926923243891839"><ele>40.0</ele><time>2026-04-26T16:30:20Z</time></trkpt><trkpt lat="43.77688650061627" lon="10.926951812950612"><ele>40.333333333333336</ele><time>2026-04-26T16:30:23Z</time></trkpt><trkpt lat="43.776963569336445" lon="10.92695965721575"><ele>40.66666666666667</ele><time>2026-04-26T16:30:26Z</time></trkpt><trkpt lat="43.777050892657215" lon="10.926986211582067"><ele>41.0</ele><time>2026-04-26T16:30:29Z</time></trkpt><trkpt lat="43.777124340211124" lon="10.92700315747295"><ele>41.333333333333336</ele><time>2026-04-26T16:30:32Z</time></trkpt><trkpt lat="43.77719873331232" lon="10.927036196313964"><ele>41.666666666666664</ele><time>2026-04-26T16:30:35Z</time></trkpt><trkpt lat="43.77727570134451" lon="10.927057384569553"><ele>42.0</ele><time>2026-04-26T16:30:38Z</time></trkpt><trkpt lat="43.77734302432552" lon="10.92708742305538"><ele>42.0</ele><time>2026-04-26T16:30:41Z</time></trkpt><trkpt lat="43.77742235394616" lon="10.927122139616813"><ele>42.0</ele><time>2026-04-26T16:30:44Z</time></trkpt><trkpt lat="43.777501684376396" lon="10.927150944256"><ele>42.0</ele><time>2026-04-26T16:30:47Z</time></trkpt><trkpt lat="43.77758114679887" lon="10.927147375344907"><ele>42.0</ele><time>2026-04-26T16:30:50Z</time></trkpt><trkpt lat="43.77764253908044" lon="10.927167168435401"><ele>42.0</ele><time>2026-04-26T16:30:52Z</time></trkpt><trkpt lat="43.77772425093701" lon="10.927176929917394"><ele>42.0</ele><time>2026-04-26T16:30:55Z</time></trkpt><trkpt lat="43.77780649841637" lon="10.927180493980757"><ele>42.0</ele><time>2026-04-26T16:30:57.999Z</time></trkpt><trkpt lat="43.77788497448073" lon="10.927200371239032"><ele>42.0</ele><time>2026-04-26T16:31:00.999Z</time></trkpt><trkpt lat="43.777968443437516" lon="10.9272090013612"><ele>42.0</ele><time>2026-04-26T16:31:03.999Z</time></trkpt><trkpt lat="43.778046947643055" lon="10.927232905562983"><ele>42.0</ele><time>2026-04-26T16:31:06.999Z</time></trkpt><trkpt lat="43.778127622711445" lon="10.927239676245877"><ele>42.0</ele><time>2026-04-26T16:31:09.999Z</time></trkpt><trkpt lat="43.77820566258714" lon="10.927262267350116"><ele>42.0</ele><time>2026-04-26T16:31:12.999Z</time></trkpt><trkpt lat="43.7782756552551" lon="10.92728891858916"><ele>42.0</ele><time>2026-04-26T16:31:15.999Z</time></trkpt><trkpt lat="43.77834166526439" lon="10.927313544651836"><ele>42.0</ele><time>2026-04-26T16:31:19Z</time></trkpt><trkpt lat="43.77841767488267" lon="10.927333960571529"><ele>42.0</ele><time>2026-04-26T16:31:22Z</time></trkpt><trkpt lat="43.778494673998274" lon="10.927357593472557"><ele>42.0</ele><time>2026-04-26T16:31:25Z</time></trkpt><trkpt lat="43.77857540483938" lon="10.927364747435394"><ele>42.0</ele><time>2026-04-26T16:31:28Z</time></trkpt><trkpt lat="43.77865210248026" lon="10.927387450296317"><ele>42.0</ele><time>2026-04-26T16:31:31Z</time></trkpt><trkpt lat="43.77872956953014" lon="10.927425070244508"><ele>42.166666666666664</ele><time>2026-04-26T16:31:34Z</time></trkpt><trkpt lat="43.77881606070531" lon="10.927456474935147"><ele>42.333333333333336</ele><time>2026-04-26T16:31:37Z</time></trkpt><trkpt lat="43.77888822819433" lon="10.927486285592638"><ele>42.5</ele><time>2026-04-26T16:31:40Z</time></trkpt><trkpt lat="43.77895527255751" lon="10.927528571568143"><ele>42.66666666666667</ele><time>2026-04-26T16:31:43Z</time></trkpt><trkpt lat="43.77902803562796" lon="10.927570404694473"><ele>42.833333333333336</ele><time>2026-04-26T16:31:46Z</time></trkpt><trkpt lat="43.77909356711103" lon="10.927641300034459"><ele>43.0</ele><time>2026-04-26T16:31:49Z</time></trkpt><trkpt lat="43.77915769686192" lon="10.92770618947936"><ele>43.16666666666667</ele><time>2026-04-26T16:31:52Z</time></trkpt><trkpt lat="43.77921990808791" lon="10.927766026122235"><ele>43.333333333333336</ele><time>2026-04-26T16:31:55Z</time></trkpt><trkpt lat="43.77929290854359" lon="10.927792486804044"><ele>43.5</ele><time>2026-04-26T16:31:58Z</time></trkpt><trkpt lat="43.77936583560832" lon="10.92783478337238"><ele>43.666666666666664</ele><time>2026-04-26T16:32:01Z</time></trkpt><trkpt lat="43.77943848721199" lon="10.927877419573877"><ele>43.83333333333333</ele><time>2026-04-26T16:32:04Z</time></trkpt><trkpt lat="43.77951435642072" lon="10.927919238544822"><ele>44.0</ele><time>2026-04-26T16:32:07Z</time></trkpt><trkpt lat="43.77958734401006" lon="10.927952855738173"><ele>44.0</ele><time>2026-04-26T16:32:10Z</time></trkpt><trkpt lat="43.779653190202374" lon="10.928009940963204"><ele>44.0</ele><time>2026-04-26T16:32:13Z</time></trkpt><trkpt lat="43.77972802700866" lon="10.928067422082814"><ele>44.0</ele><time>2026-04-26T16:32:16Z</time></trkpt><trkpt lat="43.779801905722344" lon="10.928120910525701"><ele>44.0</ele><time>2026-04-26T16:32:19Z</time></trkpt><trkpt lat="43.779872657378924" lon="10.928175408255468"><ele>44.0</ele><time>2026-04-26T16:32:22Z</time></trkpt><trkpt lat="43.779948647079244" lon="10.928222904789115"><ele>44.0</ele><time>2026-04-26T16:32:25Z</time></trkpt><trkpt lat="43.78001404233335" lon="10.9282770945719"><ele>44.0</ele><time>2026-04-26T16:32:28Z</time></trkpt><trkpt lat="43.78007974523518" lon="10.928335624721875"><ele>44.0</ele><time>2026-04-26T16:32:31Z</time></trkpt><trkpt lat="43.780142071337764" lon="10.928403813824788"><ele>44.0</ele><time>2026-04-26T16:32:34Z</time></trkpt><trkpt lat="43.78020910947764" lon="10.928468472450037"><ele>44.0</ele><time>2026-04-26T16:32:37Z</time></trkpt><trkpt lat="43.78027880300654" lon="10.928533896726439"><ele>44.0</ele><time>2026-04-26T16:32:40Z</time></trkpt><trkpt lat="43.780352853726285" lon="10.928586850628687"><ele>44.0</ele><time>2026-04-26T16:32:43Z</time></trkpt><trkpt lat="43.78042045612752" lon="10.928658060812698"><ele>44.142857142857146</ele><time>2026-04-26T16:32:46Z</time></trkpt><trkpt lat="43.780489420168536" lon="10.928716262114971"><ele>44.285714285714285</ele><time>2026-04-26T16:32:49Z</time></trkpt><trkpt lat="43.78055597839785" lon="10.928772661183077"><ele>44.42857142857143</ele><time>2026-04-26T16:32:52Z</time></trkpt><trkpt lat="43.78062728718091" lon="10.928815941492921"><ele>44.57142857142857</ele><time>2026-04-26T16:32:56Z</time></trkpt><trkpt lat="43.78066097843909" lon="10.928898004288934"><ele>44.714285714285715</ele><time>2026-04-26T16:33:03Z</time></trkpt><trkpt lat="43.78072618348938" lon="10.928934564247335"><ele>44.857142857142854</ele><time>2026-04-26T16:33:06Z</time></trkpt><trkpt lat="43.780793627480634" lon="10.928930776883519"><ele>45.0</ele><time>2026-04-26T16:33:09Z</time></trkpt><trkpt lat="43.78086117856785" lon="10.928928354444931"><ele>45.0</ele><time>2026-04-26T16:33:12Z</time></trkpt><trkpt lat="43.78092624617906" lon="10.928933360331822"><ele>45.0</ele><time>2026-04-26T16:33:15Z</time></trkpt><trkpt lat="43.7809904993409" lon="10.928946625363135"><ele>45.0</ele><time>2026-04-26T16:33:18Z</time></trkpt><trkpt lat="43.78107055098584" lon="10.928956101448215"><ele>45.0</ele><time>2026-04-26T16:33:22Z</time></trkpt><trkpt lat="43.781134572777304" lon="10.92898984364599"><ele>45.0</ele><time>2026-04-26T16:33:25.001Z</time></trkpt><trkpt lat="43.78120365206006" lon="10.929012457019368"><ele>45.0</ele><time>2026-04-26T16:33:28.001Z</time></trkpt><trkpt lat="43.781270055114874" lon="10.929041528989254"><ele>45.0</ele><time>2026-04-26T16:33:31.001Z</time></trkpt><trkpt lat="43.78133787050103" lon="10.92906983951377"><ele>45.14285714285714</ele><time>2026-04-26T16:33:34.001Z</time></trkpt><trkpt lat="43.78140347269708" lon="10.929117898211324"><ele>45.28571428571429</ele><time>2026-04-26T16:33:37.001Z</time></trkpt><trkpt lat="43.78145883714431" lon="10.929176348549916"><ele>45.42857142857143</ele><time>2026-04-26T16:33:40.001Z</time></trkpt><trkpt lat="43.78149742553357" lon="10.929252206181436"><ele>45.57142857142857</ele><time>2026-04-26T16:33:43.001Z</time></trkpt><trkpt lat="43.7815264283665" lon="10.929336073298265"><ele>45.71428571428571</ele><time>2026-04-26T16:33:46.001Z</time></trkpt><trkpt lat="43.781550951887226" lon="10.929425930469781"><ele>45.85714285714286</ele><time>2026-04-26T16:33:49Z</time></trkpt><trkpt lat="43.78158449016066" lon="10.929511118857118"><ele>46.0</ele><time>2026-04-26T16:33:52Z</time></trkpt><trkpt lat="43.7816241623233" lon="10.929601819720437"><ele>45.85714285714286</ele><time>2026-04-26T16:33:55Z</time></trkpt><trkpt lat="43.781675332059066" lon="10.92966645529262"><ele>45.71428571428571</ele><time>2026-04-26T16:33:58Z</time></trkpt><trkpt lat="43.78172964489383" lon="10.929725290379777"><ele>45.57142857142857</ele><time>2026-04-26T16:34:01Z</time></trkpt><trkpt lat="43.78178968778358" lon="10.929773832631055"><ele>45.42857142857143</ele><time>2026-04-26T16:34:04Z</time></trkpt><trkpt lat="43.781854289524176" lon="10.92983967087507"><ele>45.28571428571429</ele><time>2026-04-26T16:34:07Z</time></trkpt><trkpt lat="43.781912042648905" lon="10.929911738507538"><ele>45.14285714285714</ele><time>2026-04-26T16:34:10Z</time></trkpt><trkpt lat="43.781955101316775" lon="10.929993199896446"><ele>45.0</ele><time>2026-04-26T16:34:13Z</time></trkpt><trkpt lat="43.781991041444115" lon="10.930073379029979"><ele>45.0</ele><time>2026-04-26T16:34:16Z</time></trkpt><trkpt lat="43.782025181459176" lon="10.93015606310424"><ele>45.0</ele><time>2026-04-26T16:34:19Z</time></trkpt><trkpt lat="43.78205584073495" lon="10.9302467337014"><ele>45.0</ele><time>2026-04-26T16:34:22Z</time></trkpt><trkpt lat="43.7820733224285" lon="10.930353966071685"><ele>45.0</ele><time>2026-04-26T16:34:25Z</time></trkpt><trkpt lat="43.7820802530934" lon="10.930454706598923"><ele>45.0</ele><time>2026-04-26T16:34:28Z</time></trkpt><trkpt lat="43.78210129202118" lon="10.930550236048921"><ele>45.0</ele><time>2026-04-26T16:34:31Z</time></trkpt><trkpt lat="43.782107146253495" lon="10.930651301613404"><ele>45.0</ele><time>2026-04-26T16:34:34Z</time></trkpt><trkpt lat="43.782132988580024" lon="10.93074088149732"><ele>45.0</ele><time>2026-04-26T16:34:37Z</time></trkpt><trkpt lat="43.78217170691036" lon="10.930837163791452"><ele>45.0</ele><time>2026-04-26T16:34:40Z</time></trkpt><trkpt lat="43.7822220199278" lon="10.930917153138203"><ele>45.0</ele><time>2026-04-26T16:34:43Z</time></trkpt><trkpt lat="43.78226661034132" lon="10.931006049529373"><ele>45.0</ele><time>2026-04-26T16:34:46Z</time></trkpt><trkpt lat="43.782319678179924" lon="10.931069085130249"><ele>45.0</ele><time>2026-04-26T16:34:49Z</time></trkpt><trkpt lat="43.78239551852625" lon="10.931092607289672"><ele>45.0</ele><time>2026-04-26T16:34:52Z</time></trkpt><trkpt lat="43.7824646053401" lon="10.931116879732043"><ele>45.5</ele><time>2026-04-26T16:34:55Z</time></trkpt><trkpt lat="43.78252812559776" lon="10.931181777937923"><ele>46.0</ele><time>2026-04-26T16:34:58Z</time></trkpt><trkpt lat="43.782583996624524" lon="10.931256535655129"><ele>46.5</ele><time>2026-04-26T16:35:01Z</time></trkpt><trkpt lat="43.7826334152106" lon="10.931341793741991"><ele>47.0</ele><time>2026-04-26T16:35:04Z</time></trkpt><trkpt lat="43.78267359492837" lon="10.931431868128563"><ele>47.5</ele><time>2026-04-26T16:35:07Z</time></trkpt><trkpt lat="43.782713227835764" lon="10.931521200584132"><ele>48.0</ele><time>2026-04-26T16:35:10Z</time></trkpt><trkpt lat="43.782762974832174" lon="10.931607860354465"><ele>48.0</ele><time>2026-04-26T16:35:13Z</time></trkpt><trkpt lat="43.78282682173843" lon="10.931666304983349"><ele>48.0</ele><time>2026-04-26T16:35:16Z</time></trkpt><trkpt lat="43.782885758288224" lon="10.931722031361064"><ele>48.0</ele><time>2026-04-26T16:35:19Z</time></trkpt><trkpt lat="43.78294740066173" lon="10.931784468807999"><ele>48.0</ele><time>2026-04-26T16:35:22Z</time></trkpt><trkpt lat="43.78300616069387" lon="10.93184442379044"><ele>48.0</ele><time>2026-04-26T16:35:25Z</time></trkpt><trkpt lat="43.78307140601361" lon="10.931891997636239"><ele>48.0</ele><time>2026-04-26T16:35:28Z</time></trkpt><trkpt lat="43.783138528626665" lon="10.931953908919457"><ele>47.99999999999999</ele><time>2026-04-26T16:35:31.001Z</time></trkpt><trkpt lat="43.783199234067546" lon="10.932012205608054"><ele>48.0</ele><time>2026-04-26T16:35:34.001Z</time></trkpt><trkpt lat="43.78324814809331" lon="10.932083432537562"><ele>48.0</ele><time>2026-04-26T16:35:37.001Z</time></trkpt><trkpt lat="43.783303297064485" lon="10.93215379552478"><ele>48.0</ele><time>2026-04-26T16:35:40.001Z</time></trkpt><trkpt lat="43.783366911347166" lon="10.932207865867786"><ele>48.0</ele><time>2026-04-26T16:35:43.001Z</time></trkpt><trkpt lat="43.78343500195509" lon="10.932255316489046"><ele>47.99999999999999</ele><time>2026-04-26T16:35:46.001Z</time></trkpt><trkpt lat="43.78349676322117" lon="10.932294464248473"><ele>48.0</ele><time>2026-04-26T16:35:49.001Z</time></trkpt><trkpt lat="43.783568054667825" lon="10.932314835758481"><ele>47.99999999999999</ele><time>2026-04-26T16:35:52.001Z</time></trkpt><trkpt lat="43.78364199760158" lon="10.93231918431822"><ele>48.0</ele><time>2026-04-26T16:35:55Z</time></trkpt><trkpt lat="43.78371142964846" lon="10.932311202289233"><ele>48.0</ele><time>2026-04-26T16:35:58Z</time></trkpt><trkpt lat="43.783781328213124" lon="10.932331313393016"><ele>48.0</ele><time>2026-04-26T16:36:01Z</time></trkpt><trkpt lat="43.78384571050207" lon="10.932351606976951"><ele>48.0</ele><time>2026-04-26T16:36:04Z</time></trkpt><trkpt lat="43.78391137683937" lon="10.932373947903372"><ele>47.99999999999999</ele><time>2026-04-26T16:36:07Z</time></trkpt><trkpt lat="43.783974323323314" lon="10.932400402455016"><ele>48.0</ele><time>2026-04-26T16:36:10Z</time></trkpt><trkpt lat="43.78403839670515" lon="10.932425374996967"><ele>47.99999999999999</ele><time>2026-04-26T16:36:13Z</time></trkpt><trkpt lat="43.78410297694209" lon="10.932480712732747"><ele>48.0</ele><time>2026-04-26T16:36:16Z</time></trkpt><trkpt lat="43.78416235001729" lon="10.932537670111282"><ele>48.0</ele><time>2026-04-26T16:36:19Z</time></trkpt><trkpt lat="43.78421801320375" lon="10.932594986762592"><ele>48.0</ele><time>2026-04-26T16:36:22Z</time></trkpt><trkpt lat="43.784263147760804" lon="10.932657889887937"><ele>48.0</ele><time>2026-04-26T16:36:25Z</time></trkpt><trkpt lat="43.78431139662878" lon="10.932728163898128"><ele>47.99999999999999</ele><time>2026-04-26T16:36:28Z</time></trkpt><trkpt lat="43.78435337781149" lon="10.932804024189345"><ele>48.0</ele><time>2026-04-26T16:36:31Z</time></trkpt><trkpt lat="43.78438588153374" lon="10.932893914755919"><ele>48.14285714285714</ele><time>2026-04-26T16:36:34Z</time></trkpt><trkpt lat="43.78443069247595" lon="10.932965482330731"><ele>48.285714285714285</ele><time>2026-04-26T16:36:37Z</time></trkpt><trkpt lat="43.78447013122097" lon="10.933042620749005"><ele>48.42857142857143</ele><time>2026-04-26T16:36:40Z</time></trkpt><trkpt lat="43.78452353104009" lon="10.933101896876723"><ele>48.57142857142857</ele><time>2026-04-26T16:36:43Z</time></trkpt><trkpt lat="43.78457334713386" lon="10.933167959755592"><ele>48.714285714285715</ele><time>2026-04-26T16:36:46Z</time></trkpt><trkpt lat="43.78463044894648" lon="10.933225378406757"><ele>48.857142857142854</ele><time>2026-04-26T16:36:49Z</time></trkpt><trkpt lat="43.784685792489185" lon="10.933281235985637"><ele>49.0</ele><time>2026-04-26T16:36:52Z</time></trkpt><trkpt lat="43.78474782421778" lon="10.933328204520574"><ele>49.0</ele><time>2026-04-26T16:36:55Z</time></trkpt><trkpt lat="43.78482114219094" lon="10.93337986707196"><ele>49.0</ele><time>2026-04-26T16:36:59Z</time></trkpt><trkpt lat="43.784883344450236" lon="10.933424467462078"><ele>49.0</ele><time>2026-04-26T16:37:02Z</time></trkpt><trkpt lat="43.784943012617966" lon="10.933460837695106"><ele>49.0</ele><time>2026-04-26T16:37:05Z</time></trkpt><trkpt lat="43.7850031033545" lon="10.93351080577573"><ele>49.0</ele><time>2026-04-26T16:37:08Z</time></trkpt><trkpt lat="43.78505690145332" lon="10.933564223194898"><ele>49.0</ele><time>2026-04-26T16:37:11Z</time></trkpt><trkpt lat="43.785109254608926" lon="10.933632995960982"><ele>49.0</ele><time>2026-04-26T16:37:14Z</time></trkpt><trkpt lat="43.785168404361876" lon="10.933698315685815"><ele>50.14285714285714</ele><time>2026-04-26T16:37:17Z</time></trkpt><trkpt lat="43.785233432457446" lon="10.933737680075891"><ele>51.285714285714285</ele><time>2026-04-26T16:37:20Z</time></trkpt><trkpt lat="43.78529712746083" lon="10.933779538658824"><ele>52.42857142857143</ele><time>2026-04-26T16:37:23Z</time></trkpt><trkpt lat="43.78536878335919" lon="10.933812624543677"><ele>53.57142857142857</ele><time>2026-04-26T16:37:26Z</time></trkpt><trkpt lat="43.785437485015585" lon="10.93384675483565"><ele>54.71428571428571</ele><time>2026-04-26T16:37:29Z</time></trkpt><trkpt lat="43.78549760983632" lon="10.933895796480758"><ele>55.857142857142854</ele><time>2026-04-26T16:37:32Z</time></trkpt><trkpt lat="43.785559996866944" lon="10.933945243037101"><ele>57.0</ele><time>2026-04-26T16:37:34.999Z</time></trkpt><trkpt lat="43.78562331877668" lon="10.933975562952284"><ele>57.0</ele><time>2026-04-26T16:37:38.001Z</time></trkpt><trkpt lat="43.785686377127135" lon="10.934010974059792"><ele>56.99999999999999</ele><time>2026-04-26T16:37:41.001Z</time></trkpt><trkpt lat="43.78574603168808" lon="10.934051287839807"><ele>57.0</ele><time>2026-04-26T16:37:44.001Z</time></trkpt><trkpt lat="43.785813378776744" lon="10.934066097186504"><ele>57.0</ele><time>2026-04-26T16:37:47.001Z</time></trkpt><trkpt lat="43.78587996437887" lon="10.934101273109887"><ele>56.99999999999999</ele><time>2026-04-26T16:37:50.001Z</time></trkpt><trkpt lat="43.78594329156679" lon="10.934138429609522"><ele>57.0</ele><time>2026-04-26T16:37:53Z</time></trkpt><trkpt lat="43.786025572232724" lon="10.934159020652979"><ele>57.0</ele><time>2026-04-26T16:37:57Z</time></trkpt><trkpt lat="43.786106140197624" lon="10.934187401870128"><ele>57.666666666666664</ele><time>2026-04-26T16:38:01Z</time></trkpt><trkpt lat="43.78618702744988" lon="10.934208690665516"><ele>58.33333333333333</ele><time>2026-04-26T16:38:05Z</time></trkpt><trkpt lat="43.786262488400965" lon="10.934244965042758"><ele>59.0</ele><time>2026-04-26T16:38:09Z</time></trkpt><trkpt lat="43.78632566074871" lon="10.934259323842848"><ele>59.666666666666664</ele><time>2026-04-26T16:38:12Z</time></trkpt><trkpt lat="43.78639816677295" lon="10.934301678883157"><ele>60.33333333333333</ele><time>2026-04-26T16:38:16Z</time></trkpt><trkpt lat="43.786467796908056" lon="10.934342213023236"><ele>61.0</ele><time>2026-04-26T16:38:20Z</time></trkpt><trkpt lat="43.786537562143415" lon="10.934401865661295"><ele>61.14285714285714</ele><time>2026-04-26T16:38:24Z</time></trkpt><trkpt lat="43.786586622288894" lon="10.934485347859322"><ele>61.285714285714285</ele><time>2026-04-26T16:38:28Z</time></trkpt><trkpt lat="43.78664364952543" lon="10.934533765818372"><ele>61.42857142857143</ele><time>2026-04-26T16:38:32Z</time></trkpt><trkpt lat="43.7866923831105" lon="10.934592792359485"><ele>61.57142857142857</ele><time>2026-04-26T16:38:36Z</time></trkpt><trkpt lat="43.78675092602173" lon="10.934643710314855"><ele>61.71428571428572</ele><time>2026-04-26T16:38:42Z</time></trkpt><trkpt lat="43.78681795826536" lon="10.934694246893889"><ele>61.85714285714286</ele><time>2026-04-26T16:38:49Z</time></trkpt><trkpt lat="43.78686395959853" lon="10.934762660268184"><ele>62.0</ele><time>2026-04-26T16:38:56Z</time></trkpt><trkpt lat="43.78690586048696" lon="10.934830657281719"><ele>63.0</ele><time>2026-04-26T16:39:01Z</time></trkpt><trkpt lat="43.78695852814819" lon="10.93488090111386"><ele>64.0</ele><time>2026-04-26T16:39:06Z</time></trkpt><trkpt lat="43.78702215438927" lon="10.934909686422719"><ele>65.0</ele><time>2026-04-26T16:39:10Z</time></trkpt><trkpt lat="43.78708447820486" lon="10.934928342176766"><ele>66.0</ele><time>2026-04-26T16:39:14Z</time></trkpt><trkpt lat="43.78714516790555" lon="10.93497950352436"><ele>67.0</ele><time>2026-04-26T16:39:19Z</time></trkpt><trkpt lat="43.78721032348586" lon="10.935036062591761"><ele>68.0</ele><time>2026-04-26T16:39:24Z</time></trkpt><trkpt lat="43.787283688285726" lon="10.935084014611297"><ele>69.0</ele><time>2026-04-26T16:39:28.999Z</time></trkpt><trkpt lat="43.78734296816076" lon="10.935126322244137"><ele>70.5</ele><time>2026-04-26T16:39:32.999Z</time></trkpt><trkpt lat="43.78739926418339" lon="10.935193822398546"><ele>72.0</ele><time>2026-04-26T16:39:36.999Z</time></trkpt><trkpt lat="43.78746554034011" lon="10.935246668632228"><ele>73.5</ele><time>2026-04-26T16:39:41.999Z</time></trkpt><trkpt lat="43.78751890660256" lon="10.935318796411506"><ele>75.0</ele><time>2026-04-26T16:39:47Z</time></trkpt><trkpt lat="43.78757116992206" lon="10.935391512439917"><ele>76.5</ele><time>2026-04-26T16:39:52Z</time></trkpt><trkpt lat="43.78763629209096" lon="10.935457532830684"><ele>78.0</ele><time>2026-04-26T16:39:58Z</time></trkpt><trkpt lat="43.78769878404589" lon="10.935516956648609"><ele>78.85714285714286</ele><time>2026-04-26T16:40:04Z</time></trkpt><trkpt lat="43.78774251894851" lon="10.93558504398797"><ele>79.71428571428571</ele><time>2026-04-26T16:40:08Z</time></trkpt><trkpt lat="43.78778745649014" lon="10.935650280000592"><ele>80.57142857142857</ele><time>2026-04-26T16:40:13Z</time></trkpt><trkpt lat="43.78784607764514" lon="10.935709764482331"><ele>81.42857142857143</ele><time>2026-04-26T16:40:18Z</time></trkpt><trkpt lat="43.78788539134449" lon="10.935785439193138"><ele>82.28571428571428</ele><time>2026-04-26T16:40:23Z</time></trkpt><trkpt lat="43.78793703345706" lon="10.935838550274747"><ele>83.14285714285714</ele><time>2026-04-26T16:40:27Z</time></trkpt><trkpt lat="43.787986599268734" lon="10.935900296235625"><ele>84.0</ele><time>2026-04-26T16:40:32Z</time></trkpt><trkpt lat="43.788044478231356" lon="10.935953304579064"><ele>85.28571428571429</ele><time>2026-04-26T16:40:37Z</time></trkpt><trkpt lat="43.78810100242627" lon="10.936019953883891"><ele>86.57142857142857</ele><time>2026-04-26T16:40:42Z</time></trkpt><trkpt lat="43.78815390131029" lon="10.936098957521676"><ele>87.85714285714286</ele><time>2026-04-26T16:40:47Z</time></trkpt><trkpt lat="43.7881959138198" lon="10.936164359102568"><ele>89.14285714285714</ele><time>2026-04-26T16:40:52Z</time></trkpt><trkpt lat="43.7882392248997" lon="10.936239867440642"><ele>90.42857142857143</ele><time>2026-04-26T16:40:57Z</time></trkpt><trkpt lat="43.78827037280334" lon="10.936318665017485"><ele>91.71428571428572</ele><time>2026-04-26T16:41:02Z</time></trkpt><trkpt lat="43.788301232706054" lon="10.9363969195621"><ele>93.0</ele><time>2026-04-26T16:41:06Z</time></trkpt><trkpt lat="43.78831998829718" lon="10.93648757810794"><ele>93.00000000000001</ele><time>2026-04-26T16:41:11Z</time></trkpt><trkpt lat="43.788335039899145" lon="10.936584528018201"><ele>93.0</ele><time>2026-04-26T16:41:16Z</time></trkpt><trkpt lat="43.78840421774083" lon="10.936612655377262"><ele>93.0</ele><time>2026-04-26T16:41:20Z</time></trkpt><trkpt lat="43.788482236825715" lon="10.936600484318879"><ele>93.0</ele><time>2026-04-26T16:41:24Z</time></trkpt><trkpt lat="43.78856423501769" lon="10.936603104597943"><ele>93.0</ele><time>2026-04-26T16:41:27.999Z</time></trkpt><trkpt lat="43.78862830659574" lon="10.936599682303816"><ele>93.00000000000001</ele><time>2026-04-26T16:41:30.999Z</time></trkpt><trkpt lat="43.78869478291055" lon="10.936607871301975"><ele>93.0</ele><time>2026-04-26T16:41:33.999Z</time></trkpt><trkpt lat="43.78877288767122" lon="10.936609537177423"><ele>94.00000000000001</ele><time>2026-04-26T16:41:37.999Z</time></trkpt><trkpt lat="43.788836836965594" lon="10.936617606136018"><ele>95.0</ele><time>2026-04-26T16:41:40.999Z</time></trkpt><trkpt lat="43.78891745947015" lon="10.936617216768656"><ele>96.0</ele><time>2026-04-26T16:41:44.999Z</time></trkpt><trkpt lat="43.788981651767095" lon="10.936618323518429"><ele>97.0</ele><time>2026-04-26T16:41:47.999Z</time></trkpt><trkpt lat="43.78905542693361" lon="10.936577130824162"><ele>98.0</ele><time>2026-04-26T16:41:52Z</time></trkpt><trkpt lat="43.78911866369319" lon="10.936549123152492"><ele>99.00000000000001</ele><time>2026-04-26T16:41:55Z</time></trkpt><trkpt lat="43.78917424595343" lon="10.93650188453653"><ele>100.0</ele><time>2026-04-26T16:41:58Z</time></trkpt><trkpt lat="43.78923410851034" lon="10.936462974332699"><ele>100.00000000000001</ele><time>2026-04-26T16:42:01Z</time></trkpt><trkpt lat="43.78929246155048" lon="10.936429288264208"><ele>100.0</ele><time>2026-04-26T16:42:04Z</time></trkpt><trkpt lat="43.7893513650224" lon="10.936387750209786"><ele>100.0</ele><time>2026-04-26T16:42:07Z</time></trkpt><trkpt lat="43.789417723355754" lon="10.936350739854285"><ele>100.0</ele><time>2026-04-26T16:42:10Z</time></trkpt><trkpt lat="43.78945432440343" lon="10.936258082277165"><ele>100.0</ele><time>2026-04-26T16:42:13Z</time></trkpt><trkpt lat="43.7894622721197" lon="10.936153306660113"><ele>100.00000000000001</ele><time>2026-04-26T16:42:16Z</time></trkpt><trkpt lat="43.789447565346464" lon="10.936049445206162"><ele>100.0</ele><time>2026-04-26T16:42:19Z</time></trkpt><trkpt lat="43.78943024469503" lon="10.935955140881713"><ele>100.85714285714286</ele><time>2026-04-26T16:42:22Z</time></trkpt><trkpt lat="43.78943373912741" lon="10.93586600829898"><ele>101.71428571428572</ele><time>2026-04-26T16:42:25Z</time></trkpt><trkpt lat="43.78944720532457" lon="10.93577701051271"><ele>102.57142857142858</ele><time>2026-04-26T16:42:28Z</time></trkpt><trkpt lat="43.789418370157364" lon="10.935684699026543"><ele>103.42857142857143</ele><time>2026-04-26T16:42:31Z</time></trkpt><trkpt lat="43.78945067477055" lon="10.935591779819548"><ele>104.28571428571428</ele><time>2026-04-26T16:42:34Z</time></trkpt><trkpt lat="43.78951779141179" lon="10.935545775063853"><ele>105.14285714285715</ele><time>2026-04-26T16:42:37Z</time></trkpt><trkpt lat="43.78958300097384" lon="10.935542220506896"><ele>106.0</ele><time>2026-04-26T16:42:40Z</time></trkpt><trkpt lat="43.789653062093954" lon="10.935490965984489"><ele>106.00000000000001</ele><time>2026-04-26T16:42:45Z</time></trkpt><trkpt lat="43.78972502006928" lon="10.935473805478393"><ele>106.0</ele><time>2026-04-26T16:42:50Z</time></trkpt><trkpt lat="43.789786270353595" lon="10.935452832429267"><ele>106.0</ele><time>2026-04-26T16:42:55Z</time></trkpt><trkpt lat="43.7898659430317" lon="10.935431108789665"><ele>106.0</ele><time>2026-04-26T16:43:27.999Z</time></trkpt><trkpt lat="43.78993209651787" lon="10.935442170226393"><ele>106.00000000000001</ele><time>2026-04-26T16:43:34.999Z</time></trkpt><trkpt lat="43.790078510760665" lon="10.935442017612594"><ele>106.0</ele><time>2026-04-26T16:43:43.999Z</time></trkpt><trkpt lat="43.79014509630134" lon="10.93547518382358"><ele>107.42857142857143</ele><time>2026-04-26T16:43:47.999Z</time></trkpt><trkpt lat="43.79020455672065" lon="10.935505855691796"><ele>108.85714285714286</ele><time>2026-04-26T16:43:51.999Z</time></trkpt><trkpt lat="43.790270920568645" lon="10.935522840420111"><ele>110.28571428571429</ele><time>2026-04-26T16:43:55.999Z</time></trkpt><trkpt lat="43.79034678780213" lon="10.935565039597062"><ele>111.71428571428572</ele><time>2026-04-26T16:43:58.999Z</time></trkpt><trkpt lat="43.79041750457138" lon="10.93560518094587"><ele>113.14285714285714</ele><time>2026-04-26T16:44:01.999Z</time></trkpt><trkpt lat="43.79049024342531" lon="10.935641741145671"><ele>114.57142857142858</ele><time>2026-04-26T16:44:04.999Z</time></trkpt><trkpt lat="43.79055402650967" lon="10.935637973526244"><ele>116.00000000000001</ele><time>2026-04-26T16:44:09.999Z</time></trkpt><trkpt lat="43.790591923181324" lon="10.935522835806182"><ele>115.99999999999999</ele><time>2026-04-26T16:44:14.999Z</time></trkpt><trkpt lat="43.79057862595156" lon="10.935422849106669"><ele>116.0</ele><time>2026-04-26T16:44:19.999Z</time></trkpt><trkpt lat="43.79056240958345" lon="10.935322361856374"><ele>116.0</ele><time>2026-04-26T16:44:24.999Z</time></trkpt><trkpt lat="43.79052855891121" lon="10.935218082942852"><ele>116.0</ele><time>2026-04-26T16:44:29.999Z</time></trkpt><trkpt lat="43.79048887799132" lon="10.935141006158988"><ele>115.99999999999999</ele><time>2026-04-26T16:44:32.999Z</time></trkpt><trkpt lat="43.79046334836144" lon="10.935043090899818"><ele>116.0</ele><time>2026-04-26T16:44:35.999Z</time></trkpt><trkpt lat="43.79042542671351" lon="10.93495202735472"><ele>114.42857142857144</ele><time>2026-04-26T16:44:39.999Z</time></trkpt><trkpt lat="43.790476309122404" lon="10.934882972146877"><ele>112.85714285714286</ele><time>2026-04-26T16:44:42.999Z</time></trkpt><trkpt lat="43.79054115864024" lon="10.93484577659795"><ele>111.28571428571429</ele><time>2026-04-26T16:44:46.999Z</time></trkpt><trkpt lat="43.79060543972198" lon="10.934825057611505"><ele>109.71428571428572</ele><time>2026-04-26T16:44:50.999Z</time></trkpt><trkpt lat="43.7906678210472" lon="10.934773077300175"><ele>108.14285714285714</ele><time>2026-04-26T16:44:54.999Z</time></trkpt><trkpt lat="43.790717821051466" lon="10.934701744249562"><ele>106.57142857142857</ele><time>2026-04-26T16:44:58.999Z</time></trkpt><trkpt lat="43.79075734094623" lon="10.934613354311214"><ele>105.0</ele><time>2026-04-26T16:45:03.999Z</time></trkpt><trkpt lat="43.790814429427854" lon="10.934555433640305"><ele>105.0</ele><time>2026-04-26T16:45:11.998Z</time></trkpt><trkpt lat="43.79087496146514" lon="10.934517631620665"><ele>105.0</ele><time>2026-04-26T16:45:15.998Z</time></trkpt><trkpt lat="43.790937890506896" lon="10.934495495006246"><ele>105.0</ele><time>2026-04-26T16:45:19.998Z</time></trkpt><trkpt lat="43.79100748488159" lon="10.934454699802275"><ele>105.0</ele><time>2026-04-26T16:45:25.998Z</time></trkpt><trkpt lat="43.791079236158005" lon="10.934433819628373"><ele>105.0</ele><time>2026-04-26T16:45:30.998Z</time></trkpt><trkpt lat="43.79114719670678" lon="10.934407224864202"><ele>105.0</ele><time>2026-04-26T16:45:34.998Z</time></trkpt><trkpt lat="43.79121623143225" lon="10.934378061307257"><ele>105.0</ele><time>2026-04-26T16:45:38.998Z</time></trkpt><trkpt lat="43.79128490676516" lon="10.934376431628108"><ele>106.57142857142857</ele><time>2026-04-26T16:45:42.998Z</time></trkpt><trkpt lat="43.79134646813678" lon="10.934342281879122"><ele>108.14285714285714</ele><time>2026-04-26T16:45:48.998Z</time></trkpt><trkpt lat="43.79142232374716" lon="10.934350822225705"><ele>109.71428571428572</ele><time>2026-04-26T16:45:54.998Z</time></trkpt><trkpt lat="43.791492057191974" lon="10.934368595884616"><ele>111.28571428571429</ele><time>2026-04-26T16:46:02.998Z</time></trkpt><trkpt lat="43.79155674317632" lon="10.934363410739518"><ele>112.85714285714286</ele><time>2026-04-26T16:46:08.998Z</time></trkpt><trkpt lat="43.791604644618445" lon="10.934284708207123"><ele>114.42857142857144</ele><time>2026-04-26T16:46:12.998Z</time></trkpt><trkpt lat="43.79164540438559" lon="10.934191011303183"><ele>116.00000000000001</ele><time>2026-04-26T16:46:17.998Z</time></trkpt><trkpt lat="43.791661050826285" lon="10.934102542100373"><ele>116.00000000000001</ele><time>2026-04-26T16:46:20.998Z</time></trkpt><trkpt lat="43.79166029566588" lon="10.934011349060661"><ele>116.0</ele><time>2026-04-26T16:46:24.998Z</time></trkpt><trkpt lat="43.791669284137555" lon="10.933909690698634"><ele>116.00000000000001</ele><time>2026-04-26T16:46:28.998Z</time></trkpt><trkpt lat="43.79168543271017" lon="10.933824371997584"><ele>116.00000000000001</ele><time>2026-04-26T16:46:31.998Z</time></trkpt><trkpt lat="43.791699086782096" lon="10.933718694175017"><ele>116.0</ele><time>2026-04-26T16:46:35.998Z</time></trkpt><trkpt lat="43.791730525487075" lon="10.93363231821714"><ele>116.00000000000001</ele><time>2026-04-26T16:46:39.998Z</time></trkpt><trkpt lat="43.791797474327424" lon="10.933573134578587"><ele>116.00000000000001</ele><time>2026-04-26T16:46:43.998Z</time></trkpt><trkpt lat="43.7918655959347" lon="10.933536886066449"><ele>118.42857142857144</ele><time>2026-04-26T16:46:47.998Z</time></trkpt><trkpt lat="43.79193439958135" lon="10.933513405480184"><ele>120.85714285714286</ele><time>2026-04-26T16:46:51.997Z</time></trkpt><trkpt lat="43.79199832616461" lon="10.93348308888463"><ele>123.28571428571429</ele><time>2026-04-26T16:46:55.997Z</time></trkpt><trkpt lat="43.792033629706395" lon="10.933386645525047"><ele>125.71428571428572</ele><time>2026-04-26T16:46:59.997Z</time></trkpt><trkpt lat="43.79204353161533" lon="10.93329443056129"><ele>128.14285714285714</ele><time>2026-04-26T16:47:03.997Z</time></trkpt><trkpt lat="43.79205726274592" lon="10.933194202916377"><ele>130.57142857142858</ele><time>2026-04-26T16:47:07.997Z</time></trkpt><trkpt lat="43.79204261205292" lon="10.933088741487797"><ele>133.0</ele><time>2026-04-26T16:47:11.997Z</time></trkpt><trkpt lat="43.79200334193277" lon="10.933010618179884"><ele>133.14285714285714</ele><time>2026-04-26T16:47:15.997Z</time></trkpt><trkpt lat="43.791947132262585" lon="10.93297051674888"><ele>133.28571428571428</ele><time>2026-04-26T16:47:18.997Z</time></trkpt><trkpt lat="43.79186800106276" lon="10.932938057827755"><ele>133.42857142857144</ele><time>2026-04-26T16:47:22.997Z</time></trkpt><trkpt lat="43.791804888461876" lon="10.932942080722581"><ele>133.57142857142856</ele><time>2026-04-26T16:47:25.997Z</time></trkpt><trkpt lat="43.79172744931927" lon="10.932927949137676"><ele>133.71428571428572</ele><time>2026-04-26T16:47:29.997Z</time></trkpt><trkpt lat="43.79166356357595" lon="10.932948851510288"><ele>133.85714285714286</ele><time>2026-04-26T16:47:32.997Z</time></trkpt><trkpt lat="43.791584941135326" lon="10.93294888918753"><ele>134.0</ele><time>2026-04-26T16:47:36.997Z</time></trkpt><trkpt lat="43.791516085367235" lon="10.932970833309437"><ele>132.14285714285714</ele><time>2026-04-26T16:47:40.997Z</time></trkpt><trkpt lat="43.79144721881236" lon="10.932952605373867"><ele>130.28571428571428</ele><time>2026-04-26T16:47:44.997Z</time></trkpt><trkpt lat="43.79137839655991" lon="10.932947211429772"><ele>128.42857142857142</ele><time>2026-04-26T16:47:48.997Z</time></trkpt><trkpt lat="43.791293928292475" lon="10.93295661286483"><ele>126.57142857142857</ele><time>2026-04-26T16:47:52.997Z</time></trkpt><trkpt lat="43.791232464760455" lon="10.932983424642549"><ele>124.7142857142857</ele><time>2026-04-26T16:47:55.997Z</time></trkpt><trkpt lat="43.791163003776255" lon="10.933010086181257"><ele>122.85714285714285</ele><time>2026-04-26T16:47:59.997Z</time></trkpt><trkpt lat="43.791090833343986" lon="10.932977880463506"><ele>121.0</ele><time>2026-04-26T16:48:03.997Z</time></trkpt><trkpt lat="43.791014238977645" lon="10.93297110332373"><ele>121.16666666666667</ele><time>2026-04-26T16:48:07.997Z</time></trkpt><trkpt lat="43.79093529245301" lon="10.932959179965989"><ele>121.33333333333334</ele><time>2026-04-26T16:48:11.997Z</time></trkpt><trkpt lat="43.79086525604501" lon="10.93292662319685"><ele>121.5</ele><time>2026-04-26T16:48:15.997Z</time></trkpt><trkpt lat="43.790801847603355" lon="10.932885020055148"><ele>121.66666666666666</ele><time>2026-04-26T16:48:19.997Z</time></trkpt><trkpt lat="43.79072800964632" lon="10.932849004253788"><ele>121.83333333333333</ele><time>2026-04-26T16:48:23.997Z</time></trkpt><trkpt lat="43.79065430099943" lon="10.932808136056119"><ele>122.0</ele><time>2026-04-26T16:48:27.997Z</time></trkpt><trkpt lat="43.79057934008593" lon="10.932762347468941"><ele>121.99999999999999</ele><time>2026-04-26T16:48:31.997Z</time></trkpt><trkpt lat="43.790502534685636" lon="10.932714463167585"><ele>122.0</ele><time>2026-04-26T16:48:35.996Z</time></trkpt><trkpt lat="43.7904219652931" lon="10.932675546096005"><ele>122.0</ele><time>2026-04-26T16:48:39.996Z</time></trkpt><trkpt lat="43.7903488524207" lon="10.93263389722479"><ele>122.0</ele><time>2026-04-26T16:48:43.996Z</time></trkpt><trkpt lat="43.790278389698486" lon="10.932600391306224"><ele>121.99999999999999</ele><time>2026-04-26T16:48:46.996Z</time></trkpt><trkpt lat="43.790220920117314" lon="10.932527435866943"><ele>122.0</ele><time>2026-04-26T16:48:49.996Z</time></trkpt><trkpt lat="43.790166068369395" lon="10.93245536254549"><ele>121.7142857142857</ele><time>2026-04-26T16:48:52.996Z</time></trkpt><trkpt lat="43.79009597494036" lon="10.932417977419101"><ele>121.42857142857142</ele><time>2026-04-26T16:48:55.996Z</time></trkpt><trkpt lat="43.790034318183345" lon="10.932377078638554"><ele>121.14285714285714</ele><time>2026-04-26T16:48:58.996Z</time></trkpt><trkpt lat="43.789969077750385" lon="10.932347606496075"><ele>120.85714285714285</ele><time>2026-04-26T16:52:50.994Z</time></trkpt><trkpt lat="43.789887079146865" lon="10.932299710286635"><ele>120.57142857142856</ele><time>2026-04-26T16:52:53.994Z</time></trkpt><trkpt lat="43.78981793876176" lon="10.932251207776671"><ele>120.28571428571429</ele><time>2026-04-26T16:52:56.994Z</time></trkpt><trkpt lat="43.78976014899563" lon="10.932216111507287"><ele>120.0</ele><time>2026-04-26T16:52:58.994Z</time></trkpt><trkpt lat="43.78969365694233" lon="10.93217178725097"><ele>120.0</ele><time>2026-04-26T16:53:01.994Z</time></trkpt><trkpt lat="43.789619833346826" lon="10.932139660715956"><ele>120.0</ele><time>2026-04-26T16:53:04.994Z</time></trkpt><trkpt lat="43.78955622001884" lon="10.932106378278176"><ele>120.0</ele><time>2026-04-26T16:53:07.994Z</time></trkpt><trkpt lat="43.78948640805235" lon="10.932078713852716"><ele>120.0</ele><time>2026-04-26T16:53:10.994Z</time></trkpt><trkpt lat="43.78942214862216" lon="10.93203851372573"><ele>120.0</ele><time>2026-04-26T16:53:13.994Z</time></trkpt><trkpt lat="43.789361790373405" lon="10.93200074203287"><ele>120.0</ele><time>2026-04-26T16:53:16.994Z</time></trkpt><trkpt lat="43.78929991537703" lon="10.931973123554398"><ele>120.0</ele><time>2026-04-26T16:53:19.994Z</time></trkpt><trkpt lat="43.789233216995484" lon="10.931939827020406"><ele>120.5</ele><time>2026-04-26T16:53:22.994Z</time></trkpt><trkpt lat="43.78916790589045" lon="10.931910164685307"><ele>121.0</ele><time>2026-04-26T16:53:25.994Z</time></trkpt><trkpt lat="43.789095357842704" lon="10.93187542858519"><ele>121.5</ele><time>2026-04-26T16:53:28.994Z</time></trkpt><trkpt lat="43.789020716825966" lon="10.931833163076405"><ele>122.0</ele><time>2026-04-26T16:53:31.994Z</time></trkpt><trkpt lat="43.7889407612701" lon="10.931805042352533"><ele>122.5</ele><time>2026-04-26T16:53:34.994Z</time></trkpt><trkpt lat="43.78886609021304" lon="10.93175575476886"><ele>123.0</ele><time>2026-04-26T16:53:37.994Z</time></trkpt><trkpt lat="43.78880221083696" lon="10.93170828103217"><ele>122.5</ele><time>2026-04-26T16:53:40.993Z</time></trkpt><trkpt lat="43.78868721847243" lon="10.931622857764069"><ele>122.0</ele><time>2026-04-26T16:53:45.993Z</time></trkpt><trkpt lat="43.7886190545479" lon="10.931561203047057"><ele>121.5</ele><time>2026-04-26T16:53:48.993Z</time></trkpt><trkpt lat="43.78854839271401" lon="10.931520494450755"><ele>121.0</ele><time>2026-04-26T16:53:51.993Z</time></trkpt><trkpt lat="43.78848128298024" lon="10.931489939394442"><ele>120.5</ele><time>2026-04-26T16:53:54.993Z</time></trkpt><trkpt lat="43.78840883260401" lon="10.931464457464793"><ele>120.0</ele><time>2026-04-26T16:53:57.993Z</time></trkpt><trkpt lat="43.788336318739105" lon="10.931441850789387"><ele>120.0</ele><time>2026-04-26T16:54:00.993Z</time></trkpt><trkpt lat="43.78825061274618" lon="10.93143622518454"><ele>120.0</ele><time>2026-04-26T16:54:03.993Z</time></trkpt><trkpt lat="43.78817344324838" lon="10.931436955491789"><ele>120.0</ele><time>2026-04-26T16:54:06.993Z</time></trkpt><trkpt lat="43.78809727172813" lon="10.931424401678294"><ele>120.0</ele><time>2026-04-26T16:54:09.993Z</time></trkpt><trkpt lat="43.78801761936229" lon="10.931381077893393"><ele>120.0</ele><time>2026-04-26T16:54:12.993Z</time></trkpt><trkpt lat="43.7879432153873" lon="10.931345973987362"><ele>120.0</ele><time>2026-04-26T16:54:15.993Z</time></trkpt><trkpt lat="43.78786241514296" lon="10.931313941160079"><ele>120.0</ele><time>2026-04-26T16:54:18.993Z</time></trkpt><trkpt lat="43.78778574867057" lon="10.931262544385534"><ele>120.0</ele><time>2026-04-26T16:54:21.993Z</time></trkpt><trkpt lat="43.787708475882575" lon="10.931218577478376"><ele>120.0</ele><time>2026-04-26T16:54:24.993Z</time></trkpt><trkpt lat="43.78762483719903" lon="10.93121397953566"><ele>120.0</ele><time>2026-04-26T16:54:27.993Z</time></trkpt><trkpt lat="43.78754336005921" lon="10.9312231916779"><ele>120.0</ele><time>2026-04-26T16:54:30.993Z</time></trkpt><trkpt lat="43.78745428042004" lon="10.931202347458466"><ele>120.0</ele><time>2026-04-26T16:54:33.993Z</time></trkpt><trkpt lat="43.78736934538578" lon="10.931168464906932"><ele>118.83333333333333</ele><time>2026-04-26T16:54:36.993Z</time></trkpt><trkpt lat="43.78728241850194" lon="10.93115120959189"><ele>117.66666666666666</ele><time>2026-04-26T16:54:39.993Z</time></trkpt><trkpt lat="43.78720147634069" lon="10.931136082146566"><ele>116.5</ele><time>2026-04-26T16:54:42.993Z</time></trkpt><trkpt lat="43.787128086486" lon="10.931110224797184"><ele>115.33333333333333</ele><time>2026-04-26T16:54:45.993Z</time></trkpt><trkpt lat="43.787045152479664" lon="10.93107305605604"><ele>114.16666666666666</ele><time>2026-04-26T16:54:48.993Z</time></trkpt><trkpt lat="43.7870020257426" lon="10.931005141337234"><ele>113.0</ele><time>2026-04-26T16:54:50.993Z</time></trkpt><trkpt lat="43.786988129336436" lon="10.930886214074976"><ele>112.99999999999999</ele><time>2026-04-26T16:54:53.993Z</time></trkpt><trkpt lat="43.787003403127734" lon="10.93077793245031"><ele>113.0</ele><time>2026-04-26T16:54:56.993Z</time></trkpt><trkpt lat="43.78701597678723" lon="10.930669202040063"><ele>113.0</ele><time>2026-04-26T16:54:59.993Z</time></trkpt><trkpt lat="43.78701697915872" lon="10.930570652154797"><ele>113.0</ele><time>2026-04-26T16:55:02.993Z</time></trkpt><trkpt lat="43.787026525532355" lon="10.930473945487805"><ele>112.99999999999999</ele><time>2026-04-26T16:55:05.993Z</time></trkpt><trkpt lat="43.78703294751185" lon="10.930372384201466"><ele>113.0</ele><time>2026-04-26T16:55:08.993Z</time></trkpt><trkpt lat="43.787034476355835" lon="10.930252328602476"><ele>112.99999999999999</ele><time>2026-04-26T16:55:11.993Z</time></trkpt><trkpt lat="43.7869871335416" lon="10.930155637602997"><ele>113.0</ele><time>2026-04-26T16:55:14.993Z</time></trkpt><trkpt lat="43.78693004906964" lon="10.930072182003737"><ele>113.0</ele><time>2026-04-26T16:55:17.993Z</time></trkpt><trkpt lat="43.78688373429015" lon="10.929968209441302"><ele>113.0</ele><time>2026-04-26T16:55:20.992Z</time></trkpt><trkpt lat="43.786830450992134" lon="10.929879064015209"><ele>112.99999999999999</ele><time>2026-04-26T16:55:23.992Z</time></trkpt><trkpt lat="43.78677805244528" lon="10.929784949566429"><ele>113.0</ele><time>2026-04-26T16:55:26.992Z</time></trkpt><trkpt lat="43.78672557085286" lon="10.929701695517869"><ele>111.49999999999999</ele><time>2026-04-26T16:55:29.992Z</time></trkpt><trkpt lat="43.78667106923698" lon="10.929612106486754"><ele>110.0</ele><time>2026-04-26T16:55:32.992Z</time></trkpt><trkpt lat="43.78662413344661" lon="10.929525070942299"><ele>108.5</ele><time>2026-04-26T16:55:35.992Z</time></trkpt><trkpt lat="43.7865623676882" lon="10.929451033371475"><ele>107.0</ele><time>2026-04-26T16:55:38.992Z</time></trkpt><trkpt lat="43.78650707916123" lon="10.929362981083598"><ele>105.49999999999999</ele><time>2026-04-26T16:55:41.992Z</time></trkpt><trkpt lat="43.786470823455836" lon="10.9292560455052"><ele>104.0</ele><time>2026-04-26T16:55:44.992Z</time></trkpt><trkpt lat="43.7864837758655" lon="10.929168461683219"><ele>103.49999999999999</ele><time>2026-04-26T16:55:47.992Z</time></trkpt><trkpt lat="43.786568697311615" lon="10.92917714523294"><ele>103.0</ele><time>2026-04-26T16:55:50.992Z</time></trkpt><trkpt lat="43.78664698686633" lon="10.92918636148615"><ele>102.5</ele><time>2026-04-26T16:55:53.992Z</time></trkpt><trkpt lat="43.78672373078216" lon="10.929202910633363"><ele>102.0</ele><time>2026-04-26T16:55:56.992Z</time></trkpt><trkpt lat="43.78680374576941" lon="10.929225606778648"><ele>101.49999999999999</ele><time>2026-04-26T16:55:59.992Z</time></trkpt><trkpt lat="43.786888626394045" lon="10.929237080184773"><ele>101.0</ele><time>2026-04-26T16:56:02.992Z</time></trkpt><trkpt lat="43.786949594589665" lon="10.929262058639605"><ele>100.99999999999999</ele><time>2026-04-26T16:56:04.992Z</time></trkpt><trkpt lat="43.78701847111656" lon="10.929294811658218"><ele>101.0</ele><time>2026-04-26T16:56:07.992Z</time></trkpt><trkpt lat="43.78709872855535" lon="10.929311196896712"><ele>101.0</ele><time>2026-04-26T16:56:10.992Z</time></trkpt><trkpt lat="43.787171071094015" lon="10.92935625873146"><ele>101.0</ele><time>2026-04-26T16:56:13.992Z</time></trkpt><trkpt lat="43.78724575708539" lon="10.929382020284397"><ele>100.99999999999999</ele><time>2026-04-26T16:56:16.992Z</time></trkpt><trkpt lat="43.78731879909996" lon="10.929401859374108"><ele>101.0</ele><time>2026-04-26T16:56:19.992Z</time></trkpt><trkpt lat="43.78739227883913" lon="10.92943102934784"><ele>100.99999999999999</ele><time>2026-04-26T16:56:22.992Z</time></trkpt><trkpt lat="43.78746997086268" lon="10.929469507541445"><ele>101.0</ele><time>2026-04-26T16:56:25.992Z</time></trkpt><trkpt lat="43.78755022470406" lon="10.929490274403188"><ele>101.0</ele><time>2026-04-26T16:56:28.992Z</time></trkpt><trkpt lat="43.78763095860487" lon="10.92951494918731"><ele>101.0</ele><time>2026-04-26T16:56:31.992Z</time></trkpt><trkpt lat="43.78771461680492" lon="10.929528400966953"><ele>100.99999999999999</ele><time>2026-04-26T16:56:34.992Z</time></trkpt><trkpt lat="43.78779963564042" lon="10.929541441503199"><ele>101.0</ele><time>2026-04-26T16:56:37.992Z</time></trkpt><trkpt lat="43.78787489964412" lon="10.92954413945936"><ele>99.99999999999999</ele><time>2026-04-26T16:56:40.992Z</time></trkpt><trkpt lat="43.78795906173277" lon="10.92951990857931"><ele>99.0</ele><time>2026-04-26T16:56:43.992Z</time></trkpt><trkpt lat="43.788037269000874" lon="10.92949889074455"><ele>98.0</ele><time>2026-04-26T16:56:46.992Z</time></trkpt><trkpt lat="43.78811703786972" lon="10.92946288216642"><ele>97.0</ele><time>2026-04-26T16:56:49.992Z</time></trkpt><trkpt lat="43.788190150085505" lon="10.92943648769623"><ele>96.0</ele><time>2026-04-26T16:56:52.992Z</time></trkpt><trkpt lat="43.78825620780974" lon="10.929404257045915"><ele>95.0</ele><time>2026-04-26T16:56:55.992Z</time></trkpt><trkpt lat="43.788325665271095" lon="10.92940058132062"><ele>95.0</ele><time>2026-04-26T16:56:58.992Z</time></trkpt><trkpt lat="43.7883882049789" lon="10.929413972025113"><ele>95.0</ele><time>2026-04-26T16:57:01.992Z</time></trkpt><trkpt lat="43.78845560149578" lon="10.929451806595672"><ele>95.0</ele><time>2026-04-26T16:57:04.991Z</time></trkpt><trkpt lat="43.788518936843495" lon="10.92949034678212"><ele>95.0</ele><time>2026-04-26T16:57:07.991Z</time></trkpt><trkpt lat="43.788580345253216" lon="10.929527789053449"><ele>95.0</ele><time>2026-04-26T16:57:10.991Z</time></trkpt><trkpt lat="43.788641476606195" lon="10.92957095680221"><ele>95.0</ele><time>2026-04-26T16:57:13.991Z</time></trkpt><trkpt lat="43.78869140867746" lon="10.929628821625478"><ele>95.0</ele><time>2026-04-26T16:57:16.991Z</time></trkpt><trkpt lat="43.788749968566364" lon="10.929668133939831"><ele>94.14285714285714</ele><time>2026-04-26T16:57:19.991Z</time></trkpt><trkpt lat="43.78881770343282" lon="10.929693524026028"><ele>93.28571428571429</ele><time>2026-04-26T16:57:22.991Z</time></trkpt><trkpt lat="43.78887568915029" lon="10.92973623143921"><ele>92.42857142857142</ele><time>2026-04-26T16:57:25.991Z</time></trkpt><trkpt lat="43.788941973903405" lon="10.929761350257248"><ele>91.57142857142857</ele><time>2026-04-26T16:57:28.991Z</time></trkpt><trkpt lat="43.78900393181203" lon="10.929787709503605"><ele>90.71428571428571</ele><time>2026-04-26T16:57:31.991Z</time></trkpt><trkpt lat="43.789057682836564" lon="10.929847184030253"><ele>89.85714285714285</ele><time>2026-04-26T16:57:34.991Z</time></trkpt><trkpt lat="43.789123602916625" lon="10.929878799256404"><ele>89.0</ele><time>2026-04-26T16:57:37.991Z</time></trkpt><trkpt lat="43.78919279312426" lon="10.929888048193705"><ele>88.99999999999999</ele><time>2026-04-26T16:57:40.991Z</time></trkpt><trkpt lat="43.78925380000757" lon="10.929912824407321"><ele>89.0</ele><time>2026-04-26T16:57:43.991Z</time></trkpt><trkpt lat="43.78932368135678" lon="10.929892248888978"><ele>89.0</ele><time>2026-04-26T16:57:47.991Z</time></trkpt><trkpt lat="43.78939348073517" lon="10.929910895415704"><ele>89.0</ele><time>2026-04-26T16:57:52.991Z</time></trkpt><trkpt lat="43.78944634812877" lon="10.929968608513345"><ele>89.0</ele><time>2026-04-26T16:57:57.991Z</time></trkpt><trkpt lat="43.78952562204842" lon="10.92997074258216"><ele>88.99999999999999</ele><time>2026-04-26T16:58:02.991Z</time></trkpt><trkpt lat="43.78958995071774" lon="10.929988667195278"><ele>89.0</ele><time>2026-04-26T16:58:09.991Z</time></trkpt><trkpt lat="43.78965299611389" lon="10.929941364677447"><ele>88.83333333333334</ele><time>2026-04-26T16:58:15.991Z</time></trkpt><trkpt lat="43.789655189574454" lon="10.929853037827296"><ele>88.66666666666667</ele><time>2026-04-26T16:58:17.991Z</time></trkpt><trkpt lat="43.78966116213396" lon="10.929755630959043"><ele>88.5</ele><time>2026-04-26T16:58:20.991Z</time></trkpt><trkpt lat="43.789642990936315" lon="10.92964750489845"><ele>88.33333333333333</ele><time>2026-04-26T16:58:24.991Z</time></trkpt><trkpt lat="43.78962038359811" lon="10.92954203510603"><ele>88.16666666666666</ele><time>2026-04-26T16:58:28.991Z</time></trkpt><trkpt lat="43.789599100520775" lon="10.929437009975805"><ele>88.0</ele><time>2026-04-26T16:58:32.991Z</time></trkpt><trkpt lat="43.789545470612545" lon="10.929351680025803"><ele>88.0</ele><time>2026-04-26T16:58:36.991Z</time></trkpt><trkpt lat="43.78950021653457" lon="10.929256878314465"><ele>88.0</ele><time>2026-04-26T16:58:41.991Z</time></trkpt><trkpt lat="43.78944979381177" lon="10.929186522391042"><ele>88.0</ele><time>2026-04-26T16:58:45.99Z</time></trkpt><trkpt lat="43.78940061659179" lon="10.929125906401318"><ele>88.0</ele><time>2026-04-26T16:58:49.99Z</time></trkpt><trkpt lat="43.789357499655054" lon="10.929050303893922"><ele>88.0</ele><time>2026-04-26T16:58:53.99Z</time></trkpt><trkpt lat="43.78931940122061" lon="10.928970682169671"><ele>88.0</ele><time>2026-04-26T16:58:57.99Z</time></trkpt><trkpt lat="43.789284520829035" lon="10.928889552451263"><ele>88.0</ele><time>2026-04-26T16:59:01.99Z</time></trkpt><trkpt lat="43.7892511029621" lon="10.928801571596733"><ele>87.71428571428572</ele><time>2026-04-26T16:59:05.99Z</time></trkpt><trkpt lat="43.78920352684675" lon="10.928729004604065"><ele>87.42857142857143</ele><time>2026-04-26T16:59:09.99Z</time></trkpt><trkpt lat="43.789164542214436" lon="10.928648155350116"><ele>87.14285714285714</ele><time>2026-04-26T16:59:13.99Z</time></trkpt><trkpt lat="43.78911286337648" lon="10.9285609826306"><ele>86.85714285714286</ele><time>2026-04-26T16:59:17.99Z</time></trkpt><trkpt lat="43.78906071344827" lon="10.928508174550508"><ele>86.57142857142857</ele><time>2026-04-26T16:59:20.99Z</time></trkpt><trkpt lat="43.789023857627875" lon="10.928422452691539"><ele>86.28571428571429</ele><time>2026-04-26T16:59:24.99Z</time></trkpt><trkpt lat="43.78896780805405" lon="10.928344055135652"><ele>86.0</ele><time>2026-04-26T16:59:28.99Z</time></trkpt><trkpt lat="43.788925049946926" lon="10.928278426011449"><ele>86.00000000000001</ele><time>2026-04-26T16:59:31.99Z</time></trkpt><trkpt lat="43.78886947315274" lon="10.928199978616112"><ele>86.0</ele><time>2026-04-26T16:59:35.99Z</time></trkpt><trkpt lat="43.788833518684065" lon="10.928120348420697"><ele>86.0</ele><time>2026-04-26T16:59:38.99Z</time></trkpt><trkpt lat="43.78879689321793" lon="10.92804595143197"><ele>86.0</ele><time>2026-04-26T16:59:41.99Z</time></trkpt><trkpt lat="43.78874449103152" lon="10.927986627148888"><ele>86.0</ele><time>2026-04-26T16:59:44.99Z</time></trkpt><trkpt lat="43.78867917755146" lon="10.927963798358984"><ele>86.00000000000001</ele><time>2026-04-26T16:59:47.99Z</time></trkpt><trkpt lat="43.78862437304937" lon="10.92790188674862"><ele>86.0</ele><time>2026-04-26T16:59:50.99Z</time></trkpt><trkpt lat="43.788579747292765" lon="10.927824968211576"><ele>86.0</ele><time>2026-04-26T16:59:53.99Z</time></trkpt><trkpt lat="43.78851971055157" lon="10.927763154721957"><ele>86.0</ele><time>2026-04-26T17:00:03.99Z</time></trkpt><trkpt lat="43.78845119442608" lon="10.92771165348871"><ele>86.0</ele><time>2026-04-26T17:00:07.99Z</time></trkpt><trkpt lat="43.78839049276909" lon="10.927653135614264"><ele>86.0</ele><time>2026-04-26T17:00:11.99Z</time></trkpt><trkpt lat="43.78832992407006" lon="10.927592905129169"><ele>86.0</ele><time>2026-04-26T17:00:15.99Z</time></trkpt><trkpt lat="43.78825998057054" lon="10.927531230982655"><ele>86.0</ele><time>2026-04-26T17:00:19.99Z</time></trkpt><trkpt lat="43.788215287538684" lon="10.927440409840228"><ele>86.66666666666667</ele><time>2026-04-26T17:00:23.99Z</time></trkpt><trkpt lat="43.78814844690305" lon="10.92737374913553"><ele>87.33333333333334</ele><time>2026-04-26T17:00:27.989Z</time></trkpt><trkpt lat="43.78808488821478" lon="10.927305743454648"><ele>88.0</ele><time>2026-04-26T17:00:31.989Z</time></trkpt><trkpt lat="43.78802231023944" lon="10.92723062134008"><ele>88.66666666666667</ele><time>2026-04-26T17:00:35.989Z</time></trkpt><trkpt lat="43.78795744262375" lon="10.927158115793048"><ele>89.33333333333333</ele><time>2026-04-26T17:00:39.989Z</time></trkpt><trkpt lat="43.78787760504596" lon="10.927115407066694"><ele>90.0</ele><time>2026-04-26T17:00:43.989Z</time></trkpt><trkpt lat="43.787815950121626" lon="10.927046933260069"><ele>90.0</ele><time>2026-04-26T17:00:47.989Z</time></trkpt><trkpt lat="43.78775691591082" lon="10.926975018924821"><ele>90.0</ele><time>2026-04-26T17:00:51.989Z</time></trkpt><trkpt lat="43.78770054723954" lon="10.92693338203432"><ele>90.0</ele><time>2026-04-26T17:00:54.989Z</time></trkpt><trkpt lat="43.787643093137646" lon="10.926890860629317"><ele>90.0</ele><time>2026-04-26T17:00:57.989Z</time></trkpt><trkpt lat="43.78758513613053" lon="10.92685034177687"><ele>90.0</ele><time>2026-04-26T17:01:00.989Z</time></trkpt><trkpt lat="43.787519313702155" lon="10.926876386525118"><ele>90.0</ele><time>2026-04-26T17:01:02.989Z</time></trkpt><trkpt lat="43.78746759029184" lon="10.926825128461166"><ele>90.0</ele><time>2026-04-26T17:01:05.989Z</time></trkpt><trkpt lat="43.78742848357269" lon="10.926754529238867"><ele>89.5</ele><time>2026-04-26T17:01:08.989Z</time></trkpt><trkpt lat="43.787377784167596" lon="10.926689149832592"><ele>89.0</ele><time>2026-04-26T17:01:11.989Z</time></trkpt><trkpt lat="43.78731895270095" lon="10.926641115484758"><ele>88.5</ele><time>2026-04-26T17:01:14.989Z</time></trkpt><trkpt lat="43.78726974873415" lon="10.926577480896757"><ele>88.0</ele><time>2026-04-26T17:01:17.989Z</time></trkpt><trkpt lat="43.78735026377153" lon="10.92657511009492"><ele>87.5</ele><time>2026-04-26T17:01:23.989Z</time></trkpt><trkpt lat="43.78741355514619" lon="10.926587091723263"><ele>87.0</ele><time>2026-04-26T17:01:32.989Z</time></trkpt><trkpt lat="43.787397347793494" lon="10.926326577595328"><ele>87.0</ele><time>2026-04-26T17:01:39.989Z</time></trkpt><trkpt lat="43.78736080766808" lon="10.926239821653168"><ele>87.0</ele><time>2026-04-26T17:01:43.989Z</time></trkpt><trkpt lat="43.787339313496894" lon="10.926130290051415"><ele>87.0</ele><time>2026-04-26T17:01:46.989Z</time></trkpt><trkpt lat="43.787327355598805" lon="10.926026270183929"><ele>87.0</ele><time>2026-04-26T17:01:50.989Z</time></trkpt><trkpt lat="43.787402665427784" lon="10.926039080697587"><ele>87.0</ele><time>2026-04-26T17:01:54.989Z</time></trkpt><trkpt lat="43.7874720919766" lon="10.926066736276669"><ele>87.0</ele><time>2026-04-26T17:01:59.989Z</time></trkpt><trkpt lat="43.78754411040434" lon="10.926102037911392"><ele>87.0</ele><time>2026-04-26T17:02:04.999Z</time></trkpt><trkpt lat="43.7876054167895" lon="10.926126994336173"><ele>87.0</ele><time>2026-04-26T17:02:08.999Z</time></trkpt><trkpt lat="43.78767854909932" lon="10.926147538065916"><ele>87.0</ele><time>2026-04-26T17:02:12.999Z</time></trkpt><trkpt lat="43.787757901826076" lon="10.926125617257126"><ele>87.0</ele><time>2026-04-26T17:02:15.999Z</time></trkpt><trkpt lat="43.78780848173383" lon="10.926042382092207"><ele>87.0</ele><time>2026-04-26T17:02:17.999Z</time></trkpt><trkpt lat="43.78785185752221" lon="10.925960037782867"><ele>87.0</ele><time>2026-04-26T17:02:20.999Z</time></trkpt><trkpt lat="43.787843849442126" lon="10.925865788414635"><ele>87.0</ele><time>2026-04-26T17:02:23.999Z</time></trkpt><trkpt lat="43.78782702309888" lon="10.925769686985554"><ele>85.42857142857143</ele><time>2026-04-26T17:02:26.999Z</time></trkpt><trkpt lat="43.78781116905263" lon="10.925675989313081"><ele>83.85714285714286</ele><time>2026-04-26T17:02:29.999Z</time></trkpt><trkpt lat="43.787763587008044" lon="10.925610602954409"><ele>82.28571428571428</ele><time>2026-04-26T17:02:32.999Z</time></trkpt><trkpt lat="43.787708064862926" lon="10.925552004853454"><ele>80.71428571428572</ele><time>2026-04-26T17:02:35.999Z</time></trkpt><trkpt lat="43.78767273681013" lon="10.925471728736506"><ele>79.14285714285715</ele><time>2026-04-26T17:02:38.999Z</time></trkpt><trkpt lat="43.78765973839536" lon="10.925363039747587"><ele>77.57142857142857</ele><time>2026-04-26T17:02:41.999Z</time></trkpt><trkpt lat="43.78766106660464" lon="10.925258656137917"><ele>76.0</ele><time>2026-04-26T17:02:44.999Z</time></trkpt><trkpt lat="43.78767418580831" lon="10.925156692153438"><ele>77.28571428571428</ele><time>2026-04-26T17:02:47.999Z</time></trkpt><trkpt lat="43.78769336099557" lon="10.925060886899272"><ele>78.57142857142858</ele><time>2026-04-26T17:02:50.999Z</time></trkpt><trkpt lat="43.78769368514017" lon="10.924966719707587"><ele>79.85714285714286</ele><time>2026-04-26T17:02:54Z</time></trkpt><trkpt lat="43.78767439393914" lon="10.924863583933641"><ele>81.14285714285714</ele><time>2026-04-26T17:02:56.999Z</time></trkpt><trkpt lat="43.787669471413516" lon="10.924768635891445"><ele>82.42857142857142</ele><time>2026-04-26T17:03:00Z</time></trkpt><trkpt lat="43.78763085797945" lon="10.924676958740342"><ele>83.71428571428572</ele><time>2026-04-26T17:03:02.999Z</time></trkpt><trkpt lat="43.78759699731353" lon="10.92458181377475"><ele>85.0</ele><time>2026-04-26T17:03:05.999Z</time></trkpt><trkpt lat="43.787555263863915" lon="10.9244965094305"><ele>83.0</ele><time>2026-04-26T17:03:08.999Z</time></trkpt><trkpt lat="43.78751625362648" lon="10.92441178300759"><ele>81.0</ele><time>2026-04-26T17:03:11.999Z</time></trkpt><trkpt lat="43.78747421097058" lon="10.924326884213823"><ele>79.0</ele><time>2026-04-26T17:03:14.999Z</time></trkpt><trkpt lat="43.78743691282952" lon="10.92424364759304"><ele>77.0</ele><time>2026-04-26T17:03:17.999Z</time></trkpt><trkpt lat="43.787410949642585" lon="10.924149539616296"><ele>75.0</ele><time>2026-04-26T17:03:20.999Z</time></trkpt><trkpt lat="43.78739064514207" lon="10.924046391266703"><ele>73.0</ele><time>2026-04-26T17:03:23.999Z</time></trkpt><trkpt lat="43.787349899070556" lon="10.923965119014266"><ele>71.0</ele><time>2026-04-26T17:03:26.999Z</time></trkpt><trkpt lat="43.78733391534259" lon="10.923877018104658"><ele>71.0</ele><time>2026-04-26T17:03:29.999Z</time></trkpt><trkpt lat="43.787312518820826" lon="10.923790253944302"><ele>71.0</ele><time>2026-04-26T17:03:32.999Z</time></trkpt><trkpt lat="43.78729031544487" lon="10.923698136360777"><ele>71.0</ele><time>2026-04-26T17:03:35.999Z</time></trkpt><trkpt lat="43.787254172744" lon="10.923592038703386"><ele>71.0</ele><time>2026-04-26T17:03:39.999Z</time></trkpt><trkpt lat="43.78723151388194" lon="10.923492877784662"><ele>71.0</ele><time>2026-04-26T17:03:42.999Z</time></trkpt><trkpt lat="43.787220730224" lon="10.923390290909861"><ele>71.0</ele><time>2026-04-26T17:03:45.999Z</time></trkpt><trkpt lat="43.78719855064859" lon="10.923294080622426"><ele>71.0</ele><time>2026-04-26T17:03:48.999Z</time></trkpt><trkpt lat="43.78718769484083" lon="10.923193601324623"><ele>71.33333333333334</ele><time>2026-04-26T17:03:51.999Z</time></trkpt><trkpt lat="43.78718210812295" lon="10.923096227309944"><ele>71.66666666666667</ele><time>2026-04-26T17:03:54.999Z</time></trkpt><trkpt lat="43.78717693736265" lon="10.922986784238075"><ele>72.0</ele><time>2026-04-26T17:03:57.999Z</time></trkpt><trkpt lat="43.787171946369526" lon="10.922866089597921"><ele>72.33333333333333</ele><time>2026-04-26T17:04:00.999Z</time></trkpt><trkpt lat="43.78718010255949" lon="10.922761740442791"><ele>72.66666666666666</ele><time>2026-04-26T17:04:03.999Z</time></trkpt><trkpt lat="43.78719061381191" lon="10.922667738219795"><ele>73.0</ele><time>2026-04-26T17:04:06.999Z</time></trkpt><trkpt lat="43.7871947138012" lon="10.92255881747754"><ele>73.16666666666666</ele><time>2026-04-26T17:04:09.999Z</time></trkpt><trkpt lat="43.7871992824452" lon="10.922441536460983"><ele>73.33333333333333</ele><time>2026-04-26T17:04:12.999Z</time></trkpt><trkpt lat="43.787218365522335" lon="10.922341253981747"><ele>73.5</ele><time>2026-04-26T17:04:15.999Z</time></trkpt><trkpt lat="43.78723847223022" lon="10.92223383602589"><ele>73.66666666666667</ele><time>2026-04-26T17:04:18.999Z</time></trkpt><trkpt lat="43.787274117157466" lon="10.922136737741532"><ele>73.83333333333334</ele><time>2026-04-26T17:04:21.999Z</time></trkpt><trkpt lat="43.78732160117196" lon="10.922049485779022"><ele>74.0</ele><time>2026-04-26T17:04:24.999Z</time></trkpt><trkpt lat="43.787384897845385" lon="10.921973045431146"><ele>74.0</ele><time>2026-04-26T17:04:27.999Z</time></trkpt><trkpt lat="43.7874378925798" lon="10.92188964126046"><ele>74.0</ele><time>2026-04-26T17:04:30.999Z</time></trkpt><trkpt lat="43.787485688905605" lon="10.921825927696009"><ele>74.0</ele><time>2026-04-26T17:04:33.999Z</time></trkpt><trkpt lat="43.78748423786202" lon="10.921720186230726"><ele>74.0</ele><time>2026-04-26T17:04:36.999Z</time></trkpt><trkpt lat="43.78746105936582" lon="10.921634932580485"><ele>74.0</ele><time>2026-04-26T17:04:39.998Z</time></trkpt><trkpt lat="43.78742648319336" lon="10.921538393431433"><ele>74.0</ele><time>2026-04-26T17:04:43.998Z</time></trkpt><trkpt lat="43.78740092488414" lon="10.921439980974464"><ele>74.0</ele><time>2026-04-26T17:04:47.998Z</time></trkpt><trkpt lat="43.78733128662698" lon="10.921416766088868"><ele>74.0</ele><time>2026-04-26T17:04:50.998Z</time></trkpt><trkpt lat="43.7872732765847" lon="10.921479320149738"><ele>74.0</ele><time>2026-04-26T17:04:53.998Z</time></trkpt><trkpt lat="43.78720942338259" lon="10.92154711803878"><ele>74.0</ele><time>2026-04-26T17:04:58Z</time></trkpt><trkpt lat="43.78715559394783" lon="10.92159236834283"><ele>74.0</ele><time>2026-04-26T17:05:01Z</time></trkpt><trkpt lat="43.78709536024166" lon="10.921645621262599"><ele>74.0</ele><time>2026-04-26T17:05:04Z</time></trkpt><trkpt lat="43.787047337917926" lon="10.921708493222683"><ele>74.0</ele><time>2026-04-26T17:05:07Z</time></trkpt><trkpt lat="43.78698682913001" lon="10.921747758498269"><ele>74.0</ele><time>2026-04-26T17:05:10Z</time></trkpt><trkpt lat="43.78693555425619" lon="10.921800876046696"><ele>74.0</ele><time>2026-04-26T17:05:13Z</time></trkpt><trkpt lat="43.78688001605921" lon="10.921847839185"><ele>74.0</ele><time>2026-04-26T17:05:16Z</time></trkpt><trkpt lat="43.7868069245832" lon="10.921916424183143"><ele>74.0</ele><time>2026-04-26T17:05:20Z</time></trkpt><trkpt lat="43.78675074701413" lon="10.92195702872574"><ele>74.0</ele><time>2026-04-26T17:05:23Z</time></trkpt><trkpt lat="43.78668428084464" lon="10.922033461646334"><ele>74.0</ele><time>2026-04-26T17:05:27Z</time></trkpt><trkpt lat="43.78662873588232" lon="10.922081286887682"><ele>74.0</ele><time>2026-04-26T17:05:30Z</time></trkpt><trkpt lat="43.78655430205344" lon="10.922138981537175"><ele>72.57142857142857</ele><time>2026-04-26T17:05:34Z</time></trkpt><trkpt lat="43.78649608032911" lon="10.922194396781356"><ele>71.14285714285714</ele><time>2026-04-26T17:05:37Z</time></trkpt><trkpt lat="43.78643710459596" lon="10.92223873396587"><ele>69.71428571428571</ele><time>2026-04-26T17:05:39.999Z</time></trkpt><trkpt lat="43.78637100143961" lon="10.922179771948223"><ele>68.28571428571428</ele><time>2026-04-26T17:05:43.999Z</time></trkpt><trkpt lat="43.786403226441436" lon="10.922085704342004"><ele>66.85714285714285</ele><time>2026-04-26T17:05:47.999Z</time></trkpt><trkpt lat="43.786348770420574" lon="10.921997837767064"><ele>65.42857142857143</ele><time>2026-04-26T17:05:51.999Z</time></trkpt><trkpt lat="43.786305663304816" lon="10.92193135741496"><ele>64.0</ele><time>2026-04-26T17:05:54.999Z</time></trkpt><trkpt lat="43.78624141367302" lon="10.921867189468841"><ele>64.0</ele><time>2026-04-26T17:05:58.999Z</time></trkpt><trkpt lat="43.786183851786575" lon="10.921905103127344"><ele>63.99999999999999</ele><time>2026-04-26T17:06:01.999Z</time></trkpt><trkpt lat="43.78613577879816" lon="10.921962347853997"><ele>64.0</ele><time>2026-04-26T17:06:04.999Z</time></trkpt><trkpt lat="43.78606980010538" lon="10.922024758475528"><ele>64.0</ele><time>2026-04-26T17:06:08.999Z</time></trkpt><trkpt lat="43.7860103248193" lon="10.922065352760722"><ele>63.99999999999999</ele><time>2026-04-26T17:06:11.999Z</time></trkpt><trkpt lat="43.78594469250421" lon="10.922100805906362"><ele>64.0</ele><time>2026-04-26T17:06:14.999Z</time></trkpt><trkpt lat="43.78588036969846" lon="10.922137287919734"><ele>64.0</ele><time>2026-04-26T17:06:17.999Z</time></trkpt><trkpt lat="43.78581690586754" lon="10.922159539229716"><ele>62.71428571428571</ele><time>2026-04-26T17:06:20.999Z</time></trkpt><trkpt lat="43.785753146105854" lon="10.922176932755978"><ele>61.42857142857142</ele><time>2026-04-26T17:06:23.999Z</time></trkpt><trkpt lat="43.785679722467904" lon="10.92219775501164"><ele>60.14285714285714</ele><time>2026-04-26T17:06:26.999Z</time></trkpt><trkpt lat="43.785605567180134" lon="10.922209372009254"><ele>58.857142857142854</ele><time>2026-04-26T17:06:29.999Z</time></trkpt><trkpt lat="43.78553821405949" lon="10.92224150263131"><ele>57.57142857142857</ele><time>2026-04-26T17:06:32.999Z</time></trkpt><trkpt lat="43.78546955926865" lon="10.922312341620614"><ele>56.28571428571428</ele><time>2026-04-26T17:06:35.999Z</time></trkpt><trkpt lat="43.78541683876228" lon="10.922366519623637"><ele>55.0</ele><time>2026-04-26T17:06:37.999Z</time></trkpt><trkpt lat="43.78533612318366" lon="10.922370006398507"><ele>54.99999999999999</ele><time>2026-04-26T17:06:40.999Z</time></trkpt><trkpt lat="43.78526255189272" lon="10.922293838978737"><ele>55.0</ele><time>2026-04-26T17:06:43.999Z</time></trkpt><trkpt lat="43.7852056224199" lon="10.922228963032028"><ele>55.0</ele><time>2026-04-26T17:06:46.999Z</time></trkpt><trkpt lat="43.78514286289543" lon="10.922152150500994"><ele>55.0</ele><time>2026-04-26T17:06:49.999Z</time></trkpt><trkpt lat="43.785089647817706" lon="10.922077350005463"><ele>54.99999999999999</ele><time>2026-04-26T17:06:52.999Z</time></trkpt><trkpt lat="43.78503269071805" lon="10.921994931149708"><ele>55.0</ele><time>2026-04-26T17:06:55.999Z</time></trkpt><trkpt lat="43.78497444250848" lon="10.921909777319984"><ele>55.166666666666664</ele><time>2026-04-26T17:06:58.999Z</time></trkpt><trkpt lat="43.784913847302604" lon="10.92183529813964"><ele>55.33333333333333</ele><time>2026-04-26T17:07:02.001Z</time></trkpt><trkpt lat="43.78485759514414" lon="10.921752704171752"><ele>55.5</ele><time>2026-04-26T17:07:05.001Z</time></trkpt><trkpt lat="43.78480524626138" lon="10.921664702606446"><ele>55.66666666666667</ele><time>2026-04-26T17:07:08Z</time></trkpt><trkpt lat="43.784732860418366" lon="10.921624242609903"><ele>55.833333333333336</ele><time>2026-04-26T17:07:11.001Z</time></trkpt><trkpt lat="43.78465621218204" lon="10.921645571932737"><ele>56.0</ele><time>2026-04-26T17:07:14.001Z</time></trkpt><trkpt lat="43.78457732627344" lon="10.921631912351936"><ele>56.00000000000001</ele><time>2026-04-26T17:07:17.001Z</time></trkpt><trkpt lat="43.78450911107664" lon="10.921554971739363"><ele>56.0</ele><time>2026-04-26T17:07:20.001Z</time></trkpt><trkpt lat="43.78447370136145" lon="10.921476303427783"><ele>56.0</ele><time>2026-04-26T17:07:22.001Z</time></trkpt><trkpt lat="43.784400920273164" lon="10.921410794591441"><ele>56.0</ele><time>2026-04-26T17:07:25Z</time></trkpt><trkpt lat="43.784332491522655" lon="10.921344095839268"><ele>56.00000000000001</ele><time>2026-04-26T17:07:28Z</time></trkpt><trkpt lat="43.784292613836534" lon="10.921249446497463"><ele>56.0</ele><time>2026-04-26T17:07:31Z</time></trkpt><trkpt lat="43.78426678088908" lon="10.92116532168383"><ele>55.00000000000001</ele><time>2026-04-26T17:07:34Z</time></trkpt><trkpt lat="43.78423720052183" lon="10.921049819436293"><ele>54.0</ele><time>2026-04-26T17:07:37Z</time></trkpt><trkpt lat="43.78421077846172" lon="10.920932455034148"><ele>53.0</ele><time>2026-04-26T17:07:40Z</time></trkpt><trkpt lat="43.78416408310306" lon="10.920841257028842"><ele>52.0</ele><time>2026-04-26T17:07:43Z</time></trkpt><trkpt lat="43.78414186856117" lon="10.92073995406925"><ele>51.00000000000001</ele><time>2026-04-26T17:07:46Z</time></trkpt><trkpt lat="43.78410563795227" lon="10.920640956054957"><ele>50.0</ele><time>2026-04-26T17:07:49Z</time></trkpt><trkpt lat="43.78407987026541" lon="10.920539536045032"><ele>49.714285714285715</ele><time>2026-04-26T17:07:52Z</time></trkpt><trkpt lat="43.78405218174498" lon="10.920437326965436"><ele>49.42857142857143</ele><time>2026-04-26T17:07:55Z</time></trkpt><trkpt lat="43.783975643423965" lon="10.920433369512459"><ele>49.14285714285714</ele><time>2026-04-26T17:07:58Z</time></trkpt><trkpt lat="43.7839169219964" lon="10.920475217620837"><ele>48.85714285714286</ele><time>2026-04-26T17:08:01Z</time></trkpt><trkpt lat="43.78385967182675" lon="10.920541551811771"><ele>48.57142857142857</ele><time>2026-04-26T17:08:05Z</time></trkpt><trkpt lat="43.78380364516673" lon="10.920605942315534"><ele>48.285714285714285</ele><time>2026-04-26T17:08:09Z</time></trkpt><trkpt lat="43.78374878478882" lon="10.920673715028938"><ele>48.0</ele><time>2026-04-26T17:08:13Z</time></trkpt><trkpt lat="43.783693295346644" lon="10.92073544226881"><ele>47.99999999999999</ele><time>2026-04-26T17:08:17Z</time></trkpt><trkpt lat="43.783639429172716" lon="10.92079331710304"><ele>48.0</ele><time>2026-04-26T17:08:21Z</time></trkpt><trkpt lat="43.783583330772004" lon="10.920852174108461"><ele>48.0</ele><time>2026-04-26T17:08:26Z</time></trkpt><trkpt lat="43.78352404246198" lon="10.920901101254456"><ele>48.0</ele><time>2026-04-26T17:08:30Z</time></trkpt><trkpt lat="43.783460036273894" lon="10.920920025192297"><ele>48.0</ele><time>2026-04-26T17:08:35Z</time></trkpt><trkpt lat="43.78339741600864" lon="10.920969092724285"><ele>47.99999999999999</ele><time>2026-04-26T17:08:40Z</time></trkpt><trkpt lat="43.783336504755475" lon="10.921014842053308"><ele>48.0</ele><time>2026-04-26T17:08:45Z</time></trkpt><trkpt lat="43.783288152609614" lon="10.92107498899808"><ele>49.42857142857142</ele><time>2026-04-26T17:08:50Z</time></trkpt><trkpt lat="43.78323032130025" lon="10.921132209031335"><ele>50.85714285714286</ele><time>2026-04-26T17:08:55Z</time></trkpt><trkpt lat="43.78316284390091" lon="10.921179113902575"><ele>52.28571428571429</ele><time>2026-04-26T17:09:00Z</time></trkpt><trkpt lat="43.78309553068345" lon="10.921203265887657"><ele>53.714285714285715</ele><time>2026-04-26T17:09:04Z</time></trkpt><trkpt lat="43.783024895784564" lon="10.92123547348198"><ele>55.142857142857146</ele><time>2026-04-26T17:09:08Z</time></trkpt><trkpt lat="43.782960083438546" lon="10.92123591061519"><ele>56.57142857142858</ele><time>2026-04-26T17:09:10.999Z</time></trkpt><trkpt lat="43.7828902191173" lon="10.921207544103781"><ele>58.00000000000001</ele><time>2026-04-26T17:09:14.999Z</time></trkpt><trkpt lat="43.78283253187569" lon="10.92116163030295"><ele>57.99999999999999</ele><time>2026-04-26T17:09:19Z</time></trkpt><trkpt lat="43.78278435342699" lon="10.921082093845087"><ele>58.0</ele><time>2026-04-26T17:09:22.999Z</time></trkpt><trkpt lat="43.782739885993074" lon="10.920987612973192"><ele>58.0</ele><time>2026-04-26T17:09:26.999Z</time></trkpt><trkpt lat="43.78272278207097" lon="10.920891202401972"><ele>58.0</ele><time>2026-04-26T17:09:29.999Z</time></trkpt><trkpt lat="43.78268728417789" lon="10.920789715232592"><ele>57.99999999999999</ele><time>2026-04-26T17:09:33.999Z</time></trkpt><trkpt lat="43.782648371201766" lon="10.920720915673492"><ele>58.0</ele><time>2026-04-26T17:09:36.999Z</time></trkpt><trkpt lat="43.78260730099275" lon="10.920621970506792"><ele>57.28571428571429</ele><time>2026-04-26T17:09:40.999Z</time></trkpt><trkpt lat="43.78257376385397" lon="10.92053722006471"><ele>56.57142857142857</ele><time>2026-04-26T17:09:43.999Z</time></trkpt><trkpt lat="43.78252961141168" lon="10.920459666728403"><ele>55.85714285714286</ele><time>2026-04-26T17:09:46.999Z</time></trkpt><trkpt lat="43.78248979432363" lon="10.92038099180346"><ele>55.142857142857146</ele><time>2026-04-26T17:09:49.999Z</time></trkpt><trkpt lat="43.78244326847757" lon="10.920302672255854"><ele>54.42857142857143</ele><time>2026-04-26T17:09:52.999Z</time></trkpt><trkpt lat="43.782408471714305" lon="10.92022131830557"><ele>53.714285714285715</ele><time>2026-04-26T17:09:55.999Z</time></trkpt><trkpt lat="43.78238279788231" lon="10.92012306676272"><ele>53.0</ele><time>2026-04-26T17:09:58.999Z</time></trkpt><trkpt lat="43.782341302765005" lon="10.920030943746038"><ele>52.66666666666667</ele><time>2026-04-26T17:10:01.999Z</time></trkpt><trkpt lat="43.78227957758333" lon="10.919950743837465"><ele>52.333333333333336</ele><time>2026-04-26T17:10:04.999Z</time></trkpt><trkpt lat="43.782218689735345" lon="10.919863837119795"><ele>52.0</ele><time>2026-04-26T17:10:07.999Z</time></trkpt><trkpt lat="43.78216304647757" lon="10.919764420561954"><ele>51.66666666666667</ele><time>2026-04-26T17:10:10.999Z</time></trkpt><trkpt lat="43.782114447540025" lon="10.919668471153493"><ele>51.333333333333336</ele><time>2026-04-26T17:10:13.999Z</time></trkpt><trkpt lat="43.782075334390356" lon="10.919573444249611"><ele>51.0</ele><time>2026-04-26T17:10:16.999Z</time></trkpt><trkpt lat="43.782032454668" lon="10.919482351572912"><ele>51.0</ele><time>2026-04-26T17:10:19.999Z</time></trkpt><trkpt lat="43.78198482552165" lon="10.91938609678646"><ele>51.0</ele><time>2026-04-26T17:10:22.999Z</time></trkpt><trkpt lat="43.78194742433491" lon="10.919299729652433"><ele>51.0</ele><time>2026-04-26T17:10:25.999Z</time></trkpt><trkpt lat="43.78189595277323" lon="10.919206295911712"><ele>51.0</ele><time>2026-04-26T17:10:28.999Z</time></trkpt><trkpt lat="43.78185365266232" lon="10.919118867299124"><ele>51.0</ele><time>2026-04-26T17:10:31.999Z</time></trkpt><trkpt lat="43.78182584293067" lon="10.919018089723838"><ele>51.0</ele><time>2026-04-26T17:10:34.999Z</time></trkpt><trkpt lat="43.781786702389105" lon="10.91892068664622"><ele>50.5</ele><time>2026-04-26T17:10:37.999Z</time></trkpt><trkpt lat="43.78174119024328" lon="10.91883235622949"><ele>50.0</ele><time>2026-04-26T17:10:40.999Z</time></trkpt><trkpt lat="43.78170250458011" lon="10.918729915285386"><ele>49.5</ele><time>2026-04-26T17:10:43.999Z</time></trkpt><trkpt lat="43.78166027021181" lon="10.918638252544152"><ele>49.0</ele><time>2026-04-26T17:10:46.999Z</time></trkpt><trkpt lat="43.78159448128363" lon="10.918557854168007"><ele>48.5</ele><time>2026-04-26T17:10:49.998Z</time></trkpt><trkpt lat="43.781549111547264" lon="10.918461929082484"><ele>48.0</ele><time>2026-04-26T17:10:52.998Z</time></trkpt><trkpt lat="43.781512029492205" lon="10.918372732482835"><ele>47.333333333333336</ele><time>2026-04-26T17:10:55.998Z</time></trkpt><trkpt lat="43.781503513683404" lon="10.918261307873685"><ele>46.666666666666664</ele><time>2026-04-26T17:10:59.998Z</time></trkpt><trkpt lat="43.78146093082201" lon="10.918164719054626"><ele>46.0</ele><time>2026-04-26T17:11:02.998Z</time></trkpt><trkpt lat="43.781428310813794" lon="10.918067079400778"><ele>45.33333333333333</ele><time>2026-04-26T17:11:05.998Z</time></trkpt><trkpt lat="43.781380657939636" lon="10.917991444500508"><ele>44.666666666666664</ele><time>2026-04-26T17:11:08.998Z</time></trkpt><trkpt lat="43.781351755765236" lon="10.917895690988951"><ele>44.0</ele><time>2026-04-26T17:11:11.998Z</time></trkpt><trkpt lat="43.78132044904025" lon="10.917803128892919"><ele>44.0</ele><time>2026-04-26T17:11:15Z</time></trkpt><trkpt lat="43.78128335611968" lon="10.917706588658984"><ele>44.0</ele><time>2026-04-26T17:11:18Z</time></trkpt><trkpt lat="43.78125718698634" lon="10.917607699539326"><ele>44.0</ele><time>2026-04-26T17:11:20.999Z</time></trkpt><trkpt lat="43.781288630333776" lon="10.917506853693157"><ele>44.0</ele><time>2026-04-26T17:11:23.999Z</time></trkpt><trkpt lat="43.781354031842625" lon="10.917443563890794"><ele>44.0</ele><time>2026-04-26T17:11:27Z</time></trkpt><trkpt lat="43.781416751505596" lon="10.917435100385292"><ele>44.0</ele><time>2026-04-26T17:11:30Z</time></trkpt><trkpt lat="43.78148107264553" lon="10.917425056193744"><ele>44.0</ele><time>2026-04-26T17:11:33Z</time></trkpt><trkpt lat="43.78154483138294" lon="10.917429124933332"><ele>44.57142857142857</ele><time>2026-04-26T17:11:36Z</time></trkpt><trkpt lat="43.78161070049991" lon="10.917450204421563"><ele>45.14285714285714</ele><time>2026-04-26T17:11:39Z</time></trkpt><trkpt lat="43.78168675030719" lon="10.917465884383716"><ele>45.71428571428571</ele><time>2026-04-26T17:11:43Z</time></trkpt><trkpt lat="43.781748491168266" lon="10.917433601008383"><ele>46.285714285714285</ele><time>2026-04-26T17:11:45.999Z</time></trkpt><trkpt lat="43.78182229922522" lon="10.91742148260471"><ele>46.857142857142854</ele><time>2026-04-26T17:11:49.999Z</time></trkpt><trkpt lat="43.78190196589108" lon="10.917416398453966"><ele>47.42857142857142</ele><time>2026-04-26T17:11:53.999Z</time></trkpt><trkpt lat="43.78196961842048" lon="10.917427777969548"><ele>48.0</ele><time>2026-04-26T17:11:56.999Z</time></trkpt><trkpt lat="43.7820313377766" lon="10.917405273145144"><ele>49.333333333333336</ele><time>2026-04-26T17:11:59.999Z</time></trkpt><trkpt lat="43.78211636338662" lon="10.917407492814634"><ele>50.66666666666667</ele><time>2026-04-26T17:12:03.999Z</time></trkpt><trkpt lat="43.78219315738927" lon="10.91739133947088"><ele>52.0</ele><time>2026-04-26T17:12:07.999Z</time></trkpt><trkpt lat="43.7822596580921" lon="10.917373861950665"><ele>53.333333333333336</ele><time>2026-04-26T17:12:10.999Z</time></trkpt><trkpt lat="43.78234593161071" lon="10.917363123328307"><ele>54.66666666666667</ele><time>2026-04-26T17:12:14.999Z</time></trkpt><trkpt lat="43.782406013586865" lon="10.917328023619"><ele>56.0</ele><time>2026-04-26T17:12:17.999Z</time></trkpt><trkpt lat="43.782480865299185" lon="10.917299523104113"><ele>56.0</ele><time>2026-04-26T17:12:21.999Z</time></trkpt><trkpt lat="43.78254726456365" lon="10.91728681602676"><ele>56.0</ele><time>2026-04-26T17:12:24.999Z</time></trkpt><trkpt lat="43.78262706580701" lon="10.917284707990735"><ele>56.0</ele><time>2026-04-26T17:12:28.999Z</time></trkpt><trkpt lat="43.78269781967887" lon="10.917235007489673"><ele>56.0</ele><time>2026-04-26T17:12:32.999Z</time></trkpt><trkpt lat="43.7827747733354" lon="10.917204560181219"><ele>56.0</ele><time>2026-04-26T17:12:36.999Z</time></trkpt><trkpt lat="43.78283962718119" lon="10.91717236446345"><ele>56.0</ele><time>2026-04-26T17:12:39.999Z</time></trkpt><trkpt lat="43.782906672734455" lon="10.917151623656787"><ele>56.0</ele><time>2026-04-26T17:12:42.999Z</time></trkpt><trkpt lat="43.782967137722366" lon="10.917109560218506"><ele>55.857142857142854</ele><time>2026-04-26T17:12:45.999Z</time></trkpt><trkpt lat="43.783030325287285" lon="10.917083494014102"><ele>55.714285714285715</ele><time>2026-04-26T17:12:48.999Z</time></trkpt><trkpt lat="43.78308978255054" lon="10.917048235423923"><ele>55.57142857142857</ele><time>2026-04-26T17:12:51.999Z</time></trkpt><trkpt lat="43.78314132481883" lon="10.916995496988768"><ele>55.42857142857143</ele><time>2026-04-26T17:12:54.999Z</time></trkpt><trkpt lat="43.78320112108176" lon="10.916960109274672"><ele>55.285714285714285</ele><time>2026-04-26T17:12:57.999Z</time></trkpt><trkpt lat="43.7832723823943" lon="10.916902216693218"><ele>55.14285714285714</ele><time>2026-04-26T17:13:01.999Z</time></trkpt><trkpt lat="43.78332992823077" lon="10.916854942510907"><ele>55.0</ele><time>2026-04-26T17:13:04.999Z</time></trkpt><trkpt lat="43.78338513503831" lon="10.916804743523809"><ele>54.99999999999999</ele><time>2026-04-26T17:13:07.999Z</time></trkpt><trkpt lat="43.78344944281533" lon="10.916774752601674"><ele>55.0</ele><time>2026-04-26T17:13:10.999Z</time></trkpt><trkpt lat="43.783498250098454" lon="10.916718415959815"><ele>55.0</ele><time>2026-04-26T17:13:13.999Z</time></trkpt><trkpt lat="43.78356220864169" lon="10.916679384571262"><ele>55.0</ele><time>2026-04-26T17:13:16.999Z</time></trkpt><trkpt lat="43.78361868315892" lon="10.916630974503294"><ele>55.0</ele><time>2026-04-26T17:13:20Z</time></trkpt><trkpt lat="43.783676199914105" lon="10.916579545932033"><ele>54.99999999999999</ele><time>2026-04-26T17:13:23Z</time></trkpt><trkpt lat="43.78373874004274" lon="10.916539839611662"><ele>55.0</ele><time>2026-04-26T17:13:26Z</time></trkpt><trkpt lat="43.783804757536" lon="10.91648730551325"><ele>55.857142857142854</ele><time>2026-04-26T17:13:29Z</time></trkpt><trkpt lat="43.783856667484166" lon="10.916427395448016"><ele>56.71428571428571</ele><time>2026-04-26T17:13:32Z</time></trkpt><trkpt lat="43.783925577471926" lon="10.916374507365076"><ele>57.57142857142857</ele><time>2026-04-26T17:13:35Z</time></trkpt><trkpt lat="43.78398152546056" lon="10.916320972228661"><ele>58.42857142857142</ele><time>2026-04-26T17:13:38Z</time></trkpt><trkpt lat="43.78404901597081" lon="10.916275199129336"><ele>59.285714285714285</ele><time>2026-04-26T17:13:41Z</time></trkpt><trkpt lat="43.784119229787905" lon="10.916231691734904"><ele>60.14285714285713</ele><time>2026-04-26T17:13:44Z</time></trkpt><trkpt lat="43.78418098037793" lon="10.916186678141168"><ele>60.99999999999999</ele><time>2026-04-26T17:13:47Z</time></trkpt><trkpt lat="43.784243630830005" lon="10.916138714669328"><ele>60.99999999999999</ele><time>2026-04-26T17:13:50Z</time></trkpt><trkpt lat="43.784321990901326" lon="10.916103024587368"><ele>61.0</ele><time>2026-04-26T17:13:53Z</time></trkpt><trkpt lat="43.784394113003245" lon="10.91605740009023"><ele>61.0</ele><time>2026-04-26T17:13:56Z</time></trkpt><trkpt lat="43.78447437077861" lon="10.916022671107996"><ele>61.0</ele><time>2026-04-26T17:13:58.999Z</time></trkpt><trkpt lat="43.78455063949091" lon="10.915976953625293"><ele>60.99999999999999</ele><time>2026-04-26T17:14:01.999Z</time></trkpt><trkpt lat="43.78462262269531" lon="10.915934731379712"><ele>61.0</ele><time>2026-04-26T17:14:04.999Z</time></trkpt><trkpt lat="43.78469606554961" lon="10.9159052875467"><ele>60.57142857142856</ele><time>2026-04-26T17:14:07.999Z</time></trkpt><trkpt lat="43.784760054174455" lon="10.915861780025343"><ele>60.14285714285714</ele><time>2026-04-26T17:14:10.999Z</time></trkpt><trkpt lat="43.78482719826114" lon="10.915823548897963"><ele>59.714285714285715</ele><time>2026-04-26T17:14:13.999Z</time></trkpt><trkpt lat="43.784904322558454" lon="10.91580501463503"><ele>59.285714285714285</ele><time>2026-04-26T17:14:16.999Z</time></trkpt><trkpt lat="43.78497812483411" lon="10.915786387130158"><ele>58.85714285714286</ele><time>2026-04-26T17:14:19.999Z</time></trkpt><trkpt lat="43.78505118692085" lon="10.915764138489536"><ele>58.42857142857144</ele><time>2026-04-26T17:14:22.999Z</time></trkpt><trkpt lat="43.785116285123024" lon="10.91572934757767"><ele>58.00000000000001</ele><time>2026-04-26T17:14:25.999Z</time></trkpt><trkpt lat="43.78518329816272" lon="10.915688198687652"><ele>57.99999999999999</ele><time>2026-04-26T17:14:28.999Z</time></trkpt><trkpt lat="43.78525519627424" lon="10.915648836074297"><ele>58.0</ele><time>2026-04-26T17:14:31.999Z</time></trkpt><trkpt lat="43.785325128564594" lon="10.915628421597875"><ele>58.0</ele><time>2026-04-26T17:14:34.999Z</time></trkpt><trkpt lat="43.78540112176449" lon="10.915609347470387"><ele>58.0</ele><time>2026-04-26T17:14:37.999Z</time></trkpt><trkpt lat="43.785469894176416" lon="10.915570620003521"><ele>57.99999999999999</ele><time>2026-04-26T17:14:40.999Z</time></trkpt><trkpt lat="43.78553823924286" lon="10.91554896525977"><ele>58.0</ele><time>2026-04-26T17:14:43.999Z</time></trkpt><trkpt lat="43.785611799376746" lon="10.91550740016645"><ele>57.99999999999999</ele><time>2026-04-26T17:14:46.999Z</time></trkpt><trkpt lat="43.78568614008202" lon="10.915479291811728"><ele>58.0</ele><time>2026-04-26T17:14:49.999Z</time></trkpt><trkpt lat="43.785755144191" lon="10.915440112843916"><ele>58.0</ele><time>2026-04-26T17:14:52.999Z</time></trkpt><trkpt lat="43.78582973035101" lon="10.915402019024283"><ele>58.0</ele><time>2026-04-26T17:14:55.999Z</time></trkpt><trkpt lat="43.78590414977483" lon="10.915364614999381"><ele>57.99999999999999</ele><time>2026-04-26T17:14:58.999Z</time></trkpt><trkpt lat="43.78598136571485" lon="10.915336858867898"><ele>58.0</ele><time>2026-04-26T17:15:01.999Z</time></trkpt><trkpt lat="43.78606192542485" lon="10.915299138216538"><ele>56.33333333333333</ele><time>2026-04-26T17:15:04.999Z</time></trkpt><trkpt lat="43.78613933203821" lon="10.915269660535019"><ele>54.666666666666664</ele><time>2026-04-26T17:15:07.999Z</time></trkpt><trkpt lat="43.78622001368537" lon="10.915238275174644"><ele>53.0</ele><time>2026-04-26T17:15:10.999Z</time></trkpt><trkpt lat="43.7863071375913" lon="10.915209835564367"><ele>51.33333333333333</ele><time>2026-04-26T17:15:13.999Z</time></trkpt><trkpt lat="43.78639303668131" lon="10.91516942065658"><ele>49.666666666666664</ele><time>2026-04-26T17:15:16.999Z</time></trkpt><trkpt lat="43.78647809621232" lon="10.915136828033564"><ele>48.0</ele><time>2026-04-26T17:15:19.999Z</time></trkpt><trkpt lat="43.786571174798866" lon="10.915105230435543"><ele>48.0</ele><time>2026-04-26T17:15:22.999Z</time></trkpt><trkpt lat="43.78663479162006" lon="10.915089406951248"><ele>48.0</ele><time>2026-04-26T17:15:25Z</time></trkpt><trkpt lat="43.7866974829475" lon="10.915061727581586"><ele>48.0</ele><time>2026-04-26T17:15:27Z</time></trkpt><trkpt lat="43.78676182366321" lon="10.915047557189883"><ele>48.0</ele><time>2026-04-26T17:15:29Z</time></trkpt><trkpt lat="43.7868552230502" lon="10.915023836469116"><ele>48.0</ele><time>2026-04-26T17:15:32Z</time></trkpt><trkpt lat="43.786949317219324" lon="10.915013959797326"><ele>48.0</ele><time>2026-04-26T17:15:35Z</time></trkpt><trkpt lat="43.78703751484197" lon="10.914991684589634"><ele>47.166666666666664</ele><time>2026-04-26T17:15:38Z</time></trkpt><trkpt lat="43.78712491808075" lon="10.91498066569567"><ele>46.333333333333336</ele><time>2026-04-26T17:15:41Z</time></trkpt><trkpt lat="43.787209592677996" lon="10.914982254797284"><ele>45.5</ele><time>2026-04-26T17:15:44Z</time></trkpt><trkpt lat="43.78729233230702" lon="10.914973298064485"><ele>44.66666666666667</ele><time>2026-04-26T17:15:47Z</time></trkpt><trkpt lat="43.78735583760098" lon="10.914982797654035"><ele>43.833333333333336</ele><time>2026-04-26T17:15:49Z</time></trkpt><trkpt lat="43.78744089024479" lon="10.91498069017027"><ele>43.0</ele><time>2026-04-26T17:15:52Z</time></trkpt><trkpt lat="43.78752713245699" lon="10.914995605132798"><ele>43.0</ele><time>2026-04-26T17:15:55Z</time></trkpt><trkpt lat="43.787611570328984" lon="10.915008219546728"><ele>43.0</ele><time>2026-04-26T17:15:57.999Z</time></trkpt><trkpt lat="43.78769676450676" lon="10.915028816653857"><ele>43.0</ele><time>2026-04-26T17:16:00.999Z</time></trkpt><trkpt lat="43.787776260956086" lon="10.915066227452959"><ele>43.0</ele><time>2026-04-26T17:16:03.999Z</time></trkpt><trkpt lat="43.78784961748419" lon="10.915090016350078"><ele>43.0</ele><time>2026-04-26T17:16:06.999Z</time></trkpt><trkpt lat="43.7879277013045" lon="10.915116407367233"><ele>43.0</ele><time>2026-04-26T17:16:09.999Z</time></trkpt><trkpt lat="43.788005954688025" lon="10.915144050080357"><ele>43.333333333333336</ele><time>2026-04-26T17:16:12.999Z</time></trkpt><trkpt lat="43.78807238668376" lon="10.915178807945399"><ele>43.66666666666667</ele><time>2026-04-26T17:16:15.999Z</time></trkpt><trkpt lat="43.78815256998386" lon="10.915194929029703"><ele>44.0</ele><time>2026-04-26T17:16:18.999Z</time></trkpt><trkpt lat="43.78823245809483" lon="10.915214717292486"><ele>44.333333333333336</ele><time>2026-04-26T17:16:22.999Z</time></trkpt><trkpt lat="43.7883054441543" lon="10.915235420928179"><ele>44.666666666666664</ele><time>2026-04-26T17:16:25.999Z</time></trkpt><trkpt lat="43.78838649972035" lon="10.915245019490092"><ele>45.0</ele><time>2026-04-26T17:16:29.999Z</time></trkpt><trkpt lat="43.788454040071436" lon="10.915263847917041"><ele>45.14285714285714</ele><time>2026-04-26T17:16:32.999Z</time></trkpt><trkpt lat="43.78851784651543" lon="10.915273026500198"><ele>45.28571428571429</ele><time>2026-04-26T17:16:35.999Z</time></trkpt><trkpt lat="43.78858314281108" lon="10.915300667293454"><ele>45.42857142857143</ele><time>2026-04-26T17:16:38.999Z</time></trkpt><trkpt lat="43.788644391334635" lon="10.91534367933045"><ele>45.57142857142857</ele><time>2026-04-26T17:16:41.999Z</time></trkpt><trkpt lat="43.788682736590424" lon="10.91542922844233"><ele>45.71428571428571</ele><time>2026-04-26T17:16:44.999Z</time></trkpt><trkpt lat="43.78870891405973" lon="10.915510078925736"><ele>45.85714285714286</ele><time>2026-04-26T17:16:47.999Z</time></trkpt><trkpt lat="43.7887078041526" lon="10.915598365338523"><ele>46.0</ele><time>2026-04-26T17:16:50.999Z</time></trkpt><trkpt lat="43.788688172895355" lon="10.915705591375728"><ele>46.0</ele><time>2026-04-26T17:16:54.999Z</time></trkpt><trkpt lat="43.7886395644988" lon="10.915766702612526"><ele>46.0</ele><time>2026-04-26T17:16:57.999Z</time></trkpt><trkpt lat="43.788589278276284" lon="10.915867050673306"><ele>46.0</ele><time>2026-04-26T17:17:01.999Z</time></trkpt><trkpt lat="43.78855750663184" lon="10.915943559422622"><ele>46.0</ele><time>2026-04-26T17:17:04.999Z</time></trkpt><trkpt lat="43.788526569827255" lon="10.91602697352393"><ele>46.0</ele><time>2026-04-26T17:17:07.999Z</time></trkpt><trkpt lat="43.788495643841955" lon="10.91610618080923"><ele>46.0</ele><time>2026-04-26T17:17:10.999Z</time></trkpt><trkpt lat="43.78845975758497" lon="10.91618062031507"><ele>46.0</ele><time>2026-04-26T17:17:13.999Z</time></trkpt><trkpt lat="43.78841513355988" lon="10.916279634223313"><ele>46.285714285714285</ele><time>2026-04-26T17:17:17.999Z</time></trkpt><trkpt lat="43.7883722462247" lon="10.916347257679256"><ele>46.57142857142857</ele><time>2026-04-26T17:17:20.999Z</time></trkpt><trkpt lat="43.78833754515188" lon="10.91645194810295"><ele>46.857142857142854</ele><time>2026-04-26T17:17:24.999Z</time></trkpt><trkpt lat="43.78832895599224" lon="10.916542265521477"><ele>47.14285714285714</ele><time>2026-04-26T17:17:27.999Z</time></trkpt><trkpt lat="43.788291503860584" lon="10.91663703404562"><ele>47.42857142857143</ele><time>2026-04-26T17:17:32Z</time></trkpt><trkpt lat="43.78827878874604" lon="10.916724955575882"><ele>47.71428571428571</ele><time>2026-04-26T17:17:35Z</time></trkpt><trkpt lat="43.788255214320074" lon="10.916822633378722"><ele>48.0</ele><time>2026-04-26T17:17:39.001Z</time></trkpt><trkpt lat="43.7882280337131" lon="10.9169272268363"><ele>48.14285714285714</ele><time>2026-04-26T17:17:43Z</time></trkpt><trkpt lat="43.78819244045528" lon="10.916999952843971"><ele>48.285714285714285</ele><time>2026-04-26T17:17:46Z</time></trkpt><trkpt lat="43.78816785942816" lon="10.917081236568002"><ele>48.42857142857143</ele><time>2026-04-26T17:17:49Z</time></trkpt><trkpt lat="43.78814318338368" lon="10.91718081657571"><ele>48.57142857142857</ele><time>2026-04-26T17:17:53Z</time></trkpt><trkpt lat="43.78811212577121" lon="10.917279799945394"><ele>48.714285714285715</ele><time>2026-04-26T17:17:57Z</time></trkpt><trkpt lat="43.7880696337219" lon="10.917373563621846"><ele>48.857142857142854</ele><time>2026-04-26T17:18:01Z</time></trkpt><trkpt lat="43.78802937752319" lon="10.917474289025037"><ele>49.0</ele><time>2026-04-26T17:18:05Z</time></trkpt><trkpt lat="43.787998457342646" lon="10.91757234285494"><ele>49.714285714285715</ele><time>2026-04-26T17:18:09Z</time></trkpt><trkpt lat="43.787969197472876" lon="10.917671453128312"><ele>50.42857142857143</ele><time>2026-04-26T17:18:13Z</time></trkpt><trkpt lat="43.787956952328486" lon="10.917778432389234"><ele>51.14285714285714</ele><time>2026-04-26T17:18:17Z</time></trkpt><trkpt lat="43.78793273142427" lon="10.917880123743933"><ele>51.85714285714286</ele><time>2026-04-26T17:18:21Z</time></trkpt><trkpt lat="43.78791464396363" lon="10.917974963401827"><ele>52.57142857142857</ele><time>2026-04-26T17:18:25Z</time></trkpt><trkpt lat="43.78788272651572" lon="10.918060952027215"><ele>53.285714285714285</ele><time>2026-04-26T17:18:29Z</time></trkpt><trkpt lat="43.78785542235364" lon="10.91814329763607"><ele>54.0</ele><time>2026-04-26T17:18:33Z</time></trkpt><trkpt lat="43.78782222678092" lon="10.91824161476596"><ele>54.0</ele><time>2026-04-26T17:18:38Z</time></trkpt><trkpt lat="43.787793205981714" lon="10.91832663214735"><ele>54.0</ele><time>2026-04-26T17:18:42Z</time></trkpt><trkpt lat="43.78776125956895" lon="10.918418775708506"><ele>54.0</ele><time>2026-04-26T17:18:47Z</time></trkpt><trkpt lat="43.78773985606117" lon="10.918502131348518"><ele>54.0</ele><time>2026-04-26T17:18:51Z</time></trkpt><trkpt lat="43.78771212912962" lon="10.918593641825202"><ele>54.0</ele><time>2026-04-26T17:18:55Z</time></trkpt><trkpt lat="43.787689781623875" lon="10.918686368616218"><ele>54.0</ele><time>2026-04-26T17:18:58.999Z</time></trkpt><trkpt lat="43.78766124670541" lon="10.918774437312853"><ele>54.0</ele><time>2026-04-26T17:19:03.999Z</time></trkpt><trkpt lat="43.78764382783199" lon="10.91886785077696"><ele>55.57142857142857</ele><time>2026-04-26T17:19:08.999Z</time></trkpt><trkpt lat="43.78761302278364" lon="10.918946785595073"><ele>57.14285714285714</ele><time>2026-04-26T17:19:13.999Z</time></trkpt><trkpt lat="43.787578423403616" lon="10.919043043088996"><ele>58.71428571428572</ele><time>2026-04-26T17:19:17.999Z</time></trkpt><trkpt lat="43.787553158847636" lon="10.919128782408572"><ele>60.28571428571429</ele><time>2026-04-26T17:19:20.999Z</time></trkpt><trkpt lat="43.787525920266326" lon="10.919213611092978"><ele>61.85714285714286</ele><time>2026-04-26T17:19:23.999Z</time></trkpt><trkpt lat="43.787505612389445" lon="10.919297873002062"><ele>63.42857142857144</ele><time>2026-04-26T17:19:26.999Z</time></trkpt><trkpt lat="43.78748157613624" lon="10.91940262040088"><ele>65.0</ele><time>2026-04-26T17:19:30.999Z</time></trkpt><trkpt lat="43.787449395786965" lon="10.919506415173487"><ele>65.0</ele><time>2026-04-26T17:19:34.999Z</time></trkpt><trkpt lat="43.78740941251602" lon="10.9195958191152"><ele>65.0</ele><time>2026-04-26T17:19:39Z</time></trkpt><trkpt lat="43.78738944659474" lon="10.919696338913312"><ele>65.0</ele><time>2026-04-26T17:19:43.001Z</time></trkpt><trkpt lat="43.78736077011359" lon="10.919793462672969"><ele>65.0</ele><time>2026-04-26T17:19:47.001Z</time></trkpt><trkpt lat="43.78732135304485" lon="10.91989174186545"><ele>65.0</ele><time>2026-04-26T17:19:51Z</time></trkpt><trkpt lat="43.78730504781276" lon="10.920007088161679"><ele>65.0</ele><time>2026-04-26T17:19:55Z</time></trkpt><trkpt lat="43.7872817269216" lon="10.920090502320319"><ele>65.57142857142858</ele><time>2026-04-26T17:19:58Z</time></trkpt><trkpt lat="43.78724639888106" lon="10.920164551038425"><ele>66.14285714285714</ele><time>2026-04-26T17:20:01Z</time></trkpt><trkpt lat="43.78721012331279" lon="10.9202676569354"><ele>66.71428571428572</ele><time>2026-04-26T17:20:05Z</time></trkpt><trkpt lat="43.787195094193194" lon="10.920352442505962"><ele>67.28571428571429</ele><time>2026-04-26T17:20:08Z</time></trkpt><trkpt lat="43.78717576187869" lon="10.920447663681648"><ele>67.85714285714286</ele><time>2026-04-26T17:20:11Z</time></trkpt><trkpt lat="43.7871362049414" lon="10.920532642684664"><ele>68.42857142857143</ele><time>2026-04-26T17:20:14Z</time></trkpt><trkpt lat="43.78711392218395" lon="10.920620012782653"><ele>69.0</ele><time>2026-04-26T17:20:17Z</time></trkpt><trkpt lat="43.787082108661224" lon="10.920701523398046"><ele>69.0</ele><time>2026-04-26T17:20:20Z</time></trkpt><trkpt lat="43.78705480695593" lon="10.920789537009286"><ele>69.0</ele><time>2026-04-26T17:20:23Z</time></trkpt><trkpt lat="43.787029291035196" lon="10.920884299530792"><ele>69.0</ele><time>2026-04-26T17:20:26Z</time></trkpt><trkpt lat="43.78701096263383" lon="10.920991044026131"><ele>69.0</ele><time>2026-04-26T17:20:30Z</time></trkpt><trkpt lat="43.78698314598046" lon="10.921088841455381"><ele>69.0</ele><time>2026-04-26T17:20:33Z</time></trkpt><trkpt lat="43.78695326989501" lon="10.921172510650065"><ele>69.0</ele><time>2026-04-26T17:20:36Z</time></trkpt><trkpt lat="43.786932751550275" lon="10.921273169508108"><ele>69.0</ele><time>2026-04-26T17:20:39Z</time></trkpt><trkpt lat="43.78689691242238" lon="10.921345384449753"><ele>68.5</ele><time>2026-04-26T17:20:42Z</time></trkpt><trkpt lat="43.786860740459765" lon="10.921441683744296"><ele>68.0</ele><time>2026-04-26T17:20:45Z</time></trkpt><trkpt lat="43.7868160903124" lon="10.921522404492446"><ele>67.5</ele><time>2026-04-26T17:20:48Z</time></trkpt><trkpt lat="43.786761603164436" lon="10.921604484637877"><ele>67.0</ele><time>2026-04-26T17:20:51Z</time></trkpt><trkpt lat="43.78670929171778" lon="10.92166902905042"><ele>66.5</ele><time>2026-04-26T17:20:53.999Z</time></trkpt><trkpt lat="43.78666694245333" lon="10.921759664166578"><ele>66.0</ele><time>2026-04-26T17:20:56.998Z</time></trkpt><trkpt lat="43.78660877238407" lon="10.921844111247095"><ele>65.71428571428571</ele><time>2026-04-26T17:20:59.997Z</time></trkpt><trkpt lat="43.78655585669819" lon="10.9219118978161"><ele>65.42857142857143</ele><time>2026-04-26T17:21:02.997Z</time></trkpt><trkpt lat="43.786499370058095" lon="10.921974829940025"><ele>65.14285714285714</ele><time>2026-04-26T17:21:05.996Z</time></trkpt><trkpt lat="43.78644297901832" lon="10.92204124205051"><ele>64.85714285714286</ele><time>2026-04-26T17:21:08.996Z</time></trkpt><trkpt lat="43.786362960453346" lon="10.922034633146733"><ele>64.57142857142857</ele><time>2026-04-26T17:21:11.996Z</time></trkpt><trkpt lat="43.786331528921444" lon="10.921958455079986"><ele>64.28571428571428</ele><time>2026-04-26T17:21:13.996Z</time></trkpt><trkpt lat="43.786300559493775" lon="10.92188136382848"><ele>64.0</ele><time>2026-04-26T17:21:16.995Z</time></trkpt><trkpt lat="43.78624449041209" lon="10.92183786809829"><ele>63.99999999999999</ele><time>2026-04-26T17:21:19.995Z</time></trkpt><trkpt lat="43.78616293738227" lon="10.921896568623723"><ele>64.0</ele><time>2026-04-26T17:21:22.995Z</time></trkpt><trkpt lat="43.78608730617395" lon="10.921958400732647"><ele>64.0</ele><time>2026-04-26T17:21:25.995Z</time></trkpt><trkpt lat="43.786007567264946" lon="10.921992869506836"><ele>64.0</ele><time>2026-04-26T17:21:28.995Z</time></trkpt><trkpt lat="43.78594251038487" lon="10.92204111017687"><ele>63.99999999999999</ele><time>2026-04-26T17:21:31.995Z</time></trkpt><trkpt lat="43.785875931315985" lon="10.922107584381768"><ele>64.0</ele><time>2026-04-26T17:21:34.994Z</time></trkpt><trkpt lat="43.785794595770845" lon="10.922147969821463"><ele>62.49999999999999</ele><time>2026-04-26T17:21:37.994Z</time></trkpt><trkpt lat="43.78572107996554" lon="10.922170965660015"><ele>61.0</ele><time>2026-04-26T17:21:40.994Z</time></trkpt><trkpt lat="43.78564446155753" lon="10.922198997301846"><ele>59.5</ele><time>2026-04-26T17:21:43.996Z</time></trkpt><trkpt lat="43.78557013402355" lon="10.922217560339101"><ele>58.0</ele><time>2026-04-26T17:21:46.996Z</time></trkpt><trkpt lat="43.78549438216329" lon="10.922276981243877"><ele>56.49999999999999</ele><time>2026-04-26T17:21:49.996Z</time></trkpt><trkpt lat="43.785421149232526" lon="10.922351864560637"><ele>55.0</ele><time>2026-04-26T17:21:52.996Z</time></trkpt><trkpt lat="43.785336622201505" lon="10.9223774377723"><ele>54.99999999999999</ele><time>2026-04-26T17:21:55.996Z</time></trkpt><trkpt lat="43.78526440236629" lon="10.92232483594952"><ele>55.0</ele><time>2026-04-26T17:21:58.996Z</time></trkpt><trkpt lat="43.78520650617343" lon="10.922256101114183"><ele>55.0</ele><time>2026-04-26T17:22:01.996Z</time></trkpt><trkpt lat="43.785145428981494" lon="10.92220111811994"><ele>55.0</ele><time>2026-04-26T17:22:04.996Z</time></trkpt><trkpt lat="43.78509724302936" lon="10.922126333827393"><ele>54.99999999999999</ele><time>2026-04-26T17:22:07.995Z</time></trkpt><trkpt lat="43.78504623309294" lon="10.92205800753037"><ele>55.0</ele><time>2026-04-26T17:22:10.995Z</time></trkpt><trkpt lat="43.78500344409277" lon="10.921966187495135"><ele>55.166666666666664</ele><time>2026-04-26T17:22:13.995Z</time></trkpt><trkpt lat="43.78494751913659" lon="10.921900434733825"><ele>55.33333333333333</ele><time>2026-04-26T17:22:16.995Z</time></trkpt><trkpt lat="43.784906245581254" lon="10.921807085588132"><ele>55.5</ele><time>2026-04-26T17:22:19.995Z</time></trkpt><trkpt lat="43.78484496788727" lon="10.921746799601037"><ele>55.66666666666667</ele><time>2026-04-26T17:22:22.995Z</time></trkpt><trkpt lat="43.78479034285407" lon="10.9216748824631"><ele>55.833333333333336</ele><time>2026-04-26T17:22:25.995Z</time></trkpt><trkpt lat="43.7847192217961" lon="10.921616322458064"><ele>56.0</ele><time>2026-04-26T17:22:28.995Z</time></trkpt><trkpt lat="43.78464495097398" lon="10.921648610736963"><ele>56.00000000000001</ele><time>2026-04-26T17:22:31.995Z</time></trkpt><trkpt lat="43.78457226148359" lon="10.921648994610909"><ele>56.0</ele><time>2026-04-26T17:22:34.995Z</time></trkpt><trkpt lat="43.78450179262622" lon="10.921601079290063"><ele>56.0</ele><time>2026-04-26T17:22:37.995Z</time></trkpt><trkpt lat="43.784450121294775" lon="10.921508929362595"><ele>56.0</ele><time>2026-04-26T17:22:40.995Z</time></trkpt><trkpt lat="43.78439724415748" lon="10.921450517308836"><ele>56.00000000000001</ele><time>2026-04-26T17:22:42.995Z</time></trkpt><trkpt lat="43.784344822119614" lon="10.921356047939083"><ele>56.0</ele><time>2026-04-26T17:22:45.995Z</time></trkpt><trkpt lat="43.78428463044727" lon="10.921291572566671"><ele>55.00000000000001</ele><time>2026-04-26T17:22:48.995Z</time></trkpt><trkpt lat="43.78425449936822" lon="10.921204033718226"><ele>54.0</ele><time>2026-04-26T17:22:51.995Z</time></trkpt><trkpt lat="43.784231346561796" lon="10.92110520645688"><ele>53.0</ele><time>2026-04-26T17:22:54.995Z</time></trkpt><trkpt lat="43.78419410498613" lon="10.920995452055038"><ele>52.0</ele><time>2026-04-26T17:22:57.995Z</time></trkpt><trkpt lat="43.78417446542845" lon="10.920897969813849"><ele>51.00000000000001</ele><time>2026-04-26T17:23:00.995Z</time></trkpt><trkpt lat="43.78415009969244" lon="10.920796893162791"><ele>50.0</ele><time>2026-04-26T17:23:03.995Z</time></trkpt><trkpt lat="43.78412291135503" lon="10.920696313687642"><ele>49.66666666666667</ele><time>2026-04-26T17:23:06.995Z</time></trkpt><trkpt lat="43.784098222223356" lon="10.920598566083424"><ele>49.333333333333336</ele><time>2026-04-26T17:23:09.995Z</time></trkpt><trkpt lat="43.78406112441415" lon="10.920508652872849"><ele>49.0</ele><time>2026-04-26T17:23:12.995Z</time></trkpt><trkpt lat="43.784018143243536" lon="10.920419085298601"><ele>48.66666666666667</ele><time>2026-04-26T17:23:15.995Z</time></trkpt><trkpt lat="43.783932828009" lon="10.920462109442349"><ele>48.333333333333336</ele><time>2026-04-26T17:23:18.995Z</time></trkpt><trkpt lat="43.78387831183937" lon="10.92052199371514"><ele>48.0</ele><time>2026-04-26T17:23:21.995Z</time></trkpt><trkpt lat="43.783822628843794" lon="10.920592414293905"><ele>47.99999999999999</ele><time>2026-04-26T17:23:24.994Z</time></trkpt><trkpt lat="43.78375820375924" lon="10.9206575959113"><ele>48.0</ele><time>2026-04-26T17:23:27.994Z</time></trkpt><trkpt lat="43.7837179616175" lon="10.920728630212592"><ele>48.0</ele><time>2026-04-26T17:23:30.994Z</time></trkpt><trkpt lat="43.78366511540836" lon="10.920782654869353"><ele>48.0</ele><time>2026-04-26T17:23:33.994Z</time></trkpt><trkpt lat="43.783592854871" lon="10.920849160865181"><ele>48.0</ele><time>2026-04-26T17:23:37.994Z</time></trkpt><trkpt lat="43.78352428219274" lon="10.920904482190547"><ele>47.99999999999999</ele><time>2026-04-26T17:23:41.994Z</time></trkpt><trkpt lat="43.783466122908436" lon="10.920943543297074"><ele>48.0</ele><time>2026-04-26T17:23:44.994Z</time></trkpt><trkpt lat="43.78340050992727" lon="10.921001287395747"><ele>49.42857142857142</ele><time>2026-04-26T17:23:48.995Z</time></trkpt><trkpt lat="43.78332983849803" lon="10.921057656655577"><ele>50.85714285714286</ele><time>2026-04-26T17:23:52.996Z</time></trkpt><trkpt lat="43.78326280152711" lon="10.921104546727882"><ele>52.28571428571429</ele><time>2026-04-26T17:23:56.996Z</time></trkpt><trkpt lat="43.78320174035348" lon="10.92116683201391"><ele>53.714285714285715</ele><time>2026-04-26T17:24:00.996Z</time></trkpt><trkpt lat="43.78313509388091" lon="10.9211924153946"><ele>55.142857142857146</ele><time>2026-04-26T17:24:03.996Z</time></trkpt><trkpt lat="43.7830722086565" lon="10.921226816585936"><ele>56.57142857142858</ele><time>2026-04-26T17:24:07.996Z</time></trkpt><trkpt lat="43.783011131901304" lon="10.921274136150561"><ele>58.00000000000001</ele><time>2026-04-26T17:24:12.996Z</time></trkpt><trkpt lat="43.782987202733686" lon="10.921360540790513"><ele>58.0</ele><time>2026-04-26T17:24:18.996Z</time></trkpt><trkpt lat="43.78292293658562" lon="10.921401772128453"><ele>58.0</ele><time>2026-04-26T17:24:25.996Z</time></trkpt><trkpt lat="43.78285940553186" lon="10.921445635803789"><ele>58.0</ele><time>2026-04-26T17:24:31.996Z</time></trkpt><trkpt lat="43.78280638196345" lon="10.921504743876"><ele>58.0</ele><time>2026-04-26T17:24:38.996Z</time></trkpt></trkseg></trk></gpx>